<?xml version="1.0" encoding="UTF-8" standalone="no" ?>
<gpx xmlns="http://www.topografix.com/GPX/1/1" xmlns:xsi="http://www.w3.org/2001/XMLSchema-instance" xsi:schemaLocation="http://www.topografix.com/GPX/1/1 http://www.topografix.com/GPX/1/1/gpx.xsd" version="1.1" creator="VisuGPX - https://www.visugpx.com">
  <metadata>
    <name>Gouesnou-CoatMeal</name>
    <desc><![CDATA[Terrain relativement plat et sympa.]]></desc>
  </metadata>
  <trk>
    <name><![CDATA[GouesNou_CoatMeal_Goues]]></name>
    <trkseg>
      <trkpt lat="48.45485" lon="-4.46068">
        <ele>88</ele>
        <time>2016-06-18T07:38:45.000Z</time>
      </trkpt>
      <trkpt lat="48.45488" lon="-4.46076">
        <ele>87.800003051758</ele>
        <time>2016-06-18T07:38:49.000Z</time>
      </trkpt>
      <trkpt lat="48.45495" lon="-4.46096">
        <ele>87.400001525879</ele>
        <time>2016-06-18T07:38:57.000Z</time>
      </trkpt>
      <trkpt lat="48.45512" lon="-4.46092">
        <ele>87.400001525879</ele>
        <time>2016-06-18T07:39:04.000Z</time>
      </trkpt>
      <trkpt lat="48.45524" lon="-4.46089">
        <ele>87.199996948242</ele>
        <time>2016-06-18T07:39:10.000Z</time>
      </trkpt>
      <trkpt lat="48.45537" lon="-4.46083">
        <ele>86.800003051758</ele>
        <time>2016-06-18T07:39:15.000Z</time>
      </trkpt>
      <trkpt lat="48.45547" lon="-4.46077">
        <ele>86.800003051758</ele>
        <time>2016-06-18T07:39:18.000Z</time>
      </trkpt>
      <trkpt lat="48.45557" lon="-4.4609">
        <ele>86.400001525879</ele>
        <time>2016-06-18T07:39:22.000Z</time>
      </trkpt>
      <trkpt lat="48.45571" lon="-4.46125">
        <ele>85.400001525879</ele>
        <time>2016-06-18T07:39:28.000Z</time>
      </trkpt>
      <trkpt lat="48.45583" lon="-4.46149">
        <ele>85.199996948242</ele>
        <time>2016-06-18T07:39:33.000Z</time>
      </trkpt>
      <trkpt lat="48.45595" lon="-4.4615">
        <ele>85.400001525879</ele>
        <time>2016-06-18T07:39:37.000Z</time>
      </trkpt>
      <trkpt lat="48.4561" lon="-4.46136">
        <ele>85.400001525879</ele>
        <time>2016-06-18T07:39:42.000Z</time>
      </trkpt>
      <trkpt lat="48.45631" lon="-4.46117">
        <ele>85.400001525879</ele>
        <time>2016-06-18T07:39:48.000Z</time>
      </trkpt>
      <trkpt lat="48.45649" lon="-4.461">
        <ele>85.599998474121</ele>
        <time>2016-06-18T07:39:53.000Z</time>
      </trkpt>
      <trkpt lat="48.4568" lon="-4.46076">
        <ele>86</ele>
        <time>2016-06-18T07:40:01.000Z</time>
      </trkpt>
      <trkpt lat="48.45683" lon="-4.46073">
        <ele>86</ele>
        <time>2016-06-18T07:40:02.000Z</time>
      </trkpt>
      <trkpt lat="48.45696" lon="-4.46057">
        <ele>86</ele>
        <time>2016-06-18T07:40:06.000Z</time>
      </trkpt>
      <trkpt lat="48.45698" lon="-4.4607">
        <ele>86</ele>
        <time>2016-06-18T07:40:08.000Z</time>
      </trkpt>
      <trkpt lat="48.45698" lon="-4.46077">
        <ele>86</ele>
        <time>2016-06-18T07:40:09.000Z</time>
      </trkpt>
      <trkpt lat="48.45704" lon="-4.46136">
        <ele>86.400001525879</ele>
        <time>2016-06-18T07:40:18.000Z</time>
      </trkpt>
      <trkpt lat="48.45707" lon="-4.46192">
        <ele>87.400001525879</ele>
        <time>2016-06-18T07:40:26.000Z</time>
      </trkpt>
      <trkpt lat="48.45706" lon="-4.46242">
        <ele>88</ele>
        <time>2016-06-18T07:40:33.000Z</time>
      </trkpt>
      <trkpt lat="48.45708" lon="-4.463">
        <ele>88.199996948242</ele>
        <time>2016-06-18T07:40:41.000Z</time>
      </trkpt>
      <trkpt lat="48.4571" lon="-4.46314">
        <ele>88.400001525879</ele>
        <time>2016-06-18T07:40:43.000Z</time>
      </trkpt>
      <trkpt lat="48.45714" lon="-4.4637">
        <ele>88.199996948242</ele>
        <time>2016-06-18T07:40:52.000Z</time>
      </trkpt>
      <trkpt lat="48.45718" lon="-4.46422">
        <ele>88.800003051758</ele>
        <time>2016-06-18T07:41:00.000Z</time>
      </trkpt>
      <trkpt lat="48.45719" lon="-4.46482">
        <ele>88.800003051758</ele>
        <time>2016-06-18T07:41:09.000Z</time>
      </trkpt>
      <trkpt lat="48.45716" lon="-4.46522">
        <ele>88.800003051758</ele>
        <time>2016-06-18T07:41:15.000Z</time>
      </trkpt>
      <trkpt lat="48.45717" lon="-4.46549">
        <ele>89</ele>
        <time>2016-06-18T07:41:20.000Z</time>
      </trkpt>
      <trkpt lat="48.45713" lon="-4.46568">
        <ele>89</ele>
        <time>2016-06-18T07:41:23.000Z</time>
      </trkpt>
      <trkpt lat="48.4571" lon="-4.46606">
        <ele>89</ele>
        <time>2016-06-18T07:41:28.000Z</time>
      </trkpt>
      <trkpt lat="48.45705" lon="-4.46642">
        <ele>89</ele>
        <time>2016-06-18T07:41:33.000Z</time>
      </trkpt>
      <trkpt lat="48.45678" lon="-4.46706">
        <ele>89</ele>
        <time>2016-06-18T07:41:42.000Z</time>
      </trkpt>
      <trkpt lat="48.45664" lon="-4.46746">
        <ele>89</ele>
        <time>2016-06-18T07:41:48.000Z</time>
      </trkpt>
      <trkpt lat="48.45651" lon="-4.46795">
        <ele>89.199996948242</ele>
        <time>2016-06-18T07:41:56.000Z</time>
      </trkpt>
      <trkpt lat="48.45637" lon="-4.46864">
        <ele>89.599998474121</ele>
        <time>2016-06-18T07:42:07.000Z</time>
      </trkpt>
      <trkpt lat="48.45628" lon="-4.4692">
        <ele>90.400001525879</ele>
        <time>2016-06-18T07:42:16.000Z</time>
      </trkpt>
      <trkpt lat="48.45615" lon="-4.46983">
        <ele>90.400001525879</ele>
        <time>2016-06-18T07:42:26.000Z</time>
      </trkpt>
      <trkpt lat="48.45603" lon="-4.47033">
        <ele>90.800003051758</ele>
        <time>2016-06-18T07:42:33.000Z</time>
      </trkpt>
      <trkpt lat="48.45586" lon="-4.47103">
        <ele>90.400001525879</ele>
        <time>2016-06-18T07:42:42.000Z</time>
      </trkpt>
      <trkpt lat="48.45573" lon="-4.47166">
        <ele>89.400001525879</ele>
        <time>2016-06-18T07:42:50.000Z</time>
      </trkpt>
      <trkpt lat="48.45561" lon="-4.47215">
        <ele>89.400001525879</ele>
        <time>2016-06-18T07:42:57.000Z</time>
      </trkpt>
      <trkpt lat="48.45558" lon="-4.4723">
        <ele>89.800003051758</ele>
        <time>2016-06-18T07:42:59.000Z</time>
      </trkpt>
      <trkpt lat="48.45561" lon="-4.47268">
        <ele>90.199996948242</ele>
        <time>2016-06-18T07:43:04.000Z</time>
      </trkpt>
      <trkpt lat="48.45569" lon="-4.47305">
        <ele>90.400001525879</ele>
        <time>2016-06-18T07:43:09.000Z</time>
      </trkpt>
      <trkpt lat="48.4558" lon="-4.47356">
        <ele>89.599998474121</ele>
        <time>2016-06-18T07:43:17.000Z</time>
      </trkpt>
      <trkpt lat="48.45584" lon="-4.47371">
        <ele>89.400001525879</ele>
        <time>2016-06-18T07:43:20.000Z</time>
      </trkpt>
      <trkpt lat="48.45594" lon="-4.47404">
        <ele>89.199996948242</ele>
        <time>2016-06-18T07:43:27.000Z</time>
      </trkpt>
      <trkpt lat="48.45604" lon="-4.47422">
        <ele>88.800003051758</ele>
        <time>2016-06-18T07:43:32.000Z</time>
      </trkpt>
      <trkpt lat="48.45605" lon="-4.47427">
        <ele>88.800003051758</ele>
        <time>2016-06-18T07:43:36.000Z</time>
      </trkpt>
      <trkpt lat="48.45601" lon="-4.47446">
        <ele>89</ele>
        <time>2016-06-18T07:44:04.000Z</time>
      </trkpt>
      <trkpt lat="48.45605" lon="-4.4746">
        <ele>88.800003051758</ele>
        <time>2016-06-18T07:44:10.000Z</time>
      </trkpt>
      <trkpt lat="48.45609" lon="-4.47473">
        <ele>88.800003051758</ele>
        <time>2016-06-18T07:44:16.000Z</time>
      </trkpt>
      <trkpt lat="48.45612" lon="-4.47488">
        <ele>88.599998474121</ele>
        <time>2016-06-18T07:44:22.000Z</time>
      </trkpt>
      <trkpt lat="48.45617" lon="-4.47498">
        <ele>88.599998474121</ele>
        <time>2016-06-18T07:44:26.000Z</time>
      </trkpt>
      <trkpt lat="48.45617" lon="-4.47511">
        <ele>88.599998474121</ele>
        <time>2016-06-18T07:44:31.000Z</time>
      </trkpt>
      <trkpt lat="48.45619" lon="-4.47507">
        <ele>88.599998474121</ele>
        <time>2016-06-18T07:44:36.000Z</time>
      </trkpt>
      <trkpt lat="48.45616" lon="-4.4751">
        <ele>88.599998474121</ele>
        <time>2016-06-18T07:44:39.000Z</time>
      </trkpt>
      <trkpt lat="48.45615" lon="-4.47514">
        <ele>88.599998474121</ele>
        <time>2016-06-18T07:44:41.000Z</time>
      </trkpt>
      <trkpt lat="48.45614" lon="-4.47517">
        <ele>88.599998474121</ele>
        <time>2016-06-18T07:44:43.000Z</time>
      </trkpt>
      <trkpt lat="48.4561" lon="-4.47524">
        <ele>88.800003051758</ele>
        <time>2016-06-18T07:44:49.000Z</time>
      </trkpt>
      <trkpt lat="48.45602" lon="-4.47542">
        <ele>89.199996948242</ele>
        <time>2016-06-18T07:44:56.000Z</time>
      </trkpt>
      <trkpt lat="48.45598" lon="-4.47566">
        <ele>89.400001525879</ele>
        <time>2016-06-18T07:45:00.000Z</time>
      </trkpt>
      <trkpt lat="48.45587" lon="-4.47615">
        <ele>89.599998474121</ele>
        <time>2016-06-18T07:45:07.000Z</time>
      </trkpt>
      <trkpt lat="48.45568" lon="-4.47683">
        <ele>88.599998474121</ele>
        <time>2016-06-18T07:45:16.000Z</time>
      </trkpt>
      <trkpt lat="48.45548" lon="-4.47759">
        <ele>87.599998474121</ele>
        <time>2016-06-18T07:45:25.000Z</time>
      </trkpt>
      <trkpt lat="48.45533" lon="-4.47804">
        <ele>87.400001525879</ele>
        <time>2016-06-18T07:45:31.000Z</time>
      </trkpt>
      <trkpt lat="48.45507" lon="-4.47869">
        <ele>87.400001525879</ele>
        <time>2016-06-18T07:45:40.000Z</time>
      </trkpt>
      <trkpt lat="48.45504" lon="-4.47876">
        <ele>87.199996948242</ele>
        <time>2016-06-18T07:45:41.000Z</time>
      </trkpt>
      <trkpt lat="48.45493" lon="-4.479">
        <ele>86.800003051758</ele>
        <time>2016-06-18T07:45:44.000Z</time>
      </trkpt>
      <trkpt lat="48.45481" lon="-4.47956">
        <ele>86.599998474121</ele>
        <time>2016-06-18T07:45:51.000Z</time>
      </trkpt>
      <trkpt lat="48.45471" lon="-4.47999">
        <ele>86.800003051758</ele>
        <time>2016-06-18T07:45:56.000Z</time>
      </trkpt>
      <trkpt lat="48.45454" lon="-4.48032">
        <ele>85.800003051758</ele>
        <time>2016-06-18T07:46:00.000Z</time>
      </trkpt>
      <trkpt lat="48.45419" lon="-4.4809">
        <ele>86</ele>
        <time>2016-06-18T07:46:08.000Z</time>
      </trkpt>
      <trkpt lat="48.45398" lon="-4.4814">
        <ele>86.800003051758</ele>
        <time>2016-06-18T07:46:15.000Z</time>
      </trkpt>
      <trkpt lat="48.45381" lon="-4.48181">
        <ele>87</ele>
        <time>2016-06-18T07:46:21.000Z</time>
      </trkpt>
      <trkpt lat="48.45365" lon="-4.48233">
        <ele>87.400001525879</ele>
        <time>2016-06-18T07:46:28.000Z</time>
      </trkpt>
      <trkpt lat="48.45353" lon="-4.4827">
        <ele>87.800003051758</ele>
        <time>2016-06-18T07:46:33.000Z</time>
      </trkpt>
      <trkpt lat="48.4534" lon="-4.48314">
        <ele>87.800003051758</ele>
        <time>2016-06-18T07:46:38.000Z</time>
      </trkpt>
      <trkpt lat="48.45329" lon="-4.48356">
        <ele>87.400001525879</ele>
        <time>2016-06-18T07:46:43.000Z</time>
      </trkpt>
      <trkpt lat="48.45312" lon="-4.48421">
        <ele>86.800003051758</ele>
        <time>2016-06-18T07:46:51.000Z</time>
      </trkpt>
      <trkpt lat="48.45308" lon="-4.48446">
        <ele>86.599998474121</ele>
        <time>2016-06-18T07:46:54.000Z</time>
      </trkpt>
      <trkpt lat="48.45308" lon="-4.48483">
        <ele>86.400001525879</ele>
        <time>2016-06-18T07:46:58.000Z</time>
      </trkpt>
      <trkpt lat="48.45313" lon="-4.4852">
        <ele>86.400001525879</ele>
        <time>2016-06-18T07:47:02.000Z</time>
      </trkpt>
      <trkpt lat="48.45318" lon="-4.48566">
        <ele>86.400001525879</ele>
        <time>2016-06-18T07:47:07.000Z</time>
      </trkpt>
      <trkpt lat="48.45322" lon="-4.48621">
        <ele>87.800003051758</ele>
        <time>2016-06-18T07:47:13.000Z</time>
      </trkpt>
      <trkpt lat="48.45323" lon="-4.48638">
        <ele>88</ele>
        <time>2016-06-18T07:47:15.000Z</time>
      </trkpt>
      <trkpt lat="48.45324" lon="-4.48659">
        <ele>88</ele>
        <time>2016-06-18T07:47:18.000Z</time>
      </trkpt>
      <trkpt lat="48.45324" lon="-4.48694">
        <ele>88</ele>
        <time>2016-06-18T07:47:23.000Z</time>
      </trkpt>
      <trkpt lat="48.45326" lon="-4.48726">
        <ele>88.599998474121</ele>
        <time>2016-06-18T07:47:27.000Z</time>
      </trkpt>
      <trkpt lat="48.45327" lon="-4.48746">
        <ele>89.199996948242</ele>
        <time>2016-06-18T07:47:30.000Z</time>
      </trkpt>
      <trkpt lat="48.45332" lon="-4.48779">
        <ele>89.800003051758</ele>
        <time>2016-06-18T07:47:35.000Z</time>
      </trkpt>
      <trkpt lat="48.45332" lon="-4.48814">
        <ele>90.599998474121</ele>
        <time>2016-06-18T07:47:40.000Z</time>
      </trkpt>
      <trkpt lat="48.45331" lon="-4.48827">
        <ele>90.800003051758</ele>
        <time>2016-06-18T07:47:42.000Z</time>
      </trkpt>
      <trkpt lat="48.45331" lon="-4.48839">
        <ele>91.199996948242</ele>
        <time>2016-06-18T07:47:44.000Z</time>
      </trkpt>
      <trkpt lat="48.45332" lon="-4.48863">
        <ele>91.800003051758</ele>
        <time>2016-06-18T07:47:48.000Z</time>
      </trkpt>
      <trkpt lat="48.45335" lon="-4.48898">
        <ele>92.800003051758</ele>
        <time>2016-06-18T07:47:54.000Z</time>
      </trkpt>
      <trkpt lat="48.45339" lon="-4.48932">
        <ele>93.599998474121</ele>
        <time>2016-06-18T07:48:00.000Z</time>
      </trkpt>
      <trkpt lat="48.45346" lon="-4.48964">
        <ele>94</ele>
        <time>2016-06-18T07:48:05.000Z</time>
      </trkpt>
      <trkpt lat="48.45351" lon="-4.48991">
        <ele>93.800003051758</ele>
        <time>2016-06-18T07:48:10.000Z</time>
      </trkpt>
      <trkpt lat="48.45358" lon="-4.4901">
        <ele>93.400001525879</ele>
        <time>2016-06-18T07:48:14.000Z</time>
      </trkpt>
      <trkpt lat="48.45365" lon="-4.4904">
        <ele>93.400001525879</ele>
        <time>2016-06-18T07:48:20.000Z</time>
      </trkpt>
      <trkpt lat="48.45368" lon="-4.49072">
        <ele>93.400001525879</ele>
        <time>2016-06-18T07:48:25.000Z</time>
      </trkpt>
      <trkpt lat="48.45372" lon="-4.49114">
        <ele>93.400001525879</ele>
        <time>2016-06-18T07:48:31.000Z</time>
      </trkpt>
      <trkpt lat="48.45376" lon="-4.49133">
        <ele>94</ele>
        <time>2016-06-18T07:48:34.000Z</time>
      </trkpt>
      <trkpt lat="48.45382" lon="-4.49186">
        <ele>96</ele>
        <time>2016-06-18T07:48:44.000Z</time>
      </trkpt>
      <trkpt lat="48.45384" lon="-4.49205">
        <ele>96.800003051758</ele>
        <time>2016-06-18T07:48:48.000Z</time>
      </trkpt>
      <trkpt lat="48.45387" lon="-4.49228">
        <ele>98</ele>
        <time>2016-06-18T07:48:53.000Z</time>
      </trkpt>
      <trkpt lat="48.45391" lon="-4.49242">
        <ele>98.599998474121</ele>
        <time>2016-06-18T07:48:55.000Z</time>
      </trkpt>
      <trkpt lat="48.45403" lon="-4.49254">
        <ele>99</ele>
        <time>2016-06-18T07:48:59.000Z</time>
      </trkpt>
      <trkpt lat="48.45423" lon="-4.49259">
        <ele>99</ele>
        <time>2016-06-18T07:49:06.000Z</time>
      </trkpt>
      <trkpt lat="48.45437" lon="-4.4926">
        <ele>98.800003051758</ele>
        <time>2016-06-18T07:49:11.000Z</time>
      </trkpt>
      <trkpt lat="48.45459" lon="-4.49263">
        <ele>98.199996948242</ele>
        <time>2016-06-18T07:49:17.000Z</time>
      </trkpt>
      <trkpt lat="48.45486" lon="-4.49271">
        <ele>97.199996948242</ele>
        <time>2016-06-18T07:49:24.000Z</time>
      </trkpt>
      <trkpt lat="48.45508" lon="-4.49278">
        <ele>96.199996948242</ele>
        <time>2016-06-18T07:49:30.000Z</time>
      </trkpt>
      <trkpt lat="48.45521" lon="-4.49282">
        <ele>96</ele>
        <time>2016-06-18T07:49:33.000Z</time>
      </trkpt>
      <trkpt lat="48.45538" lon="-4.49286">
        <ele>95.599998474121</ele>
        <time>2016-06-18T07:49:37.000Z</time>
      </trkpt>
      <trkpt lat="48.45547" lon="-4.49289">
        <ele>95.599998474121</ele>
        <time>2016-06-18T07:49:39.000Z</time>
      </trkpt>
      <trkpt lat="48.45569" lon="-4.49294">
        <ele>95.199996948242</ele>
        <time>2016-06-18T07:49:44.000Z</time>
      </trkpt>
      <trkpt lat="48.45605" lon="-4.49305">
        <ele>95</ele>
        <time>2016-06-18T07:49:52.000Z</time>
      </trkpt>
      <trkpt lat="48.45609" lon="-4.49306">
        <ele>95</ele>
        <time>2016-06-18T07:49:53.000Z</time>
      </trkpt>
      <trkpt lat="48.45638" lon="-4.49313">
        <ele>95</ele>
        <time>2016-06-18T07:50:00.000Z</time>
      </trkpt>
      <trkpt lat="48.45666" lon="-4.49319">
        <ele>95.199996948242</ele>
        <time>2016-06-18T07:50:07.000Z</time>
      </trkpt>
      <trkpt lat="48.45671" lon="-4.4932">
        <ele>95.199996948242</ele>
        <time>2016-06-18T07:50:08.000Z</time>
      </trkpt>
      <trkpt lat="48.45685" lon="-4.49327">
        <ele>95.599998474121</ele>
        <time>2016-06-18T07:50:12.000Z</time>
      </trkpt>
      <trkpt lat="48.45704" lon="-4.49343">
        <ele>95.800003051758</ele>
        <time>2016-06-18T07:50:19.000Z</time>
      </trkpt>
      <trkpt lat="48.45707" lon="-4.49346">
        <ele>95.800003051758</ele>
        <time>2016-06-18T07:50:22.000Z</time>
      </trkpt>
      <trkpt lat="48.45724" lon="-4.49361">
        <ele>96</ele>
        <time>2016-06-18T07:50:30.000Z</time>
      </trkpt>
      <trkpt lat="48.45736" lon="-4.49373">
        <ele>96</ele>
        <time>2016-06-18T07:50:35.000Z</time>
      </trkpt>
      <trkpt lat="48.45747" lon="-4.4939">
        <ele>95.800003051758</ele>
        <time>2016-06-18T07:50:40.000Z</time>
      </trkpt>
      <trkpt lat="48.45764" lon="-4.49411">
        <ele>96</ele>
        <time>2016-06-18T07:50:46.000Z</time>
      </trkpt>
      <trkpt lat="48.4578" lon="-4.49447">
        <ele>95.800003051758</ele>
        <time>2016-06-18T07:50:54.000Z</time>
      </trkpt>
      <trkpt lat="48.45793" lon="-4.4949">
        <ele>95.199996948242</ele>
        <time>2016-06-18T07:51:02.000Z</time>
      </trkpt>
      <trkpt lat="48.458" lon="-4.49514">
        <ele>95.199996948242</ele>
        <time>2016-06-18T07:51:06.000Z</time>
      </trkpt>
      <trkpt lat="48.45814" lon="-4.49528">
        <ele>95.599998474121</ele>
        <time>2016-06-18T07:51:10.000Z</time>
      </trkpt>
      <trkpt lat="48.45819" lon="-4.49528">
        <ele>95.599998474121</ele>
        <time>2016-06-18T07:51:11.000Z</time>
      </trkpt>
      <trkpt lat="48.45848" lon="-4.49525">
        <ele>95.800003051758</ele>
        <time>2016-06-18T07:51:18.000Z</time>
      </trkpt>
      <trkpt lat="48.45881" lon="-4.49519">
        <ele>95.800003051758</ele>
        <time>2016-06-18T07:51:26.000Z</time>
      </trkpt>
      <trkpt lat="48.4591" lon="-4.49513">
        <ele>95.800003051758</ele>
        <time>2016-06-18T07:51:32.000Z</time>
      </trkpt>
      <trkpt lat="48.45947" lon="-4.49516">
        <ele>95.599998474121</ele>
        <time>2016-06-18T07:51:39.000Z</time>
      </trkpt>
      <trkpt lat="48.45969" lon="-4.49514">
        <ele>95.400001525879</ele>
        <time>2016-06-18T07:51:43.000Z</time>
      </trkpt>
      <trkpt lat="48.46015" lon="-4.49493">
        <ele>94.599998474121</ele>
        <time>2016-06-18T07:51:51.000Z</time>
      </trkpt>
      <trkpt lat="48.46037" lon="-4.49495">
        <ele>94.199996948242</ele>
        <time>2016-06-18T07:51:55.000Z</time>
      </trkpt>
      <trkpt lat="48.46046" lon="-4.49503">
        <ele>94.199996948242</ele>
        <time>2016-06-18T07:51:57.000Z</time>
      </trkpt>
      <trkpt lat="48.46072" lon="-4.4951">
        <ele>94</ele>
        <time>2016-06-18T07:52:02.000Z</time>
      </trkpt>
      <trkpt lat="48.46112" lon="-4.4952">
        <ele>94.199996948242</ele>
        <time>2016-06-18T07:52:09.000Z</time>
      </trkpt>
      <trkpt lat="48.46129" lon="-4.49527">
        <ele>94.599998474121</ele>
        <time>2016-06-18T07:52:12.000Z</time>
      </trkpt>
      <trkpt lat="48.46147" lon="-4.49531">
        <ele>95.199996948242</ele>
        <time>2016-06-18T07:52:15.000Z</time>
      </trkpt>
      <trkpt lat="48.4617" lon="-4.49523">
        <ele>95.599998474121</ele>
        <time>2016-06-18T07:52:19.000Z</time>
      </trkpt>
      <trkpt lat="48.46213" lon="-4.4949">
        <ele>95.199996948242</ele>
        <time>2016-06-18T07:52:27.000Z</time>
      </trkpt>
      <trkpt lat="48.46245" lon="-4.49464">
        <ele>94.400001525879</ele>
        <time>2016-06-18T07:52:33.000Z</time>
      </trkpt>
      <trkpt lat="48.46282" lon="-4.49427">
        <ele>93.800003051758</ele>
        <time>2016-06-18T07:52:40.000Z</time>
      </trkpt>
      <trkpt lat="48.46293" lon="-4.49419">
        <ele>93.400001525879</ele>
        <time>2016-06-18T07:52:42.000Z</time>
      </trkpt>
      <trkpt lat="48.46314" lon="-4.49423">
        <ele>92.800003051758</ele>
        <time>2016-06-18T07:52:46.000Z</time>
      </trkpt>
      <trkpt lat="48.46317" lon="-4.49429">
        <ele>92.800003051758</ele>
        <time>2016-06-18T07:52:47.000Z</time>
      </trkpt>
      <trkpt lat="48.46327" lon="-4.49452">
        <ele>92.599998474121</ele>
        <time>2016-06-18T07:52:51.000Z</time>
      </trkpt>
      <trkpt lat="48.46338" lon="-4.49469">
        <ele>92.599998474121</ele>
        <time>2016-06-18T07:52:54.000Z</time>
      </trkpt>
      <trkpt lat="48.46344" lon="-4.49506">
        <ele>92.800003051758</ele>
        <time>2016-06-18T07:52:59.000Z</time>
      </trkpt>
      <trkpt lat="48.46338" lon="-4.49582">
        <ele>93.199996948242</ele>
        <time>2016-06-18T07:53:08.000Z</time>
      </trkpt>
      <trkpt lat="48.46334" lon="-4.49639">
        <ele>92.800003051758</ele>
        <time>2016-06-18T07:53:15.000Z</time>
      </trkpt>
      <trkpt lat="48.46325" lon="-4.49713">
        <ele>92.599998474121</ele>
        <time>2016-06-18T07:53:24.000Z</time>
      </trkpt>
      <trkpt lat="48.46314" lon="-4.49761">
        <ele>92.199996948242</ele>
        <time>2016-06-18T07:53:29.000Z</time>
      </trkpt>
      <trkpt lat="48.46303" lon="-4.49821">
        <ele>91.400001525879</ele>
        <time>2016-06-18T07:53:34.000Z</time>
      </trkpt>
      <trkpt lat="48.46299" lon="-4.49868">
        <ele>90</ele>
        <time>2016-06-18T07:53:38.000Z</time>
      </trkpt>
      <trkpt lat="48.463" lon="-4.49886">
        <ele>89.800003051758</ele>
        <time>2016-06-18T07:53:42.000Z</time>
      </trkpt>
      <trkpt lat="48.46298" lon="-4.49894">
        <ele>89.599998474121</ele>
        <time>2016-06-18T07:53:46.000Z</time>
      </trkpt>
      <trkpt lat="48.46283" lon="-4.49894">
        <ele>89.599998474121</ele>
        <time>2016-06-18T07:53:50.000Z</time>
      </trkpt>
      <trkpt lat="48.46253" lon="-4.49904">
        <ele>90</ele>
        <time>2016-06-18T07:53:57.000Z</time>
      </trkpt>
      <trkpt lat="48.46227" lon="-4.4992">
        <ele>90.800003051758</ele>
        <time>2016-06-18T07:54:04.000Z</time>
      </trkpt>
      <trkpt lat="48.46195" lon="-4.49951">
        <ele>91.599998474121</ele>
        <time>2016-06-18T07:54:13.000Z</time>
      </trkpt>
      <trkpt lat="48.46169" lon="-4.49988">
        <ele>92.199996948242</ele>
        <time>2016-06-18T07:54:21.000Z</time>
      </trkpt>
      <trkpt lat="48.46144" lon="-4.50042">
        <ele>92.599998474121</ele>
        <time>2016-06-18T07:54:30.000Z</time>
      </trkpt>
      <trkpt lat="48.46121" lon="-4.50108">
        <ele>92</ele>
        <time>2016-06-18T07:54:40.000Z</time>
      </trkpt>
      <trkpt lat="48.46103" lon="-4.50174">
        <ele>92</ele>
        <time>2016-06-18T07:54:48.000Z</time>
      </trkpt>
      <trkpt lat="48.46092" lon="-4.50237">
        <ele>91.800003051758</ele>
        <time>2016-06-18T07:54:55.000Z</time>
      </trkpt>
      <trkpt lat="48.46087" lon="-4.50312">
        <ele>90.199996948242</ele>
        <time>2016-06-18T07:55:03.000Z</time>
      </trkpt>
      <trkpt lat="48.46083" lon="-4.50389">
        <ele>86.800003051758</ele>
        <time>2016-06-18T07:55:11.000Z</time>
      </trkpt>
      <trkpt lat="48.46079" lon="-4.50483">
        <ele>85.199996948242</ele>
        <time>2016-06-18T07:55:20.000Z</time>
      </trkpt>
      <trkpt lat="48.4608" lon="-4.50559">
        <ele>84</ele>
        <time>2016-06-18T07:55:27.000Z</time>
      </trkpt>
      <trkpt lat="48.46076" lon="-4.50598">
        <ele>84</ele>
        <time>2016-06-18T07:55:31.000Z</time>
      </trkpt>
      <trkpt lat="48.46059" lon="-4.50665">
        <ele>84.599998474121</ele>
        <time>2016-06-18T07:55:39.000Z</time>
      </trkpt>
      <trkpt lat="48.46056" lon="-4.50707">
        <ele>85</ele>
        <time>2016-06-18T07:55:44.000Z</time>
      </trkpt>
      <trkpt lat="48.46065" lon="-4.50755">
        <ele>85.599998474121</ele>
        <time>2016-06-18T07:55:50.000Z</time>
      </trkpt>
      <trkpt lat="48.46077" lon="-4.50827">
        <ele>86.599998474121</ele>
        <time>2016-06-18T07:55:59.000Z</time>
      </trkpt>
      <trkpt lat="48.46078" lon="-4.50836">
        <ele>86.599998474121</ele>
        <time>2016-06-18T07:56:00.000Z</time>
      </trkpt>
      <trkpt lat="48.46077" lon="-4.50853">
        <ele>86.800003051758</ele>
        <time>2016-06-18T07:56:02.000Z</time>
      </trkpt>
      <trkpt lat="48.46071" lon="-4.50902">
        <ele>87.599998474121</ele>
        <time>2016-06-18T07:56:08.000Z</time>
      </trkpt>
      <trkpt lat="48.46074" lon="-4.50964">
        <ele>89</ele>
        <time>2016-06-18T07:56:16.000Z</time>
      </trkpt>
      <trkpt lat="48.46085" lon="-4.50982">
        <ele>89.400001525879</ele>
        <time>2016-06-18T07:56:20.000Z</time>
      </trkpt>
      <trkpt lat="48.46097" lon="-4.50979">
        <ele>89.400001525879</ele>
        <time>2016-06-18T07:56:24.000Z</time>
      </trkpt>
      <trkpt lat="48.46099" lon="-4.50978">
        <ele>89.400001525879</ele>
        <time>2016-06-18T07:56:25.000Z</time>
      </trkpt>
      <trkpt lat="48.46107" lon="-4.50968">
        <ele>89.400001525879</ele>
        <time>2016-06-18T07:56:32.000Z</time>
      </trkpt>
      <trkpt lat="48.46108" lon="-4.50968">
        <ele>89.400001525879</ele>
        <time>2016-06-18T07:56:33.000Z</time>
      </trkpt>
      <trkpt lat="48.46122" lon="-4.50958">
        <ele>89.599998474121</ele>
        <time>2016-06-18T07:56:39.000Z</time>
      </trkpt>
      <trkpt lat="48.46144" lon="-4.50946">
        <ele>90</ele>
        <time>2016-06-18T07:56:46.000Z</time>
      </trkpt>
      <trkpt lat="48.46163" lon="-4.50947">
        <ele>90.400001525879</ele>
        <time>2016-06-18T07:56:51.000Z</time>
      </trkpt>
      <trkpt lat="48.46176" lon="-4.50945">
        <ele>90.800003051758</ele>
        <time>2016-06-18T07:56:54.000Z</time>
      </trkpt>
      <trkpt lat="48.46181" lon="-4.50922">
        <ele>90.199996948242</ele>
        <time>2016-06-18T07:56:58.000Z</time>
      </trkpt>
      <trkpt lat="48.4618" lon="-4.50915">
        <ele>90.199996948242</ele>
        <time>2016-06-18T07:56:59.000Z</time>
      </trkpt>
      <trkpt lat="48.46184" lon="-4.50859">
        <ele>89</ele>
        <time>2016-06-18T07:57:07.000Z</time>
      </trkpt>
      <trkpt lat="48.46194" lon="-4.50846">
        <ele>89.199996948242</ele>
        <time>2016-06-18T07:57:11.000Z</time>
      </trkpt>
      <trkpt lat="48.46213" lon="-4.50847">
        <ele>89.800003051758</ele>
        <time>2016-06-18T07:57:15.000Z</time>
      </trkpt>
      <trkpt lat="48.46253" lon="-4.5085">
        <ele>91.400001525879</ele>
        <time>2016-06-18T07:57:24.000Z</time>
      </trkpt>
      <trkpt lat="48.46308" lon="-4.50856">
        <ele>92.199996948242</ele>
        <time>2016-06-18T07:57:35.000Z</time>
      </trkpt>
      <trkpt lat="48.46349" lon="-4.50861">
        <ele>92.800003051758</ele>
        <time>2016-06-18T07:57:43.000Z</time>
      </trkpt>
      <trkpt lat="48.46397" lon="-4.50866">
        <ele>92.400001525879</ele>
        <time>2016-06-18T07:57:52.000Z</time>
      </trkpt>
      <trkpt lat="48.46424" lon="-4.50868">
        <ele>92.199996948242</ele>
        <time>2016-06-18T07:57:57.000Z</time>
      </trkpt>
      <trkpt lat="48.46439" lon="-4.50882">
        <ele>92.199996948242</ele>
        <time>2016-06-18T07:58:01.000Z</time>
      </trkpt>
      <trkpt lat="48.46442" lon="-4.50905">
        <ele>92.400001525879</ele>
        <time>2016-06-18T07:58:05.000Z</time>
      </trkpt>
      <trkpt lat="48.46446" lon="-4.50938">
        <ele>92.800003051758</ele>
        <time>2016-06-18T07:58:10.000Z</time>
      </trkpt>
      <trkpt lat="48.46457" lon="-4.50965">
        <ele>93.400001525879</ele>
        <time>2016-06-18T07:58:15.000Z</time>
      </trkpt>
      <trkpt lat="48.46462" lon="-4.50968">
        <ele>93.599998474121</ele>
        <time>2016-06-18T07:58:16.000Z</time>
      </trkpt>
      <trkpt lat="48.46495" lon="-4.50987">
        <ele>94</ele>
        <time>2016-06-18T07:58:23.000Z</time>
      </trkpt>
      <trkpt lat="48.46528" lon="-4.51004">
        <ele>93.400001525879</ele>
        <time>2016-06-18T07:58:30.000Z</time>
      </trkpt>
      <trkpt lat="48.46537" lon="-4.51009">
        <ele>93</ele>
        <time>2016-06-18T07:58:32.000Z</time>
      </trkpt>
      <trkpt lat="48.46544" lon="-4.51022">
        <ele>92.599998474121</ele>
        <time>2016-06-18T07:58:37.000Z</time>
      </trkpt>
      <trkpt lat="48.46548" lon="-4.51042">
        <ele>92.199996948242</ele>
        <time>2016-06-18T07:58:41.000Z</time>
      </trkpt>
      <trkpt lat="48.46548" lon="-4.51076">
        <ele>91.400001525879</ele>
        <time>2016-06-18T07:58:46.000Z</time>
      </trkpt>
      <trkpt lat="48.46551" lon="-4.51119">
        <ele>90.800003051758</ele>
        <time>2016-06-18T07:58:51.000Z</time>
      </trkpt>
      <trkpt lat="48.46553" lon="-4.51139">
        <ele>90.400001525879</ele>
        <time>2016-06-18T07:58:53.000Z</time>
      </trkpt>
      <trkpt lat="48.46551" lon="-4.51182">
        <ele>90.199996948242</ele>
        <time>2016-06-18T07:58:57.000Z</time>
      </trkpt>
      <trkpt lat="48.46546" lon="-4.51193">
        <ele>90.199996948242</ele>
        <time>2016-06-18T07:58:58.000Z</time>
      </trkpt>
      <trkpt lat="48.46535" lon="-4.51227">
        <ele>90</ele>
        <time>2016-06-18T07:59:01.000Z</time>
      </trkpt>
      <trkpt lat="48.46535" lon="-4.5126">
        <ele>89.199996948242</ele>
        <time>2016-06-18T07:59:05.000Z</time>
      </trkpt>
      <trkpt lat="48.46535" lon="-4.51266">
        <ele>89</ele>
        <time>2016-06-18T07:59:08.000Z</time>
      </trkpt>
      <trkpt lat="48.46536" lon="-4.51255">
        <ele>89.199996948242</ele>
        <time>2016-06-18T07:59:11.000Z</time>
      </trkpt>
      <trkpt lat="48.46548" lon="-4.51238">
        <ele>89.400001525879</ele>
        <time>2016-06-18T07:59:16.000Z</time>
      </trkpt>
      <trkpt lat="48.4656" lon="-4.5123">
        <ele>89.199996948242</ele>
        <time>2016-06-18T07:59:20.000Z</time>
      </trkpt>
      <trkpt lat="48.46586" lon="-4.51219">
        <ele>89</ele>
        <time>2016-06-18T07:59:28.000Z</time>
      </trkpt>
      <trkpt lat="48.46617" lon="-4.51203">
        <ele>89</ele>
        <time>2016-06-18T07:59:36.000Z</time>
      </trkpt>
      <trkpt lat="48.46654" lon="-4.51185">
        <ele>89</ele>
        <time>2016-06-18T07:59:44.000Z</time>
      </trkpt>
      <trkpt lat="48.4668" lon="-4.51174">
        <ele>89</ele>
        <time>2016-06-18T07:59:50.000Z</time>
      </trkpt>
      <trkpt lat="48.46707" lon="-4.51163">
        <ele>89</ele>
        <time>2016-06-18T07:59:58.000Z</time>
      </trkpt>
      <trkpt lat="48.4673" lon="-4.51156">
        <ele>89</ele>
        <time>2016-06-18T08:00:04.000Z</time>
      </trkpt>
      <trkpt lat="48.46752" lon="-4.5116">
        <ele>89</ele>
        <time>2016-06-18T08:00:09.000Z</time>
      </trkpt>
      <trkpt lat="48.46782" lon="-4.51178">
        <ele>88.800003051758</ele>
        <time>2016-06-18T08:00:16.000Z</time>
      </trkpt>
      <trkpt lat="48.46812" lon="-4.51192">
        <ele>89</ele>
        <time>2016-06-18T08:00:21.000Z</time>
      </trkpt>
      <trkpt lat="48.4684" lon="-4.51205">
        <ele>89</ele>
        <time>2016-06-18T08:00:25.000Z</time>
      </trkpt>
      <trkpt lat="48.46868" lon="-4.51208">
        <ele>88.800003051758</ele>
        <time>2016-06-18T08:00:32.000Z</time>
      </trkpt>
      <trkpt lat="48.46881" lon="-4.51211">
        <ele>88.599998474121</ele>
        <time>2016-06-18T08:00:35.000Z</time>
      </trkpt>
      <trkpt lat="48.46901" lon="-4.51211">
        <ele>88.400001525879</ele>
        <time>2016-06-18T08:00:39.000Z</time>
      </trkpt>
      <trkpt lat="48.4692" lon="-4.51212">
        <ele>88.199996948242</ele>
        <time>2016-06-18T08:00:43.000Z</time>
      </trkpt>
      <trkpt lat="48.46944" lon="-4.51199">
        <ele>87.599998474121</ele>
        <time>2016-06-18T08:00:48.000Z</time>
      </trkpt>
      <trkpt lat="48.46955" lon="-4.51192">
        <ele>87.199996948242</ele>
        <time>2016-06-18T08:00:50.000Z</time>
      </trkpt>
      <trkpt lat="48.46974" lon="-4.51185">
        <ele>86.400001525879</ele>
        <time>2016-06-18T08:00:55.000Z</time>
      </trkpt>
      <trkpt lat="48.4698" lon="-4.51192">
        <ele>86.599998474121</ele>
        <time>2016-06-18T08:00:58.000Z</time>
      </trkpt>
      <trkpt lat="48.46987" lon="-4.51223">
        <ele>87.199996948242</ele>
        <time>2016-06-18T08:01:04.000Z</time>
      </trkpt>
      <trkpt lat="48.46996" lon="-4.51241">
        <ele>88</ele>
        <time>2016-06-18T08:01:08.000Z</time>
      </trkpt>
      <trkpt lat="48.47001" lon="-4.51272">
        <ele>89.400001525879</ele>
        <time>2016-06-18T08:01:13.000Z</time>
      </trkpt>
      <trkpt lat="48.47004" lon="-4.51296">
        <ele>90.400001525879</ele>
        <time>2016-06-18T08:01:17.000Z</time>
      </trkpt>
      <trkpt lat="48.47016" lon="-4.51321">
        <ele>91.400001525879</ele>
        <time>2016-06-18T08:01:23.000Z</time>
      </trkpt>
      <trkpt lat="48.4703" lon="-4.51316">
        <ele>91</ele>
        <time>2016-06-18T08:01:27.000Z</time>
      </trkpt>
      <trkpt lat="48.47033" lon="-4.51311">
        <ele>90.800003051758</ele>
        <time>2016-06-18T08:01:28.000Z</time>
      </trkpt>
      <trkpt lat="48.47056" lon="-4.51267">
        <ele>89.400001525879</ele>
        <time>2016-06-18T08:01:36.000Z</time>
      </trkpt>
      <trkpt lat="48.47083" lon="-4.51219">
        <ele>88.400001525879</ele>
        <time>2016-06-18T08:01:43.000Z</time>
      </trkpt>
      <trkpt lat="48.47106" lon="-4.51181">
        <ele>87</ele>
        <time>2016-06-18T08:01:48.000Z</time>
      </trkpt>
      <trkpt lat="48.47143" lon="-4.51125">
        <ele>84</ele>
        <time>2016-06-18T08:01:55.000Z</time>
      </trkpt>
      <trkpt lat="48.47179" lon="-4.51076">
        <ele>79.599998474121</ele>
        <time>2016-06-18T08:02:01.000Z</time>
      </trkpt>
      <trkpt lat="48.47197" lon="-4.51052">
        <ele>77.400001525879</ele>
        <time>2016-06-18T08:02:04.000Z</time>
      </trkpt>
      <trkpt lat="48.47239" lon="-4.50999">
        <ele>75</ele>
        <time>2016-06-18T08:02:10.000Z</time>
      </trkpt>
      <trkpt lat="48.47248" lon="-4.50988">
        <ele>75</ele>
        <time>2016-06-18T08:02:11.000Z</time>
      </trkpt>
      <trkpt lat="48.47277" lon="-4.50931">
        <ele>73.599998474121</ele>
        <time>2016-06-18T08:02:15.000Z</time>
      </trkpt>
      <trkpt lat="48.47308" lon="-4.50856">
        <ele>72.199996948242</ele>
        <time>2016-06-18T08:02:20.000Z</time>
      </trkpt>
      <trkpt lat="48.47337" lon="-4.50792">
        <ele>73.599998474121</ele>
        <time>2016-06-18T08:02:25.000Z</time>
      </trkpt>
      <trkpt lat="48.47343" lon="-4.50781">
        <ele>74</ele>
        <time>2016-06-18T08:02:26.000Z</time>
      </trkpt>
      <trkpt lat="48.47368" lon="-4.50746">
        <ele>76</ele>
        <time>2016-06-18T08:02:31.000Z</time>
      </trkpt>
      <trkpt lat="48.47382" lon="-4.50729">
        <ele>77.199996948242</ele>
        <time>2016-06-18T08:02:35.000Z</time>
      </trkpt>
      <trkpt lat="48.47391" lon="-4.50721">
        <ele>77.800003051758</ele>
        <time>2016-06-18T08:02:39.000Z</time>
      </trkpt>
      <trkpt lat="48.47403" lon="-4.50707">
        <ele>78.599998474121</ele>
        <time>2016-06-18T08:02:46.000Z</time>
      </trkpt>
      <trkpt lat="48.47415" lon="-4.50691">
        <ele>79.400001525879</ele>
        <time>2016-06-18T08:02:50.000Z</time>
      </trkpt>
      <trkpt lat="48.47429" lon="-4.50673">
        <ele>80.199996948242</ele>
        <time>2016-06-18T08:02:55.000Z</time>
      </trkpt>
      <trkpt lat="48.47446" lon="-4.5065">
        <ele>80.800003051758</ele>
        <time>2016-06-18T08:03:01.000Z</time>
      </trkpt>
      <trkpt lat="48.47461" lon="-4.50634">
        <ele>81.199996948242</ele>
        <time>2016-06-18T08:03:06.000Z</time>
      </trkpt>
      <trkpt lat="48.47478" lon="-4.50612">
        <ele>81.599998474121</ele>
        <time>2016-06-18T08:03:12.000Z</time>
      </trkpt>
      <trkpt lat="48.47499" lon="-4.50589">
        <ele>82.400001525879</ele>
        <time>2016-06-18T08:03:18.000Z</time>
      </trkpt>
      <trkpt lat="48.47529" lon="-4.5055">
        <ele>83.800003051758</ele>
        <time>2016-06-18T08:03:26.000Z</time>
      </trkpt>
      <trkpt lat="48.47551" lon="-4.50522">
        <ele>84.400001525879</ele>
        <time>2016-06-18T08:03:32.000Z</time>
      </trkpt>
      <trkpt lat="48.47559" lon="-4.50512">
        <ele>84.599998474121</ele>
        <time>2016-06-18T08:03:34.000Z</time>
      </trkpt>
      <trkpt lat="48.47595" lon="-4.50449">
        <ele>85</ele>
        <time>2016-06-18T08:03:44.000Z</time>
      </trkpt>
      <trkpt lat="48.47622" lon="-4.50406">
        <ele>83.400001525879</ele>
        <time>2016-06-18T08:03:51.000Z</time>
      </trkpt>
      <trkpt lat="48.47652" lon="-4.50361">
        <ele>81.599998474121</ele>
        <time>2016-06-18T08:03:58.000Z</time>
      </trkpt>
      <trkpt lat="48.47681" lon="-4.50313">
        <ele>79.800003051758</ele>
        <time>2016-06-18T08:04:04.000Z</time>
      </trkpt>
      <trkpt lat="48.47713" lon="-4.50258">
        <ele>76.199996948242</ele>
        <time>2016-06-18T08:04:10.000Z</time>
      </trkpt>
      <trkpt lat="48.47736" lon="-4.50216">
        <ele>73.400001525879</ele>
        <time>2016-06-18T08:04:14.000Z</time>
      </trkpt>
      <trkpt lat="48.47785" lon="-4.50152">
        <ele>71</ele>
        <time>2016-06-18T08:04:21.000Z</time>
      </trkpt>
      <trkpt lat="48.47798" lon="-4.50133">
        <ele>71</ele>
        <time>2016-06-18T08:04:23.000Z</time>
      </trkpt>
      <trkpt lat="48.47825" lon="-4.50106">
        <ele>70.800003051758</ele>
        <time>2016-06-18T08:04:27.000Z</time>
      </trkpt>
      <trkpt lat="48.47842" lon="-4.50097">
        <ele>70.800003051758</ele>
        <time>2016-06-18T08:04:29.000Z</time>
      </trkpt>
      <trkpt lat="48.47892" lon="-4.50057">
        <ele>69.199996948242</ele>
        <time>2016-06-18T08:04:35.000Z</time>
      </trkpt>
      <trkpt lat="48.47927" lon="-4.50027">
        <ele>68</ele>
        <time>2016-06-18T08:04:40.000Z</time>
      </trkpt>
      <trkpt lat="48.47964" lon="-4.49971">
        <ele>66.199996948242</ele>
        <time>2016-06-18T08:04:47.000Z</time>
      </trkpt>
      <trkpt lat="48.48001" lon="-4.49907">
        <ele>65.199996948242</ele>
        <time>2016-06-18T08:04:54.000Z</time>
      </trkpt>
      <trkpt lat="48.48015" lon="-4.49877">
        <ele>65</ele>
        <time>2016-06-18T08:04:57.000Z</time>
      </trkpt>
      <trkpt lat="48.48031" lon="-4.49806">
        <ele>64.199996948242</ele>
        <time>2016-06-18T08:05:03.000Z</time>
      </trkpt>
      <trkpt lat="48.4804" lon="-4.49739">
        <ele>64.599998474121</ele>
        <time>2016-06-18T08:05:09.000Z</time>
      </trkpt>
      <trkpt lat="48.4805" lon="-4.497">
        <ele>65</ele>
        <time>2016-06-18T08:05:13.000Z</time>
      </trkpt>
      <trkpt lat="48.48069" lon="-4.49687">
        <ele>65.400001525879</ele>
        <time>2016-06-18T08:05:17.000Z</time>
      </trkpt>
      <trkpt lat="48.48085" lon="-4.49702">
        <ele>65</ele>
        <time>2016-06-18T08:05:20.000Z</time>
      </trkpt>
      <trkpt lat="48.48124" lon="-4.49747">
        <ele>64.800003051758</ele>
        <time>2016-06-18T08:05:29.000Z</time>
      </trkpt>
      <trkpt lat="48.48151" lon="-4.49779">
        <ele>64.599998474121</ele>
        <time>2016-06-18T08:05:35.000Z</time>
      </trkpt>
      <trkpt lat="48.48175" lon="-4.49805">
        <ele>65</ele>
        <time>2016-06-18T08:05:42.000Z</time>
      </trkpt>
      <trkpt lat="48.48198" lon="-4.4983">
        <ele>65.599998474121</ele>
        <time>2016-06-18T08:05:49.000Z</time>
      </trkpt>
      <trkpt lat="48.48222" lon="-4.49856">
        <ele>65.400001525879</ele>
        <time>2016-06-18T08:05:56.000Z</time>
      </trkpt>
      <trkpt lat="48.48246" lon="-4.49878">
        <ele>65</ele>
        <time>2016-06-18T08:06:04.000Z</time>
      </trkpt>
      <trkpt lat="48.48255" lon="-4.49887">
        <ele>65.199996948242</ele>
        <time>2016-06-18T08:06:08.000Z</time>
      </trkpt>
      <trkpt lat="48.48265" lon="-4.49882">
        <ele>65.199996948242</ele>
        <time>2016-06-18T08:06:12.000Z</time>
      </trkpt>
      <trkpt lat="48.48271" lon="-4.49889">
        <ele>65.800003051758</ele>
        <time>2016-06-18T08:06:15.000Z</time>
      </trkpt>
      <trkpt lat="48.48277" lon="-4.49895">
        <ele>66.400001525879</ele>
        <time>2016-06-18T08:06:17.000Z</time>
      </trkpt>
      <trkpt lat="48.48294" lon="-4.49912">
        <ele>68.199996948242</ele>
        <time>2016-06-18T08:06:22.000Z</time>
      </trkpt>
      <trkpt lat="48.48306" lon="-4.49923">
        <ele>69.400001525879</ele>
        <time>2016-06-18T08:06:26.000Z</time>
      </trkpt>
      <trkpt lat="48.4832" lon="-4.49936">
        <ele>70.599998474121</ele>
        <time>2016-06-18T08:06:30.000Z</time>
      </trkpt>
      <trkpt lat="48.48335" lon="-4.49953">
        <ele>71.800003051758</ele>
        <time>2016-06-18T08:06:34.000Z</time>
      </trkpt>
      <trkpt lat="48.48347" lon="-4.49965">
        <ele>72.400001525879</ele>
        <time>2016-06-18T08:06:37.000Z</time>
      </trkpt>
      <trkpt lat="48.48353" lon="-4.49973">
        <ele>72.199996948242</ele>
        <time>2016-06-18T08:06:39.000Z</time>
      </trkpt>
      <trkpt lat="48.48369" lon="-4.49995">
        <ele>72.199996948242</ele>
        <time>2016-06-18T08:06:44.000Z</time>
      </trkpt>
      <trkpt lat="48.48384" lon="-4.50008">
        <ele>72.800003051758</ele>
        <time>2016-06-18T08:06:48.000Z</time>
      </trkpt>
      <trkpt lat="48.48398" lon="-4.50017">
        <ele>73.599998474121</ele>
        <time>2016-06-18T08:06:53.000Z</time>
      </trkpt>
      <trkpt lat="48.48407" lon="-4.50022">
        <ele>74.199996948242</ele>
        <time>2016-06-18T08:06:56.000Z</time>
      </trkpt>
      <trkpt lat="48.48411" lon="-4.50025">
        <ele>74.400001525879</ele>
        <time>2016-06-18T08:06:57.000Z</time>
      </trkpt>
      <trkpt lat="48.48427" lon="-4.50037">
        <ele>75.599998474121</ele>
        <time>2016-06-18T08:07:02.000Z</time>
      </trkpt>
      <trkpt lat="48.48445" lon="-4.5005">
        <ele>74.400001525879</ele>
        <time>2016-06-18T08:07:07.000Z</time>
      </trkpt>
      <trkpt lat="48.48458" lon="-4.50062">
        <ele>73.400001525879</ele>
        <time>2016-06-18T08:07:11.000Z</time>
      </trkpt>
      <trkpt lat="48.48465" lon="-4.50069">
        <ele>72.599998474121</ele>
        <time>2016-06-18T08:07:13.000Z</time>
      </trkpt>
      <trkpt lat="48.48488" lon="-4.50097">
        <ele>73</ele>
        <time>2016-06-18T08:07:18.000Z</time>
      </trkpt>
      <trkpt lat="48.48497" lon="-4.50111">
        <ele>73.599998474121</ele>
        <time>2016-06-18T08:07:20.000Z</time>
      </trkpt>
      <trkpt lat="48.48516" lon="-4.50151">
        <ele>73.400001525879</ele>
        <time>2016-06-18T08:07:26.000Z</time>
      </trkpt>
      <trkpt lat="48.48523" lon="-4.50158">
        <ele>72.800003051758</ele>
        <time>2016-06-18T08:07:28.000Z</time>
      </trkpt>
      <trkpt lat="48.48531" lon="-4.50167">
        <ele>72.199996948242</ele>
        <time>2016-06-18T08:07:31.000Z</time>
      </trkpt>
      <trkpt lat="48.48541" lon="-4.50174">
        <ele>71.599998474121</ele>
        <time>2016-06-18T08:07:36.000Z</time>
      </trkpt>
      <trkpt lat="48.48553" lon="-4.50182">
        <ele>71.199996948242</ele>
        <time>2016-06-18T08:07:41.000Z</time>
      </trkpt>
      <trkpt lat="48.48556" lon="-4.50184">
        <ele>71</ele>
        <time>2016-06-18T08:07:42.000Z</time>
      </trkpt>
      <trkpt lat="48.48566" lon="-4.50204">
        <ele>70.400001525879</ele>
        <time>2016-06-18T08:07:47.000Z</time>
      </trkpt>
      <trkpt lat="48.48574" lon="-4.50203">
        <ele>70.199996948242</ele>
        <time>2016-06-18T08:07:50.000Z</time>
      </trkpt>
      <trkpt lat="48.48592" lon="-4.50202">
        <ele>70</ele>
        <time>2016-06-18T08:07:57.000Z</time>
      </trkpt>
      <trkpt lat="48.48618" lon="-4.502">
        <ele>70.800003051758</ele>
        <time>2016-06-18T08:08:04.000Z</time>
      </trkpt>
      <trkpt lat="48.48646" lon="-4.50191">
        <ele>72.400001525879</ele>
        <time>2016-06-18T08:08:12.000Z</time>
      </trkpt>
      <trkpt lat="48.48669" lon="-4.50183">
        <ele>73.800003051758</ele>
        <time>2016-06-18T08:08:19.000Z</time>
      </trkpt>
      <trkpt lat="48.48679" lon="-4.50186">
        <ele>74.199996948242</ele>
        <time>2016-06-18T08:08:25.000Z</time>
      </trkpt>
      <trkpt lat="48.48686" lon="-4.50185">
        <ele>74.199996948242</ele>
        <time>2016-06-18T08:08:30.000Z</time>
      </trkpt>
      <trkpt lat="48.48686" lon="-4.50182">
        <ele>74.400001525879</ele>
        <time>2016-06-18T08:08:36.000Z</time>
      </trkpt>
      <trkpt lat="48.48697" lon="-4.50186">
        <ele>73.800003051758</ele>
        <time>2016-06-18T08:08:58.000Z</time>
      </trkpt>
      <trkpt lat="48.48694" lon="-4.50192">
        <ele>74</ele>
        <time>2016-06-18T08:09:02.000Z</time>
      </trkpt>
      <trkpt lat="48.48696" lon="-4.50215">
        <ele>73.599998474121</ele>
        <time>2016-06-18T08:09:08.000Z</time>
      </trkpt>
      <trkpt lat="48.48697" lon="-4.50239">
        <ele>73</ele>
        <time>2016-06-18T08:09:13.000Z</time>
      </trkpt>
      <trkpt lat="48.48698" lon="-4.50262">
        <ele>72.599998474121</ele>
        <time>2016-06-18T08:09:17.000Z</time>
      </trkpt>
      <trkpt lat="48.48699" lon="-4.50302">
        <ele>72</ele>
        <time>2016-06-18T08:09:23.000Z</time>
      </trkpt>
      <trkpt lat="48.48698" lon="-4.50334">
        <ele>71.599998474121</ele>
        <time>2016-06-18T08:09:28.000Z</time>
      </trkpt>
      <trkpt lat="48.48694" lon="-4.5038">
        <ele>71</ele>
        <time>2016-06-18T08:09:33.000Z</time>
      </trkpt>
      <trkpt lat="48.48691" lon="-4.50405">
        <ele>71</ele>
        <time>2016-06-18T08:09:36.000Z</time>
      </trkpt>
      <trkpt lat="48.4868" lon="-4.50442">
        <ele>71</ele>
        <time>2016-06-18T08:09:41.000Z</time>
      </trkpt>
      <trkpt lat="48.48666" lon="-4.50483">
        <ele>69.199996948242</ele>
        <time>2016-06-18T08:09:46.000Z</time>
      </trkpt>
      <trkpt lat="48.48663" lon="-4.50493">
        <ele>68.599998474121</ele>
        <time>2016-06-18T08:09:47.000Z</time>
      </trkpt>
      <trkpt lat="48.48652" lon="-4.50545">
        <ele>66</ele>
        <time>2016-06-18T08:09:52.000Z</time>
      </trkpt>
      <trkpt lat="48.48659" lon="-4.50581">
        <ele>65.400001525879</ele>
        <time>2016-06-18T08:09:56.000Z</time>
      </trkpt>
      <trkpt lat="48.4867" lon="-4.50609">
        <ele>65</ele>
        <time>2016-06-18T08:10:00.000Z</time>
      </trkpt>
      <trkpt lat="48.48688" lon="-4.50615">
        <ele>64.800003051758</ele>
        <time>2016-06-18T08:10:04.000Z</time>
      </trkpt>
      <trkpt lat="48.48693" lon="-4.50614">
        <ele>64.599998474121</ele>
        <time>2016-06-18T08:10:05.000Z</time>
      </trkpt>
      <trkpt lat="48.48705" lon="-4.50609">
        <ele>64.199996948242</ele>
        <time>2016-06-18T08:10:07.000Z</time>
      </trkpt>
      <trkpt lat="48.48739" lon="-4.50611">
        <ele>62.599998474121</ele>
        <time>2016-06-18T08:10:12.000Z</time>
      </trkpt>
      <trkpt lat="48.48761" lon="-4.50621">
        <ele>61.599998474121</ele>
        <time>2016-06-18T08:10:16.000Z</time>
      </trkpt>
      <trkpt lat="48.48779" lon="-4.50642">
        <ele>60.799999237061</ele>
        <time>2016-06-18T08:10:20.000Z</time>
      </trkpt>
      <trkpt lat="48.48785" lon="-4.50657">
        <ele>60.799999237061</ele>
        <time>2016-06-18T08:10:22.000Z</time>
      </trkpt>
      <trkpt lat="48.48793" lon="-4.50679">
        <ele>60.799999237061</ele>
        <time>2016-06-18T08:10:25.000Z</time>
      </trkpt>
      <trkpt lat="48.48807" lon="-4.50699">
        <ele>61</ele>
        <time>2016-06-18T08:10:29.000Z</time>
      </trkpt>
      <trkpt lat="48.48821" lon="-4.50697">
        <ele>61</ele>
        <time>2016-06-18T08:10:32.000Z</time>
      </trkpt>
      <trkpt lat="48.48839" lon="-4.50685">
        <ele>60.799999237061</ele>
        <time>2016-06-18T08:10:36.000Z</time>
      </trkpt>
      <trkpt lat="48.48843" lon="-4.50684">
        <ele>60.799999237061</ele>
        <time>2016-06-18T08:10:37.000Z</time>
      </trkpt>
      <trkpt lat="48.48855" lon="-4.50683">
        <ele>61</ele>
        <time>2016-06-18T08:10:40.000Z</time>
      </trkpt>
      <trkpt lat="48.48868" lon="-4.50692">
        <ele>61.400001525879</ele>
        <time>2016-06-18T08:10:44.000Z</time>
      </trkpt>
      <trkpt lat="48.48869" lon="-4.50697">
        <ele>61.599998474121</ele>
        <time>2016-06-18T08:10:45.000Z</time>
      </trkpt>
      <trkpt lat="48.48878" lon="-4.50725">
        <ele>62</ele>
        <time>2016-06-18T08:10:51.000Z</time>
      </trkpt>
      <trkpt lat="48.48893" lon="-4.50772">
        <ele>62.200000762939</ele>
        <time>2016-06-18T08:10:59.000Z</time>
      </trkpt>
      <trkpt lat="48.48895" lon="-4.50778">
        <ele>62.200000762939</ele>
        <time>2016-06-18T08:11:00.000Z</time>
      </trkpt>
      <trkpt lat="48.48909" lon="-4.5082">
        <ele>63.200000762939</ele>
        <time>2016-06-18T08:11:09.000Z</time>
      </trkpt>
      <trkpt lat="48.48919" lon="-4.50857">
        <ele>63.799999237061</ele>
        <time>2016-06-18T08:11:16.000Z</time>
      </trkpt>
      <trkpt lat="48.48926" lon="-4.50888">
        <ele>64.599998474121</ele>
        <time>2016-06-18T08:11:22.000Z</time>
      </trkpt>
      <trkpt lat="48.48928" lon="-4.50898">
        <ele>65</ele>
        <time>2016-06-18T08:11:24.000Z</time>
      </trkpt>
      <trkpt lat="48.48937" lon="-4.50939">
        <ele>66.800003051758</ele>
        <time>2016-06-18T08:11:33.000Z</time>
      </trkpt>
      <trkpt lat="48.48942" lon="-4.50976">
        <ele>67.800003051758</ele>
        <time>2016-06-18T08:11:41.000Z</time>
      </trkpt>
      <trkpt lat="48.48945" lon="-4.51022">
        <ele>69</ele>
        <time>2016-06-18T08:11:50.000Z</time>
      </trkpt>
      <trkpt lat="48.48946" lon="-4.51072">
        <ele>70.199996948242</ele>
        <time>2016-06-18T08:12:00.000Z</time>
      </trkpt>
      <trkpt lat="48.48946" lon="-4.51105">
        <ele>71</ele>
        <time>2016-06-18T08:12:06.000Z</time>
      </trkpt>
      <trkpt lat="48.48949" lon="-4.51149">
        <ele>72.599998474121</ele>
        <time>2016-06-18T08:12:14.000Z</time>
      </trkpt>
      <trkpt lat="48.48946" lon="-4.51189">
        <ele>73.800003051758</ele>
        <time>2016-06-18T08:12:21.000Z</time>
      </trkpt>
      <trkpt lat="48.48939" lon="-4.51221">
        <ele>74.199996948242</ele>
        <time>2016-06-18T08:12:27.000Z</time>
      </trkpt>
      <trkpt lat="48.48952" lon="-4.51245">
        <ele>74.599998474121</ele>
        <time>2016-06-18T08:12:33.000Z</time>
      </trkpt>
      <trkpt lat="48.48963" lon="-4.51244">
        <ele>74.599998474121</ele>
        <time>2016-06-18T08:12:36.000Z</time>
      </trkpt>
      <trkpt lat="48.48996" lon="-4.51232">
        <ele>74.599998474121</ele>
        <time>2016-06-18T08:12:44.000Z</time>
      </trkpt>
      <trkpt lat="48.49001" lon="-4.51235">
        <ele>74.599998474121</ele>
        <time>2016-06-18T08:12:45.000Z</time>
      </trkpt>
      <trkpt lat="48.49017" lon="-4.51245">
        <ele>75</ele>
        <time>2016-06-18T08:12:48.000Z</time>
      </trkpt>
      <trkpt lat="48.49027" lon="-4.51253">
        <ele>75.599998474121</ele>
        <time>2016-06-18T08:12:50.000Z</time>
      </trkpt>
      <trkpt lat="48.49037" lon="-4.51259">
        <ele>76</ele>
        <time>2016-06-18T08:12:52.000Z</time>
      </trkpt>
      <trkpt lat="48.49054" lon="-4.51283">
        <ele>76</ele>
        <time>2016-06-18T08:12:57.000Z</time>
      </trkpt>
      <trkpt lat="48.49058" lon="-4.51301">
        <ele>76</ele>
        <time>2016-06-18T08:12:59.000Z</time>
      </trkpt>
      <trkpt lat="48.49063" lon="-4.51369">
        <ele>75.400001525879</ele>
        <time>2016-06-18T08:13:08.000Z</time>
      </trkpt>
      <trkpt lat="48.49067" lon="-4.51422">
        <ele>75.800003051758</ele>
        <time>2016-06-18T08:13:15.000Z</time>
      </trkpt>
      <trkpt lat="48.49068" lon="-4.51429">
        <ele>75.800003051758</ele>
        <time>2016-06-18T08:13:16.000Z</time>
      </trkpt>
      <trkpt lat="48.49082" lon="-4.5145">
        <ele>75.400001525879</ele>
        <time>2016-06-18T08:13:20.000Z</time>
      </trkpt>
      <trkpt lat="48.49125" lon="-4.51474">
        <ele>73.800003051758</ele>
        <time>2016-06-18T08:13:27.000Z</time>
      </trkpt>
      <trkpt lat="48.49143" lon="-4.51481">
        <ele>73</ele>
        <time>2016-06-18T08:13:30.000Z</time>
      </trkpt>
      <trkpt lat="48.4916" lon="-4.51502">
        <ele>73</ele>
        <time>2016-06-18T08:13:34.000Z</time>
      </trkpt>
      <trkpt lat="48.49164" lon="-4.51518">
        <ele>73</ele>
        <time>2016-06-18T08:13:36.000Z</time>
      </trkpt>
      <trkpt lat="48.49192" lon="-4.51572">
        <ele>72</ele>
        <time>2016-06-18T08:13:44.000Z</time>
      </trkpt>
      <trkpt lat="48.49199" lon="-4.51585">
        <ele>71.800003051758</ele>
        <time>2016-06-18T08:13:46.000Z</time>
      </trkpt>
      <trkpt lat="48.49209" lon="-4.51602">
        <ele>71.400001525879</ele>
        <time>2016-06-18T08:13:49.000Z</time>
      </trkpt>
      <trkpt lat="48.49238" lon="-4.51636">
        <ele>71.599998474121</ele>
        <time>2016-06-18T08:13:56.000Z</time>
      </trkpt>
      <trkpt lat="48.49258" lon="-4.51662">
        <ele>71.400001525879</ele>
        <time>2016-06-18T08:14:01.000Z</time>
      </trkpt>
      <trkpt lat="48.49287" lon="-4.51686">
        <ele>71.599998474121</ele>
        <time>2016-06-18T08:14:07.000Z</time>
      </trkpt>
      <trkpt lat="48.49312" lon="-4.51707">
        <ele>72</ele>
        <time>2016-06-18T08:14:12.000Z</time>
      </trkpt>
      <trkpt lat="48.49346" lon="-4.51727">
        <ele>72.199996948242</ele>
        <time>2016-06-18T08:14:18.000Z</time>
      </trkpt>
      <trkpt lat="48.49381" lon="-4.51744">
        <ele>72</ele>
        <time>2016-06-18T08:14:24.000Z</time>
      </trkpt>
      <trkpt lat="48.49398" lon="-4.51768">
        <ele>71.400001525879</ele>
        <time>2016-06-18T08:14:28.000Z</time>
      </trkpt>
      <trkpt lat="48.49415" lon="-4.5182">
        <ele>70.199996948242</ele>
        <time>2016-06-18T08:14:34.000Z</time>
      </trkpt>
      <trkpt lat="48.49431" lon="-4.51851">
        <ele>70.199996948242</ele>
        <time>2016-06-18T08:14:38.000Z</time>
      </trkpt>
      <trkpt lat="48.49448" lon="-4.51893">
        <ele>69.599998474121</ele>
        <time>2016-06-18T08:14:43.000Z</time>
      </trkpt>
      <trkpt lat="48.49474" lon="-4.51956">
        <ele>69.599998474121</ele>
        <time>2016-06-18T08:14:51.000Z</time>
      </trkpt>
      <trkpt lat="48.49486" lon="-4.51982">
        <ele>70</ele>
        <time>2016-06-18T08:14:55.000Z</time>
      </trkpt>
      <trkpt lat="48.49491" lon="-4.51993">
        <ele>70.599998474121</ele>
        <time>2016-06-18T08:14:57.000Z</time>
      </trkpt>
      <trkpt lat="48.49508" lon="-4.52029">
        <ele>72.599998474121</ele>
        <time>2016-06-18T08:15:04.000Z</time>
      </trkpt>
      <trkpt lat="48.49512" lon="-4.52041">
        <ele>73</ele>
        <time>2016-06-18T08:15:06.000Z</time>
      </trkpt>
      <trkpt lat="48.49528" lon="-4.5208">
        <ele>73.400001525879</ele>
        <time>2016-06-18T08:15:14.000Z</time>
      </trkpt>
      <trkpt lat="48.49541" lon="-4.52114">
        <ele>73.599998474121</ele>
        <time>2016-06-18T08:15:21.000Z</time>
      </trkpt>
      <trkpt lat="48.4955" lon="-4.5215">
        <ele>74</ele>
        <time>2016-06-18T08:15:27.000Z</time>
      </trkpt>
      <trkpt lat="48.49558" lon="-4.52181">
        <ele>74</ele>
        <time>2016-06-18T08:15:32.000Z</time>
      </trkpt>
      <trkpt lat="48.49566" lon="-4.52211">
        <ele>73.800003051758</ele>
        <time>2016-06-18T08:15:37.000Z</time>
      </trkpt>
      <trkpt lat="48.49574" lon="-4.52241">
        <ele>74.199996948242</ele>
        <time>2016-06-18T08:15:42.000Z</time>
      </trkpt>
      <trkpt lat="48.49582" lon="-4.5227">
        <ele>75.400001525879</ele>
        <time>2016-06-18T08:15:48.000Z</time>
      </trkpt>
      <trkpt lat="48.49597" lon="-4.52272">
        <ele>75.599998474121</ele>
        <time>2016-06-18T08:15:52.000Z</time>
      </trkpt>
      <trkpt lat="48.49639" lon="-4.52253">
        <ele>74.599998474121</ele>
        <time>2016-06-18T08:16:02.000Z</time>
      </trkpt>
      <trkpt lat="48.49676" lon="-4.52234">
        <ele>73.599998474121</ele>
        <time>2016-06-18T08:16:09.000Z</time>
      </trkpt>
      <trkpt lat="48.49722" lon="-4.5221">
        <ele>72.199996948242</ele>
        <time>2016-06-18T08:16:17.000Z</time>
      </trkpt>
      <trkpt lat="48.4977" lon="-4.52185">
        <ele>71</ele>
        <time>2016-06-18T08:16:25.000Z</time>
      </trkpt>
      <trkpt lat="48.498" lon="-4.52171">
        <ele>71.800003051758</ele>
        <time>2016-06-18T08:16:30.000Z</time>
      </trkpt>
      <trkpt lat="48.49821" lon="-4.52169">
        <ele>72.400001525879</ele>
        <time>2016-06-18T08:16:34.000Z</time>
      </trkpt>
      <trkpt lat="48.49831" lon="-4.52171">
        <ele>72.599998474121</ele>
        <time>2016-06-18T08:16:36.000Z</time>
      </trkpt>
      <trkpt lat="48.49855" lon="-4.52171">
        <ele>73</ele>
        <time>2016-06-18T08:16:41.000Z</time>
      </trkpt>
      <trkpt lat="48.49872" lon="-4.52163">
        <ele>73</ele>
        <time>2016-06-18T08:16:45.000Z</time>
      </trkpt>
      <trkpt lat="48.49886" lon="-4.5216">
        <ele>73</ele>
        <time>2016-06-18T08:16:49.000Z</time>
      </trkpt>
      <trkpt lat="48.49887" lon="-4.52163">
        <ele>73</ele>
        <time>2016-06-18T08:16:50.000Z</time>
      </trkpt>
      <trkpt lat="48.49889" lon="-4.5219">
        <ele>73.400001525879</ele>
        <time>2016-06-18T08:16:56.000Z</time>
      </trkpt>
      <trkpt lat="48.49894" lon="-4.52226">
        <ele>73.800003051758</ele>
        <time>2016-06-18T08:17:02.000Z</time>
      </trkpt>
      <trkpt lat="48.499" lon="-4.52264">
        <ele>74</ele>
        <time>2016-06-18T08:17:08.000Z</time>
      </trkpt>
      <trkpt lat="48.49903" lon="-4.52327">
        <ele>74.400001525879</ele>
        <time>2016-06-18T08:17:17.000Z</time>
      </trkpt>
      <trkpt lat="48.49904" lon="-4.52364">
        <ele>74.400001525879</ele>
        <time>2016-06-18T08:17:22.000Z</time>
      </trkpt>
      <trkpt lat="48.49905" lon="-4.52377">
        <ele>74.400001525879</ele>
        <time>2016-06-18T08:17:24.000Z</time>
      </trkpt>
      <trkpt lat="48.49911" lon="-4.52404">
        <ele>74.800003051758</ele>
        <time>2016-06-18T08:17:28.000Z</time>
      </trkpt>
      <trkpt lat="48.49914" lon="-4.52417">
        <ele>74.800003051758</ele>
        <time>2016-06-18T08:17:30.000Z</time>
      </trkpt>
      <trkpt lat="48.49915" lon="-4.52469">
        <ele>75.199996948242</ele>
        <time>2016-06-18T08:17:37.000Z</time>
      </trkpt>
      <trkpt lat="48.49916" lon="-4.52516">
        <ele>74.599998474121</ele>
        <time>2016-06-18T08:17:43.000Z</time>
      </trkpt>
      <trkpt lat="48.49919" lon="-4.52566">
        <ele>74.800003051758</ele>
        <time>2016-06-18T08:17:49.000Z</time>
      </trkpt>
      <trkpt lat="48.49921" lon="-4.52635">
        <ele>75.199996948242</ele>
        <time>2016-06-18T08:17:57.000Z</time>
      </trkpt>
      <trkpt lat="48.49923" lon="-4.52675">
        <ele>75.199996948242</ele>
        <time>2016-06-18T08:18:02.000Z</time>
      </trkpt>
      <trkpt lat="48.4992" lon="-4.52716">
        <ele>75.599998474121</ele>
        <time>2016-06-18T08:18:07.000Z</time>
      </trkpt>
      <trkpt lat="48.49926" lon="-4.52757">
        <ele>76.400001525879</ele>
        <time>2016-06-18T08:18:12.000Z</time>
      </trkpt>
      <trkpt lat="48.4993" lon="-4.52773">
        <ele>76.800003051758</ele>
        <time>2016-06-18T08:18:14.000Z</time>
      </trkpt>
      <trkpt lat="48.49931" lon="-4.52834">
        <ele>77</ele>
        <time>2016-06-18T08:18:21.000Z</time>
      </trkpt>
      <trkpt lat="48.49933" lon="-4.52885">
        <ele>76.599998474121</ele>
        <time>2016-06-18T08:18:27.000Z</time>
      </trkpt>
      <trkpt lat="48.49929" lon="-4.52953">
        <ele>75</ele>
        <time>2016-06-18T08:18:35.000Z</time>
      </trkpt>
      <trkpt lat="48.49927" lon="-4.53006">
        <ele>75.599998474121</ele>
        <time>2016-06-18T08:18:41.000Z</time>
      </trkpt>
      <trkpt lat="48.49927" lon="-4.53025">
        <ele>75.800003051758</ele>
        <time>2016-06-18T08:18:43.000Z</time>
      </trkpt>
      <trkpt lat="48.49934" lon="-4.53057">
        <ele>75.400001525879</ele>
        <time>2016-06-18T08:18:47.000Z</time>
      </trkpt>
      <trkpt lat="48.49948" lon="-4.53074">
        <ele>74.599998474121</ele>
        <time>2016-06-18T08:18:50.000Z</time>
      </trkpt>
      <trkpt lat="48.49991" lon="-4.53118">
        <ele>72.599998474121</ele>
        <time>2016-06-18T08:18:57.000Z</time>
      </trkpt>
      <trkpt lat="48.50011" lon="-4.53153">
        <ele>72</ele>
        <time>2016-06-18T08:19:01.000Z</time>
      </trkpt>
      <trkpt lat="48.50022" lon="-4.53162">
        <ele>71.800003051758</ele>
        <time>2016-06-18T08:19:03.000Z</time>
      </trkpt>
      <trkpt lat="48.50028" lon="-4.53161">
        <ele>71.800003051758</ele>
        <time>2016-06-18T08:19:04.000Z</time>
      </trkpt>
      <trkpt lat="48.50089" lon="-4.53168">
        <ele>71.199996948242</ele>
        <time>2016-06-18T08:19:13.000Z</time>
      </trkpt>
      <trkpt lat="48.50128" lon="-4.53173">
        <ele>71</ele>
        <time>2016-06-18T08:19:19.000Z</time>
      </trkpt>
      <trkpt lat="48.50174" lon="-4.53164">
        <ele>70.599998474121</ele>
        <time>2016-06-18T08:19:26.000Z</time>
      </trkpt>
      <trkpt lat="48.50204" lon="-4.53164">
        <ele>71.199996948242</ele>
        <time>2016-06-18T08:19:31.000Z</time>
      </trkpt>
      <trkpt lat="48.50238" lon="-4.53157">
        <ele>71.400001525879</ele>
        <time>2016-06-18T08:19:37.000Z</time>
      </trkpt>
      <trkpt lat="48.50272" lon="-4.53147">
        <ele>71.400001525879</ele>
        <time>2016-06-18T08:19:44.000Z</time>
      </trkpt>
      <trkpt lat="48.50311" lon="-4.53138">
        <ele>72.400001525879</ele>
        <time>2016-06-18T08:19:53.000Z</time>
      </trkpt>
      <trkpt lat="48.50346" lon="-4.53132">
        <ele>73</ele>
        <time>2016-06-18T08:20:00.000Z</time>
      </trkpt>
      <trkpt lat="48.50382" lon="-4.53129">
        <ele>71.800003051758</ele>
        <time>2016-06-18T08:20:07.000Z</time>
      </trkpt>
      <trkpt lat="48.50414" lon="-4.5313">
        <ele>70.800003051758</ele>
        <time>2016-06-18T08:20:13.000Z</time>
      </trkpt>
      <trkpt lat="48.50429" lon="-4.53133">
        <ele>70.199996948242</ele>
        <time>2016-06-18T08:20:16.000Z</time>
      </trkpt>
      <trkpt lat="48.50459" lon="-4.53149">
        <ele>70</ele>
        <time>2016-06-18T08:20:22.000Z</time>
      </trkpt>
      <trkpt lat="48.50468" lon="-4.53156">
        <ele>70</ele>
        <time>2016-06-18T08:20:24.000Z</time>
      </trkpt>
      <trkpt lat="48.50476" lon="-4.53163">
        <ele>70</ele>
        <time>2016-06-18T08:20:26.000Z</time>
      </trkpt>
      <trkpt lat="48.50507" lon="-4.53181">
        <ele>70.599998474121</ele>
        <time>2016-06-18T08:20:33.000Z</time>
      </trkpt>
      <trkpt lat="48.5052" lon="-4.53189">
        <ele>70.599998474121</ele>
        <time>2016-06-18T08:20:36.000Z</time>
      </trkpt>
      <trkpt lat="48.50552" lon="-4.53199">
        <ele>69.800003051758</ele>
        <time>2016-06-18T08:20:42.000Z</time>
      </trkpt>
      <trkpt lat="48.50573" lon="-4.53192">
        <ele>69</ele>
        <time>2016-06-18T08:20:46.000Z</time>
      </trkpt>
      <trkpt lat="48.5059" lon="-4.5318">
        <ele>68.400001525879</ele>
        <time>2016-06-18T08:20:50.000Z</time>
      </trkpt>
      <trkpt lat="48.50593" lon="-4.53186">
        <ele>68.199996948242</ele>
        <time>2016-06-18T08:20:52.000Z</time>
      </trkpt>
      <trkpt lat="48.50594" lon="-4.53204">
        <ele>68.400001525879</ele>
        <time>2016-06-18T08:20:56.000Z</time>
      </trkpt>
      <trkpt lat="48.50593" lon="-4.53239">
        <ele>69.599998474121</ele>
        <time>2016-06-18T08:21:04.000Z</time>
      </trkpt>
      <trkpt lat="48.50593" lon="-4.53268">
        <ele>70.599998474121</ele>
        <time>2016-06-18T08:21:10.000Z</time>
      </trkpt>
      <trkpt lat="48.50592" lon="-4.53296">
        <ele>71.199996948242</ele>
        <time>2016-06-18T08:21:16.000Z</time>
      </trkpt>
      <trkpt lat="48.50595" lon="-4.53321">
        <ele>71.199996948242</ele>
        <time>2016-06-18T08:21:22.000Z</time>
      </trkpt>
      <trkpt lat="48.50601" lon="-4.53349">
        <ele>71</ele>
        <time>2016-06-18T08:21:28.000Z</time>
      </trkpt>
      <trkpt lat="48.5061" lon="-4.53386">
        <ele>71</ele>
        <time>2016-06-18T08:21:35.000Z</time>
      </trkpt>
      <trkpt lat="48.50616" lon="-4.53437">
        <ele>71</ele>
        <time>2016-06-18T08:21:44.000Z</time>
      </trkpt>
      <trkpt lat="48.50627" lon="-4.53484">
        <ele>71</ele>
        <time>2016-06-18T08:21:52.000Z</time>
      </trkpt>
      <trkpt lat="48.50634" lon="-4.53501">
        <ele>71</ele>
        <time>2016-06-18T08:21:55.000Z</time>
      </trkpt>
      <trkpt lat="48.50654" lon="-4.53537">
        <ele>71</ele>
        <time>2016-06-18T08:22:02.000Z</time>
      </trkpt>
      <trkpt lat="48.50671" lon="-4.53567">
        <ele>70.599998474121</ele>
        <time>2016-06-18T08:22:07.000Z</time>
      </trkpt>
      <trkpt lat="48.50679" lon="-4.53599">
        <ele>70.199996948242</ele>
        <time>2016-06-18T08:22:11.000Z</time>
      </trkpt>
      <trkpt lat="48.50684" lon="-4.53667">
        <ele>68.800003051758</ele>
        <time>2016-06-18T08:22:19.000Z</time>
      </trkpt>
      <trkpt lat="48.50695" lon="-4.53707">
        <ele>67.599998474121</ele>
        <time>2016-06-18T08:22:24.000Z</time>
      </trkpt>
      <trkpt lat="48.50703" lon="-4.53718">
        <ele>67.199996948242</ele>
        <time>2016-06-18T08:22:26.000Z</time>
      </trkpt>
      <trkpt lat="48.5073" lon="-4.53757">
        <ele>66.199996948242</ele>
        <time>2016-06-18T08:22:33.000Z</time>
      </trkpt>
      <trkpt lat="48.50741" lon="-4.53772">
        <ele>66.400001525879</ele>
        <time>2016-06-18T08:22:36.000Z</time>
      </trkpt>
      <trkpt lat="48.50753" lon="-4.53793">
        <ele>66.400001525879</ele>
        <time>2016-06-18T08:22:40.000Z</time>
      </trkpt>
      <trkpt lat="48.50773" lon="-4.53823">
        <ele>66.199996948242</ele>
        <time>2016-06-18T08:22:45.000Z</time>
      </trkpt>
      <trkpt lat="48.50793" lon="-4.53847">
        <ele>65.800003051758</ele>
        <time>2016-06-18T08:22:49.000Z</time>
      </trkpt>
      <trkpt lat="48.50811" lon="-4.53873">
        <ele>65.199996948242</ele>
        <time>2016-06-18T08:22:53.000Z</time>
      </trkpt>
      <trkpt lat="48.50818" lon="-4.53888">
        <ele>64.199996948242</ele>
        <time>2016-06-18T08:22:55.000Z</time>
      </trkpt>
      <trkpt lat="48.50825" lon="-4.53902">
        <ele>63</ele>
        <time>2016-06-18T08:22:57.000Z</time>
      </trkpt>
      <trkpt lat="48.50827" lon="-4.53935">
        <ele>60.400001525879</ele>
        <time>2016-06-18T08:23:01.000Z</time>
      </trkpt>
      <trkpt lat="48.50825" lon="-4.53954">
        <ele>59</ele>
        <time>2016-06-18T08:23:03.000Z</time>
      </trkpt>
      <trkpt lat="48.50825" lon="-4.54011">
        <ele>58.599998474121</ele>
        <time>2016-06-18T08:23:09.000Z</time>
      </trkpt>
      <trkpt lat="48.50832" lon="-4.54032">
        <ele>58.200000762939</ele>
        <time>2016-06-18T08:23:12.000Z</time>
      </trkpt>
      <trkpt lat="48.50837" lon="-4.54035">
        <ele>58.200000762939</ele>
        <time>2016-06-18T08:23:13.000Z</time>
      </trkpt>
      <trkpt lat="48.50853" lon="-4.54056">
        <ele>58.200000762939</ele>
        <time>2016-06-18T08:23:17.000Z</time>
      </trkpt>
      <trkpt lat="48.50868" lon="-4.54074">
        <ele>58.400001525879</ele>
        <time>2016-06-18T08:23:21.000Z</time>
      </trkpt>
      <trkpt lat="48.5088" lon="-4.54068">
        <ele>58.400001525879</ele>
        <time>2016-06-18T08:23:23.000Z</time>
      </trkpt>
      <trkpt lat="48.50914" lon="-4.54056">
        <ele>58.200000762939</ele>
        <time>2016-06-18T08:23:29.000Z</time>
      </trkpt>
      <trkpt lat="48.5093" lon="-4.54055">
        <ele>58</ele>
        <time>2016-06-18T08:23:32.000Z</time>
      </trkpt>
      <trkpt lat="48.50961" lon="-4.54042">
        <ele>57.599998474121</ele>
        <time>2016-06-18T08:23:37.000Z</time>
      </trkpt>
      <trkpt lat="48.50988" lon="-4.54022">
        <ele>57.200000762939</ele>
        <time>2016-06-18T08:23:41.000Z</time>
      </trkpt>
      <trkpt lat="48.51021" lon="-4.5398">
        <ele>56.400001525879</ele>
        <time>2016-06-18T08:23:47.000Z</time>
      </trkpt>
      <trkpt lat="48.51054" lon="-4.53925">
        <ele>56.400001525879</ele>
        <time>2016-06-18T08:23:54.000Z</time>
      </trkpt>
      <trkpt lat="48.51062" lon="-4.5391">
        <ele>56.400001525879</ele>
        <time>2016-06-18T08:23:56.000Z</time>
      </trkpt>
      <trkpt lat="48.5108" lon="-4.5387">
        <ele>57</ele>
        <time>2016-06-18T08:24:02.000Z</time>
      </trkpt>
      <trkpt lat="48.51093" lon="-4.53833">
        <ele>57.400001525879</ele>
        <time>2016-06-18T08:24:08.000Z</time>
      </trkpt>
      <trkpt lat="48.51106" lon="-4.53797">
        <ele>57.599998474121</ele>
        <time>2016-06-18T08:24:14.000Z</time>
      </trkpt>
      <trkpt lat="48.51121" lon="-4.53753">
        <ele>57.799999237061</ele>
        <time>2016-06-18T08:24:21.000Z</time>
      </trkpt>
      <trkpt lat="48.51134" lon="-4.53692">
        <ele>58.400001525879</ele>
        <time>2016-06-18T08:24:30.000Z</time>
      </trkpt>
      <trkpt lat="48.51149" lon="-4.53635">
        <ele>58.200000762939</ele>
        <time>2016-06-18T08:24:39.000Z</time>
      </trkpt>
      <trkpt lat="48.5116" lon="-4.53586">
        <ele>57.400001525879</ele>
        <time>2016-06-18T08:24:45.000Z</time>
      </trkpt>
      <trkpt lat="48.51168" lon="-4.53557">
        <ele>56.799999237061</ele>
        <time>2016-06-18T08:24:48.000Z</time>
      </trkpt>
      <trkpt lat="48.51187" lon="-4.53531">
        <ele>55.799999237061</ele>
        <time>2016-06-18T08:24:52.000Z</time>
      </trkpt>
      <trkpt lat="48.51203" lon="-4.53508">
        <ele>55.400001525879</ele>
        <time>2016-06-18T08:24:56.000Z</time>
      </trkpt>
      <trkpt lat="48.51206" lon="-4.53497">
        <ele>55.200000762939</ele>
        <time>2016-06-18T08:25:00.000Z</time>
      </trkpt>
      <trkpt lat="48.51207" lon="-4.53495">
        <ele>55.200000762939</ele>
        <time>2016-06-18T08:25:02.000Z</time>
      </trkpt>
      <trkpt lat="48.51208" lon="-4.53494">
        <ele>55.200000762939</ele>
        <time>2016-06-18T08:25:05.000Z</time>
      </trkpt>
      <trkpt lat="48.51219" lon="-4.53482">
        <ele>55</ele>
        <time>2016-06-18T08:25:16.000Z</time>
      </trkpt>
      <trkpt lat="48.51222" lon="-4.53473">
        <ele>54.799999237061</ele>
        <time>2016-06-18T08:25:20.000Z</time>
      </trkpt>
      <trkpt lat="48.51224" lon="-4.53472">
        <ele>54.799999237061</ele>
        <time>2016-06-18T08:25:21.000Z</time>
      </trkpt>
      <trkpt lat="48.51232" lon="-4.53463">
        <ele>54.599998474121</ele>
        <time>2016-06-18T08:25:28.000Z</time>
      </trkpt>
      <trkpt lat="48.51238" lon="-4.53453">
        <ele>54.400001525879</ele>
        <time>2016-06-18T08:25:31.000Z</time>
      </trkpt>
      <trkpt lat="48.5125" lon="-4.53434">
        <ele>54.400001525879</ele>
        <time>2016-06-18T08:25:37.000Z</time>
      </trkpt>
      <trkpt lat="48.51264" lon="-4.53418">
        <ele>54.400001525879</ele>
        <time>2016-06-18T08:25:43.000Z</time>
      </trkpt>
      <trkpt lat="48.51276" lon="-4.53407">
        <ele>54.200000762939</ele>
        <time>2016-06-18T08:25:48.000Z</time>
      </trkpt>
      <trkpt lat="48.51296" lon="-4.53391">
        <ele>53.599998474121</ele>
        <time>2016-06-18T08:25:54.000Z</time>
      </trkpt>
      <trkpt lat="48.51304" lon="-4.5338">
        <ele>53.400001525879</ele>
        <time>2016-06-18T08:25:57.000Z</time>
      </trkpt>
      <trkpt lat="48.51306" lon="-4.53365">
        <ele>53.599998474121</ele>
        <time>2016-06-18T08:26:02.000Z</time>
      </trkpt>
      <trkpt lat="48.51305" lon="-4.53361">
        <ele>53.799999237061</ele>
        <time>2016-06-18T08:26:03.000Z</time>
      </trkpt>
      <trkpt lat="48.51301" lon="-4.53331">
        <ele>54.599998474121</ele>
        <time>2016-06-18T08:26:10.000Z</time>
      </trkpt>
      <trkpt lat="48.51301" lon="-4.53299">
        <ele>55</ele>
        <time>2016-06-18T08:26:16.000Z</time>
      </trkpt>
      <trkpt lat="48.51295" lon="-4.53263">
        <ele>55.599998474121</ele>
        <time>2016-06-18T08:26:22.000Z</time>
      </trkpt>
      <trkpt lat="48.51278" lon="-4.53222">
        <ele>56.400001525879</ele>
        <time>2016-06-18T08:26:30.000Z</time>
      </trkpt>
      <trkpt lat="48.51264" lon="-4.53187">
        <ele>57.200000762939</ele>
        <time>2016-06-18T08:26:37.000Z</time>
      </trkpt>
      <trkpt lat="48.51258" lon="-4.53157">
        <ele>57.799999237061</ele>
        <time>2016-06-18T08:26:42.000Z</time>
      </trkpt>
      <trkpt lat="48.51235" lon="-4.53104">
        <ele>59</ele>
        <time>2016-06-18T08:26:52.000Z</time>
      </trkpt>
      <trkpt lat="48.51218" lon="-4.53055">
        <ele>60.400001525879</ele>
        <time>2016-06-18T08:27:00.000Z</time>
      </trkpt>
      <trkpt lat="48.51211" lon="-4.53004">
        <ele>61</ele>
        <time>2016-06-18T08:27:07.000Z</time>
      </trkpt>
      <trkpt lat="48.51206" lon="-4.52942">
        <ele>62.599998474121</ele>
        <time>2016-06-18T08:27:16.000Z</time>
      </trkpt>
      <trkpt lat="48.51204" lon="-4.52935">
        <ele>62.799999237061</ele>
        <time>2016-06-18T08:27:17.000Z</time>
      </trkpt>
      <trkpt lat="48.51185" lon="-4.52896">
        <ele>64.199996948242</ele>
        <time>2016-06-18T08:27:24.000Z</time>
      </trkpt>
      <trkpt lat="48.5117" lon="-4.52874">
        <ele>65.199996948242</ele>
        <time>2016-06-18T08:27:29.000Z</time>
      </trkpt>
      <trkpt lat="48.51167" lon="-4.52864">
        <ele>65.400001525879</ele>
        <time>2016-06-18T08:27:31.000Z</time>
      </trkpt>
      <trkpt lat="48.51165" lon="-4.52833">
        <ele>65.400001525879</ele>
        <time>2016-06-18T08:27:37.000Z</time>
      </trkpt>
      <trkpt lat="48.51181" lon="-4.52825">
        <ele>65</ele>
        <time>2016-06-18T08:27:42.000Z</time>
      </trkpt>
      <trkpt lat="48.51201" lon="-4.52828">
        <ele>64.800003051758</ele>
        <time>2016-06-18T08:27:47.000Z</time>
      </trkpt>
      <trkpt lat="48.51233" lon="-4.52815">
        <ele>64.400001525879</ele>
        <time>2016-06-18T08:27:54.000Z</time>
      </trkpt>
      <trkpt lat="48.51261" lon="-4.52797">
        <ele>64</ele>
        <time>2016-06-18T08:28:00.000Z</time>
      </trkpt>
      <trkpt lat="48.51296" lon="-4.52782">
        <ele>63.599998474121</ele>
        <time>2016-06-18T08:28:07.000Z</time>
      </trkpt>
      <trkpt lat="48.51318" lon="-4.5278">
        <ele>63.400001525879</ele>
        <time>2016-06-18T08:28:11.000Z</time>
      </trkpt>
      <trkpt lat="48.51369" lon="-4.52788">
        <ele>62.400001525879</ele>
        <time>2016-06-18T08:28:20.000Z</time>
      </trkpt>
      <trkpt lat="48.51443" lon="-4.52799">
        <ele>60.200000762939</ele>
        <time>2016-06-18T08:28:32.000Z</time>
      </trkpt>
      <trkpt lat="48.51499" lon="-4.52809">
        <ele>57.400001525879</ele>
        <time>2016-06-18T08:28:41.000Z</time>
      </trkpt>
      <trkpt lat="48.51551" lon="-4.52813">
        <ele>56.200000762939</ele>
        <time>2016-06-18T08:28:49.000Z</time>
      </trkpt>
      <trkpt lat="48.51576" lon="-4.52812">
        <ele>55.599998474121</ele>
        <time>2016-06-18T08:28:53.000Z</time>
      </trkpt>
      <trkpt lat="48.51604" lon="-4.52797">
        <ele>55</ele>
        <time>2016-06-18T08:28:58.000Z</time>
      </trkpt>
      <trkpt lat="48.51633" lon="-4.52765">
        <ele>56</ele>
        <time>2016-06-18T08:29:04.000Z</time>
      </trkpt>
      <trkpt lat="48.51661" lon="-4.52734">
        <ele>57</ele>
        <time>2016-06-18T08:29:10.000Z</time>
      </trkpt>
      <trkpt lat="48.51694" lon="-4.52719">
        <ele>57.599998474121</ele>
        <time>2016-06-18T08:29:16.000Z</time>
      </trkpt>
      <trkpt lat="48.51716" lon="-4.52712">
        <ele>57.400001525879</ele>
        <time>2016-06-18T08:29:20.000Z</time>
      </trkpt>
      <trkpt lat="48.51731" lon="-4.52706">
        <ele>57.400001525879</ele>
        <time>2016-06-18T08:29:23.000Z</time>
      </trkpt>
      <trkpt lat="48.51752" lon="-4.52674">
        <ele>56.799999237061</ele>
        <time>2016-06-18T08:29:28.000Z</time>
      </trkpt>
      <trkpt lat="48.51758" lon="-4.52648">
        <ele>56.400001525879</ele>
        <time>2016-06-18T08:29:31.000Z</time>
      </trkpt>
      <trkpt lat="48.51765" lon="-4.5257">
        <ele>56.599998474121</ele>
        <time>2016-06-18T08:29:40.000Z</time>
      </trkpt>
      <trkpt lat="48.51773" lon="-4.52494">
        <ele>57.599998474121</ele>
        <time>2016-06-18T08:29:49.000Z</time>
      </trkpt>
      <trkpt lat="48.51772" lon="-4.52435">
        <ele>58.200000762939</ele>
        <time>2016-06-18T08:29:56.000Z</time>
      </trkpt>
      <trkpt lat="48.51767" lon="-4.5237">
        <ele>59</ele>
        <time>2016-06-18T08:30:04.000Z</time>
      </trkpt>
      <trkpt lat="48.5176" lon="-4.52296">
        <ele>59</ele>
        <time>2016-06-18T08:30:13.000Z</time>
      </trkpt>
      <trkpt lat="48.51749" lon="-4.52224">
        <ele>60.200000762939</ele>
        <time>2016-06-18T08:30:21.000Z</time>
      </trkpt>
      <trkpt lat="48.51741" lon="-4.52158">
        <ele>59.799999237061</ele>
        <time>2016-06-18T08:30:28.000Z</time>
      </trkpt>
      <trkpt lat="48.51741" lon="-4.52096">
        <ele>59.400001525879</ele>
        <time>2016-06-18T08:30:34.000Z</time>
      </trkpt>
      <trkpt lat="48.51743" lon="-4.52003">
        <ele>58.200000762939</ele>
        <time>2016-06-18T08:30:43.000Z</time>
      </trkpt>
      <trkpt lat="48.51744" lon="-4.51994">
        <ele>58</ele>
        <time>2016-06-18T08:30:44.000Z</time>
      </trkpt>
      <trkpt lat="48.51738" lon="-4.51965">
        <ele>58.200000762939</ele>
        <time>2016-06-18T08:30:48.000Z</time>
      </trkpt>
      <trkpt lat="48.51727" lon="-4.51958">
        <ele>58.599998474121</ele>
        <time>2016-06-18T08:30:50.000Z</time>
      </trkpt>
      <trkpt lat="48.51711" lon="-4.51959">
        <ele>59.200000762939</ele>
        <time>2016-06-18T08:30:53.000Z</time>
      </trkpt>
      <trkpt lat="48.51701" lon="-4.51959">
        <ele>59.400001525879</ele>
        <time>2016-06-18T08:30:55.000Z</time>
      </trkpt>
      <trkpt lat="48.51668" lon="-4.51961">
        <ele>60.200000762939</ele>
        <time>2016-06-18T08:31:02.000Z</time>
      </trkpt>
      <trkpt lat="48.5163" lon="-4.51958">
        <ele>60.200000762939</ele>
        <time>2016-06-18T08:31:10.000Z</time>
      </trkpt>
      <trkpt lat="48.51616" lon="-4.51956">
        <ele>60.200000762939</ele>
        <time>2016-06-18T08:31:13.000Z</time>
      </trkpt>
      <trkpt lat="48.51601" lon="-4.51954">
        <ele>60</ele>
        <time>2016-06-18T08:31:17.000Z</time>
      </trkpt>
      <trkpt lat="48.51594" lon="-4.51944">
        <ele>59.799999237061</ele>
        <time>2016-06-18T08:31:20.000Z</time>
      </trkpt>
      <trkpt lat="48.51583" lon="-4.51938">
        <ele>59.599998474121</ele>
        <time>2016-06-18T08:31:25.000Z</time>
      </trkpt>
      <trkpt lat="48.51582" lon="-4.51937">
        <ele>59.599998474121</ele>
        <time>2016-06-18T08:31:28.000Z</time>
      </trkpt>
      <trkpt lat="48.51561" lon="-4.51928">
        <ele>59.200000762939</ele>
        <time>2016-06-18T08:31:41.000Z</time>
      </trkpt>
      <trkpt lat="48.51542" lon="-4.51921">
        <ele>58.799999237061</ele>
        <time>2016-06-18T08:31:46.000Z</time>
      </trkpt>
      <trkpt lat="48.5151" lon="-4.51909">
        <ele>58.200000762939</ele>
        <time>2016-06-18T08:31:52.000Z</time>
      </trkpt>
      <trkpt lat="48.51505" lon="-4.51907">
        <ele>58.400001525879</ele>
        <time>2016-06-18T08:31:53.000Z</time>
      </trkpt>
      <trkpt lat="48.51481" lon="-4.51912">
        <ele>59.400001525879</ele>
        <time>2016-06-18T08:31:58.000Z</time>
      </trkpt>
      <trkpt lat="48.51457" lon="-4.51936">
        <ele>60.799999237061</ele>
        <time>2016-06-18T08:32:04.000Z</time>
      </trkpt>
      <trkpt lat="48.5145" lon="-4.51947">
        <ele>61.400001525879</ele>
        <time>2016-06-18T08:32:06.000Z</time>
      </trkpt>
      <trkpt lat="48.51438" lon="-4.51962">
        <ele>61.799999237061</ele>
        <time>2016-06-18T08:32:09.000Z</time>
      </trkpt>
      <trkpt lat="48.51426" lon="-4.51975">
        <ele>62</ele>
        <time>2016-06-18T08:32:12.000Z</time>
      </trkpt>
      <trkpt lat="48.51416" lon="-4.51988">
        <ele>62.200000762939</ele>
        <time>2016-06-18T08:32:16.000Z</time>
      </trkpt>
      <trkpt lat="48.51409" lon="-4.51997">
        <ele>62.400001525879</ele>
        <time>2016-06-18T08:32:20.000Z</time>
      </trkpt>
      <trkpt lat="48.51402" lon="-4.52">
        <ele>62.599998474121</ele>
        <time>2016-06-18T08:32:25.000Z</time>
      </trkpt>
      <trkpt lat="48.5138" lon="-4.52002">
        <ele>63.200000762939</ele>
        <time>2016-06-18T08:32:32.000Z</time>
      </trkpt>
      <trkpt lat="48.51365" lon="-4.52025">
        <ele>63.599998474121</ele>
        <time>2016-06-18T08:32:38.000Z</time>
      </trkpt>
      <trkpt lat="48.51362" lon="-4.52029">
        <ele>63.599998474121</ele>
        <time>2016-06-18T08:32:39.000Z</time>
      </trkpt>
      <trkpt lat="48.51351" lon="-4.52049">
        <ele>63.599998474121</ele>
        <time>2016-06-18T08:32:44.000Z</time>
      </trkpt>
      <trkpt lat="48.51334" lon="-4.52071">
        <ele>63.400001525879</ele>
        <time>2016-06-18T08:32:51.000Z</time>
      </trkpt>
      <trkpt lat="48.51317" lon="-4.52083">
        <ele>63.599998474121</ele>
        <time>2016-06-18T08:32:56.000Z</time>
      </trkpt>
      <trkpt lat="48.51301" lon="-4.52084">
        <ele>64</ele>
        <time>2016-06-18T08:33:01.000Z</time>
      </trkpt>
      <trkpt lat="48.51283" lon="-4.52086">
        <ele>64.199996948242</ele>
        <time>2016-06-18T08:33:06.000Z</time>
      </trkpt>
      <trkpt lat="48.51267" lon="-4.52084">
        <ele>64.400001525879</ele>
        <time>2016-06-18T08:33:11.000Z</time>
      </trkpt>
      <trkpt lat="48.51242" lon="-4.52081">
        <ele>64.199996948242</ele>
        <time>2016-06-18T08:33:18.000Z</time>
      </trkpt>
      <trkpt lat="48.51235" lon="-4.52078">
        <ele>64</ele>
        <time>2016-06-18T08:33:20.000Z</time>
      </trkpt>
      <trkpt lat="48.51228" lon="-4.52052">
        <ele>64.400001525879</ele>
        <time>2016-06-18T08:33:26.000Z</time>
      </trkpt>
      <trkpt lat="48.51219" lon="-4.52025">
        <ele>64</ele>
        <time>2016-06-18T08:33:31.000Z</time>
      </trkpt>
      <trkpt lat="48.51211" lon="-4.51992">
        <ele>62.799999237061</ele>
        <time>2016-06-18T08:33:36.000Z</time>
      </trkpt>
      <trkpt lat="48.51201" lon="-4.51964">
        <ele>62.799999237061</ele>
        <time>2016-06-18T08:33:41.000Z</time>
      </trkpt>
      <trkpt lat="48.51199" lon="-4.51944">
        <ele>62.400001525879</ele>
        <time>2016-06-18T08:33:46.000Z</time>
      </trkpt>
      <trkpt lat="48.51189" lon="-4.5192">
        <ele>62.400001525879</ele>
        <time>2016-06-18T08:33:52.000Z</time>
      </trkpt>
      <trkpt lat="48.51177" lon="-4.51894">
        <ele>62.599998474121</ele>
        <time>2016-06-18T08:33:57.000Z</time>
      </trkpt>
      <trkpt lat="48.5117" lon="-4.51883">
        <ele>62.599998474121</ele>
        <time>2016-06-18T08:33:59.000Z</time>
      </trkpt>
      <trkpt lat="48.51152" lon="-4.51855">
        <ele>62.599998474121</ele>
        <time>2016-06-18T08:34:04.000Z</time>
      </trkpt>
      <trkpt lat="48.51137" lon="-4.51827">
        <ele>62.400001525879</ele>
        <time>2016-06-18T08:34:09.000Z</time>
      </trkpt>
      <trkpt lat="48.51129" lon="-4.51807">
        <ele>63</ele>
        <time>2016-06-18T08:34:12.000Z</time>
      </trkpt>
      <trkpt lat="48.51124" lon="-4.51778">
        <ele>63.200000762939</ele>
        <time>2016-06-18T08:34:16.000Z</time>
      </trkpt>
      <trkpt lat="48.51126" lon="-4.51765">
        <ele>63.200000762939</ele>
        <time>2016-06-18T08:34:18.000Z</time>
      </trkpt>
      <trkpt lat="48.51135" lon="-4.51724">
        <ele>62.799999237061</ele>
        <time>2016-06-18T08:34:25.000Z</time>
      </trkpt>
      <trkpt lat="48.51138" lon="-4.51713">
        <ele>62.599998474121</ele>
        <time>2016-06-18T08:34:27.000Z</time>
      </trkpt>
      <trkpt lat="48.51144" lon="-4.51693">
        <ele>62.400001525879</ele>
        <time>2016-06-18T08:34:32.000Z</time>
      </trkpt>
      <trkpt lat="48.51143" lon="-4.51688">
        <ele>62.400001525879</ele>
        <time>2016-06-18T08:34:36.000Z</time>
      </trkpt>
      <trkpt lat="48.51143" lon="-4.51685">
        <ele>62.400001525879</ele>
        <time>2016-06-18T08:34:40.000Z</time>
      </trkpt>
      <trkpt lat="48.51133" lon="-4.51664">
        <ele>63.200000762939</ele>
        <time>2016-06-18T08:35:21.000Z</time>
      </trkpt>
      <trkpt lat="48.51131" lon="-4.51661">
        <ele>63.599998474121</ele>
        <time>2016-06-18T08:35:26.000Z</time>
      </trkpt>
      <trkpt lat="48.51112" lon="-4.51644">
        <ele>66.199996948242</ele>
        <time>2016-06-18T08:35:40.000Z</time>
      </trkpt>
      <trkpt lat="48.51099" lon="-4.51629">
        <ele>67.800003051758</ele>
        <time>2016-06-18T08:35:47.000Z</time>
      </trkpt>
      <trkpt lat="48.51089" lon="-4.51618">
        <ele>68.599998474121</ele>
        <time>2016-06-18T08:35:52.000Z</time>
      </trkpt>
      <trkpt lat="48.51075" lon="-4.51603">
        <ele>69</ele>
        <time>2016-06-18T08:36:00.000Z</time>
      </trkpt>
      <trkpt lat="48.51061" lon="-4.51592">
        <ele>69.599998474121</ele>
        <time>2016-06-18T08:36:07.000Z</time>
      </trkpt>
      <trkpt lat="48.5105" lon="-4.51584">
        <ele>70</ele>
        <time>2016-06-18T08:36:12.000Z</time>
      </trkpt>
      <trkpt lat="48.51049" lon="-4.5157">
        <ele>69.800003051758</ele>
        <time>2016-06-18T08:36:18.000Z</time>
      </trkpt>
      <trkpt lat="48.51049" lon="-4.51568">
        <ele>69.599998474121</ele>
        <time>2016-06-18T08:36:21.000Z</time>
      </trkpt>
      <trkpt lat="48.51053" lon="-4.51549">
        <ele>69</ele>
        <time>2016-06-18T08:36:28.000Z</time>
      </trkpt>
      <trkpt lat="48.51058" lon="-4.51519">
        <ele>68.800003051758</ele>
        <time>2016-06-18T08:36:34.000Z</time>
      </trkpt>
      <trkpt lat="48.51067" lon="-4.5147">
        <ele>69</ele>
        <time>2016-06-18T08:36:42.000Z</time>
      </trkpt>
      <trkpt lat="48.51076" lon="-4.51421">
        <ele>68.800003051758</ele>
        <time>2016-06-18T08:36:48.000Z</time>
      </trkpt>
      <trkpt lat="48.51084" lon="-4.51381">
        <ele>68.599998474121</ele>
        <time>2016-06-18T08:36:53.000Z</time>
      </trkpt>
      <trkpt lat="48.51098" lon="-4.51354">
        <ele>68</ele>
        <time>2016-06-18T08:36:57.000Z</time>
      </trkpt>
      <trkpt lat="48.51125" lon="-4.51333">
        <ele>68</ele>
        <time>2016-06-18T08:37:02.000Z</time>
      </trkpt>
      <trkpt lat="48.51157" lon="-4.51296">
        <ele>68</ele>
        <time>2016-06-18T08:37:09.000Z</time>
      </trkpt>
      <trkpt lat="48.51189" lon="-4.51257">
        <ele>68.400001525879</ele>
        <time>2016-06-18T08:37:16.000Z</time>
      </trkpt>
      <trkpt lat="48.51212" lon="-4.5123">
        <ele>68.199996948242</ele>
        <time>2016-06-18T08:37:21.000Z</time>
      </trkpt>
      <trkpt lat="48.51241" lon="-4.512">
        <ele>68</ele>
        <time>2016-06-18T08:37:27.000Z</time>
      </trkpt>
      <trkpt lat="48.51255" lon="-4.51182">
        <ele>67.599998474121</ele>
        <time>2016-06-18T08:37:30.000Z</time>
      </trkpt>
      <trkpt lat="48.51282" lon="-4.51139">
        <ele>66.599998474121</ele>
        <time>2016-06-18T08:37:36.000Z</time>
      </trkpt>
      <trkpt lat="48.51287" lon="-4.51107">
        <ele>67</ele>
        <time>2016-06-18T08:37:40.000Z</time>
      </trkpt>
      <trkpt lat="48.51288" lon="-4.51091">
        <ele>67.400001525879</ele>
        <time>2016-06-18T08:37:43.000Z</time>
      </trkpt>
      <trkpt lat="48.513" lon="-4.51079">
        <ele>67.199996948242</ele>
        <time>2016-06-18T08:37:47.000Z</time>
      </trkpt>
      <trkpt lat="48.51305" lon="-4.51074">
        <ele>67</ele>
        <time>2016-06-18T08:37:48.000Z</time>
      </trkpt>
      <trkpt lat="48.51327" lon="-4.51052">
        <ele>66.599998474121</ele>
        <time>2016-06-18T08:37:53.000Z</time>
      </trkpt>
      <trkpt lat="48.51341" lon="-4.51032">
        <ele>66.199996948242</ele>
        <time>2016-06-18T08:37:57.000Z</time>
      </trkpt>
      <trkpt lat="48.51345" lon="-4.51028">
        <ele>66.400001525879</ele>
        <time>2016-06-18T08:37:58.000Z</time>
      </trkpt>
      <trkpt lat="48.51364" lon="-4.51002">
        <ele>66.400001525879</ele>
        <time>2016-06-18T08:38:03.000Z</time>
      </trkpt>
      <trkpt lat="48.51381" lon="-4.50983">
        <ele>66.400001525879</ele>
        <time>2016-06-18T08:38:07.000Z</time>
      </trkpt>
      <trkpt lat="48.51389" lon="-4.50972">
        <ele>66.400001525879</ele>
        <time>2016-06-18T08:38:09.000Z</time>
      </trkpt>
      <trkpt lat="48.51402" lon="-4.50945">
        <ele>66.599998474121</ele>
        <time>2016-06-18T08:38:14.000Z</time>
      </trkpt>
      <trkpt lat="48.51422" lon="-4.50924">
        <ele>65.800003051758</ele>
        <time>2016-06-18T08:38:19.000Z</time>
      </trkpt>
      <trkpt lat="48.51445" lon="-4.50899">
        <ele>65</ele>
        <time>2016-06-18T08:38:25.000Z</time>
      </trkpt>
      <trkpt lat="48.51453" lon="-4.50893">
        <ele>64.800003051758</ele>
        <time>2016-06-18T08:38:27.000Z</time>
      </trkpt>
      <trkpt lat="48.51475" lon="-4.50874">
        <ele>64</ele>
        <time>2016-06-18T08:38:32.000Z</time>
      </trkpt>
      <trkpt lat="48.51495" lon="-4.50848">
        <ele>63.200000762939</ele>
        <time>2016-06-18T08:38:37.000Z</time>
      </trkpt>
      <trkpt lat="48.51498" lon="-4.50843">
        <ele>63.200000762939</ele>
        <time>2016-06-18T08:38:38.000Z</time>
      </trkpt>
      <trkpt lat="48.51503" lon="-4.5082">
        <ele>63.200000762939</ele>
        <time>2016-06-18T08:38:42.000Z</time>
      </trkpt>
      <trkpt lat="48.51496" lon="-4.508">
        <ele>63.799999237061</ele>
        <time>2016-06-18T08:38:46.000Z</time>
      </trkpt>
      <trkpt lat="48.51494" lon="-4.50792">
        <ele>63.799999237061</ele>
        <time>2016-06-18T08:38:48.000Z</time>
      </trkpt>
      <trkpt lat="48.51486" lon="-4.50772">
        <ele>64.199996948242</ele>
        <time>2016-06-18T08:38:54.000Z</time>
      </trkpt>
      <trkpt lat="48.51475" lon="-4.50737">
        <ele>65</ele>
        <time>2016-06-18T08:39:02.000Z</time>
      </trkpt>
      <trkpt lat="48.51467" lon="-4.5071">
        <ele>65.599998474121</ele>
        <time>2016-06-18T08:39:08.000Z</time>
      </trkpt>
      <trkpt lat="48.5146" lon="-4.50688">
        <ele>66</ele>
        <time>2016-06-18T08:39:13.000Z</time>
      </trkpt>
      <trkpt lat="48.51454" lon="-4.50651">
        <ele>66.199996948242</ele>
        <time>2016-06-18T08:39:20.000Z</time>
      </trkpt>
      <trkpt lat="48.51448" lon="-4.50611">
        <ele>66.599998474121</ele>
        <time>2016-06-18T08:39:27.000Z</time>
      </trkpt>
      <trkpt lat="48.51442" lon="-4.50575">
        <ele>66.400001525879</ele>
        <time>2016-06-18T08:39:33.000Z</time>
      </trkpt>
      <trkpt lat="48.51438" lon="-4.50526">
        <ele>66</ele>
        <time>2016-06-18T08:39:41.000Z</time>
      </trkpt>
      <trkpt lat="48.51439" lon="-4.50483">
        <ele>65.400001525879</ele>
        <time>2016-06-18T08:39:48.000Z</time>
      </trkpt>
      <trkpt lat="48.51443" lon="-4.50433">
        <ele>64.800003051758</ele>
        <time>2016-06-18T08:39:55.000Z</time>
      </trkpt>
      <trkpt lat="48.51449" lon="-4.5038">
        <ele>64.800003051758</ele>
        <time>2016-06-18T08:40:02.000Z</time>
      </trkpt>
      <trkpt lat="48.51451" lon="-4.5035">
        <ele>65</ele>
        <time>2016-06-18T08:40:06.000Z</time>
      </trkpt>
      <trkpt lat="48.51454" lon="-4.50295">
        <ele>66.199996948242</ele>
        <time>2016-06-18T08:40:13.000Z</time>
      </trkpt>
      <trkpt lat="48.51457" lon="-4.50248">
        <ele>66</ele>
        <time>2016-06-18T08:40:19.000Z</time>
      </trkpt>
      <trkpt lat="48.51459" lon="-4.50196">
        <ele>65.400001525879</ele>
        <time>2016-06-18T08:40:26.000Z</time>
      </trkpt>
      <trkpt lat="48.51468" lon="-4.50147">
        <ele>65.599998474121</ele>
        <time>2016-06-18T08:40:34.000Z</time>
      </trkpt>
      <trkpt lat="48.5147" lon="-4.50139">
        <ele>65.599998474121</ele>
        <time>2016-06-18T08:40:38.000Z</time>
      </trkpt>
      <trkpt lat="48.51469" lon="-4.50129">
        <ele>65.599998474121</ele>
        <time>2016-06-18T08:40:41.000Z</time>
      </trkpt>
      <trkpt lat="48.5148" lon="-4.50108">
        <ele>65.599998474121</ele>
        <time>2016-06-18T08:40:45.000Z</time>
      </trkpt>
      <trkpt lat="48.51493" lon="-4.50087">
        <ele>66</ele>
        <time>2016-06-18T08:40:49.000Z</time>
      </trkpt>
      <trkpt lat="48.51498" lon="-4.50057">
        <ele>66.599998474121</ele>
        <time>2016-06-18T08:40:53.000Z</time>
      </trkpt>
      <trkpt lat="48.51506" lon="-4.50024">
        <ele>67.199996948242</ele>
        <time>2016-06-18T08:40:57.000Z</time>
      </trkpt>
      <trkpt lat="48.51524" lon="-4.5">
        <ele>67</ele>
        <time>2016-06-18T08:41:01.000Z</time>
      </trkpt>
      <trkpt lat="48.51531" lon="-4.49988">
        <ele>67</ele>
        <time>2016-06-18T08:41:03.000Z</time>
      </trkpt>
      <trkpt lat="48.51538" lon="-4.4998">
        <ele>67</ele>
        <time>2016-06-18T08:41:07.000Z</time>
      </trkpt>
      <trkpt lat="48.51564" lon="-4.49999">
        <ele>67</ele>
        <time>2016-06-18T08:41:13.000Z</time>
      </trkpt>
      <trkpt lat="48.51578" lon="-4.50022">
        <ele>67</ele>
        <time>2016-06-18T08:41:16.000Z</time>
      </trkpt>
      <trkpt lat="48.516" lon="-4.50033">
        <ele>67</ele>
        <time>2016-06-18T08:41:19.000Z</time>
      </trkpt>
      <trkpt lat="48.51608" lon="-4.50034">
        <ele>66.800003051758</ele>
        <time>2016-06-18T08:41:20.000Z</time>
      </trkpt>
      <trkpt lat="48.5166" lon="-4.50037">
        <ele>65.400001525879</ele>
        <time>2016-06-18T08:41:26.000Z</time>
      </trkpt>
      <trkpt lat="48.5169" lon="-4.50038">
        <ele>64.599998474121</ele>
        <time>2016-06-18T08:41:31.000Z</time>
      </trkpt>
      <trkpt lat="48.51701" lon="-4.50039">
        <ele>64.199996948242</ele>
        <time>2016-06-18T08:41:33.000Z</time>
      </trkpt>
      <trkpt lat="48.51711" lon="-4.50039">
        <ele>63.799999237061</ele>
        <time>2016-06-18T08:41:35.000Z</time>
      </trkpt>
      <trkpt lat="48.51731" lon="-4.50043">
        <ele>62.799999237061</ele>
        <time>2016-06-18T08:41:39.000Z</time>
      </trkpt>
      <trkpt lat="48.51752" lon="-4.50043">
        <ele>62</ele>
        <time>2016-06-18T08:41:43.000Z</time>
      </trkpt>
      <trkpt lat="48.51789" lon="-4.50048">
        <ele>61.799999237061</ele>
        <time>2016-06-18T08:41:49.000Z</time>
      </trkpt>
      <trkpt lat="48.51813" lon="-4.50036">
        <ele>62.400001525879</ele>
        <time>2016-06-18T08:41:53.000Z</time>
      </trkpt>
      <trkpt lat="48.51829" lon="-4.50012">
        <ele>63.200000762939</ele>
        <time>2016-06-18T08:41:57.000Z</time>
      </trkpt>
      <trkpt lat="48.51829" lon="-4.49995">
        <ele>63.599998474121</ele>
        <time>2016-06-18T08:42:00.000Z</time>
      </trkpt>
      <trkpt lat="48.51822" lon="-4.49989">
        <ele>63.799999237061</ele>
        <time>2016-06-18T08:42:02.000Z</time>
      </trkpt>
      <trkpt lat="48.51792" lon="-4.4999">
        <ele>63.799999237061</ele>
        <time>2016-06-18T08:42:09.000Z</time>
      </trkpt>
      <trkpt lat="48.51761" lon="-4.50002">
        <ele>63.799999237061</ele>
        <time>2016-06-18T08:42:16.000Z</time>
      </trkpt>
      <trkpt lat="48.51752" lon="-4.50005">
        <ele>63.799999237061</ele>
        <time>2016-06-18T08:42:18.000Z</time>
      </trkpt>
      <trkpt lat="48.5172" lon="-4.50015">
        <ele>64.599998474121</ele>
        <time>2016-06-18T08:42:25.000Z</time>
      </trkpt>
      <trkpt lat="48.51693" lon="-4.50002">
        <ele>65.599998474121</ele>
        <time>2016-06-18T08:42:31.000Z</time>
      </trkpt>
      <trkpt lat="48.51684" lon="-4.49977">
        <ele>66.400001525879</ele>
        <time>2016-06-18T08:42:35.000Z</time>
      </trkpt>
      <trkpt lat="48.51679" lon="-4.49958">
        <ele>67</ele>
        <time>2016-06-18T08:42:38.000Z</time>
      </trkpt>
      <trkpt lat="48.51682" lon="-4.49929">
        <ele>66.800003051758</ele>
        <time>2016-06-18T08:42:43.000Z</time>
      </trkpt>
      <trkpt lat="48.51688" lon="-4.49922">
        <ele>66.599998474121</ele>
        <time>2016-06-18T08:42:45.000Z</time>
      </trkpt>
      <trkpt lat="48.5171" lon="-4.49902">
        <ele>66.400001525879</ele>
        <time>2016-06-18T08:42:51.000Z</time>
      </trkpt>
      <trkpt lat="48.51727" lon="-4.49884">
        <ele>66.199996948242</ele>
        <time>2016-06-18T08:42:56.000Z</time>
      </trkpt>
      <trkpt lat="48.5175" lon="-4.49859">
        <ele>66</ele>
        <time>2016-06-18T08:43:02.000Z</time>
      </trkpt>
      <trkpt lat="48.51766" lon="-4.4984">
        <ele>65.599998474121</ele>
        <time>2016-06-18T08:43:06.000Z</time>
      </trkpt>
      <trkpt lat="48.51792" lon="-4.49801">
        <ele>65.800003051758</ele>
        <time>2016-06-18T08:43:13.000Z</time>
      </trkpt>
      <trkpt lat="48.51827" lon="-4.49743">
        <ele>65.400001525879</ele>
        <time>2016-06-18T08:43:23.000Z</time>
      </trkpt>
      <trkpt lat="48.51857" lon="-4.49705">
        <ele>65.199996948242</ele>
        <time>2016-06-18T08:43:30.000Z</time>
      </trkpt>
      <trkpt lat="48.51879" lon="-4.49674">
        <ele>62.400001525879</ele>
        <time>2016-06-18T08:43:35.000Z</time>
      </trkpt>
      <trkpt lat="48.51906" lon="-4.49639">
        <ele>59.200000762939</ele>
        <time>2016-06-18T08:43:40.000Z</time>
      </trkpt>
      <trkpt lat="48.51937" lon="-4.49599">
        <ele>56.599998474121</ele>
        <time>2016-06-18T08:43:46.000Z</time>
      </trkpt>
      <trkpt lat="48.51953" lon="-4.49584">
        <ele>56.799999237061</ele>
        <time>2016-06-18T08:43:49.000Z</time>
      </trkpt>
      <trkpt lat="48.51977" lon="-4.49543">
        <ele>56.400001525879</ele>
        <time>2016-06-18T08:43:54.000Z</time>
      </trkpt>
      <trkpt lat="48.51995" lon="-4.49493">
        <ele>55.400001525879</ele>
        <time>2016-06-18T08:43:59.000Z</time>
      </trkpt>
      <trkpt lat="48.52008" lon="-4.49453">
        <ele>55</ele>
        <time>2016-06-18T08:44:03.000Z</time>
      </trkpt>
      <trkpt lat="48.52013" lon="-4.49433">
        <ele>54.400001525879</ele>
        <time>2016-06-18T08:44:05.000Z</time>
      </trkpt>
      <trkpt lat="48.52026" lon="-4.49407">
        <ele>53.200000762939</ele>
        <time>2016-06-18T08:44:08.000Z</time>
      </trkpt>
      <trkpt lat="48.52046" lon="-4.49342">
        <ele>51.200000762939</ele>
        <time>2016-06-18T08:44:13.000Z</time>
      </trkpt>
      <trkpt lat="48.52051" lon="-4.49329">
        <ele>51</ele>
        <time>2016-06-18T08:44:14.000Z</time>
      </trkpt>
      <trkpt lat="48.52075" lon="-4.49285">
        <ele>50.799999237061</ele>
        <time>2016-06-18T08:44:18.000Z</time>
      </trkpt>
      <trkpt lat="48.52087" lon="-4.49253">
        <ele>51.200000762939</ele>
        <time>2016-06-18T08:44:21.000Z</time>
      </trkpt>
      <trkpt lat="48.52092" lon="-4.4921">
        <ele>51.799999237061</ele>
        <time>2016-06-18T08:44:25.000Z</time>
      </trkpt>
      <trkpt lat="48.52086" lon="-4.49137">
        <ele>51.599998474121</ele>
        <time>2016-06-18T08:44:31.000Z</time>
      </trkpt>
      <trkpt lat="48.52084" lon="-4.49084">
        <ele>51.200000762939</ele>
        <time>2016-06-18T08:44:36.000Z</time>
      </trkpt>
      <trkpt lat="48.52083" lon="-4.49064">
        <ele>51</ele>
        <time>2016-06-18T08:44:38.000Z</time>
      </trkpt>
      <trkpt lat="48.52088" lon="-4.48997">
        <ele>52.400001525879</ele>
        <time>2016-06-18T08:44:45.000Z</time>
      </trkpt>
      <trkpt lat="48.52094" lon="-4.48963">
        <ele>53.599998474121</ele>
        <time>2016-06-18T08:44:49.000Z</time>
      </trkpt>
      <trkpt lat="48.52089" lon="-4.48937">
        <ele>54.400001525879</ele>
        <time>2016-06-18T08:44:53.000Z</time>
      </trkpt>
      <trkpt lat="48.52066" lon="-4.4891">
        <ele>55</ele>
        <time>2016-06-18T08:45:00.000Z</time>
      </trkpt>
      <trkpt lat="48.52047" lon="-4.48903">
        <ele>54.799999237061</ele>
        <time>2016-06-18T08:45:05.000Z</time>
      </trkpt>
      <trkpt lat="48.51998" lon="-4.48908">
        <ele>55.799999237061</ele>
        <time>2016-06-18T08:45:13.000Z</time>
      </trkpt>
      <trkpt lat="48.51993" lon="-4.48909">
        <ele>56.400001525879</ele>
        <time>2016-06-18T08:45:14.000Z</time>
      </trkpt>
      <trkpt lat="48.51957" lon="-4.48914">
        <ele>59.400001525879</ele>
        <time>2016-06-18T08:45:22.000Z</time>
      </trkpt>
      <trkpt lat="48.51945" lon="-4.48914">
        <ele>60.400001525879</ele>
        <time>2016-06-18T08:45:25.000Z</time>
      </trkpt>
      <trkpt lat="48.51917" lon="-4.48926">
        <ele>61.799999237061</ele>
        <time>2016-06-18T08:45:33.000Z</time>
      </trkpt>
      <trkpt lat="48.51904" lon="-4.48935">
        <ele>62.400001525879</ele>
        <time>2016-06-18T08:45:38.000Z</time>
      </trkpt>
      <trkpt lat="48.51881" lon="-4.48951">
        <ele>63.200000762939</ele>
        <time>2016-06-18T08:45:45.000Z</time>
      </trkpt>
      <trkpt lat="48.51853" lon="-4.48978">
        <ele>64.199996948242</ele>
        <time>2016-06-18T08:45:54.000Z</time>
      </trkpt>
      <trkpt lat="48.51824" lon="-4.49007">
        <ele>65.599998474121</ele>
        <time>2016-06-18T08:46:03.000Z</time>
      </trkpt>
      <trkpt lat="48.51792" lon="-4.49038">
        <ele>67</ele>
        <time>2016-06-18T08:46:12.000Z</time>
      </trkpt>
      <trkpt lat="48.51771" lon="-4.49057">
        <ele>67.599998474121</ele>
        <time>2016-06-18T08:46:18.000Z</time>
      </trkpt>
      <trkpt lat="48.51749" lon="-4.49081">
        <ele>68</ele>
        <time>2016-06-18T08:46:25.000Z</time>
      </trkpt>
      <trkpt lat="48.5173" lon="-4.49099">
        <ele>68.599998474121</ele>
        <time>2016-06-18T08:46:30.000Z</time>
      </trkpt>
      <trkpt lat="48.51718" lon="-4.49108">
        <ele>68.800003051758</ele>
        <time>2016-06-18T08:46:33.000Z</time>
      </trkpt>
      <trkpt lat="48.51686" lon="-4.49117">
        <ele>70</ele>
        <time>2016-06-18T08:46:40.000Z</time>
      </trkpt>
      <trkpt lat="48.51644" lon="-4.49128">
        <ele>70.400001525879</ele>
        <time>2016-06-18T08:46:49.000Z</time>
      </trkpt>
      <trkpt lat="48.51611" lon="-4.49138">
        <ele>70.599998474121</ele>
        <time>2016-06-18T08:46:56.000Z</time>
      </trkpt>
      <trkpt lat="48.51592" lon="-4.49143">
        <ele>70.800003051758</ele>
        <time>2016-06-18T08:47:00.000Z</time>
      </trkpt>
      <trkpt lat="48.51557" lon="-4.49154">
        <ele>71</ele>
        <time>2016-06-18T08:47:07.000Z</time>
      </trkpt>
      <trkpt lat="48.51513" lon="-4.49166">
        <ele>71.400001525879</ele>
        <time>2016-06-18T08:47:16.000Z</time>
      </trkpt>
      <trkpt lat="48.51508" lon="-4.49167">
        <ele>71.199996948242</ele>
        <time>2016-06-18T08:47:17.000Z</time>
      </trkpt>
      <trkpt lat="48.51466" lon="-4.49192">
        <ele>70.400001525879</ele>
        <time>2016-06-18T08:47:26.000Z</time>
      </trkpt>
      <trkpt lat="48.51446" lon="-4.49206">
        <ele>70</ele>
        <time>2016-06-18T08:47:30.000Z</time>
      </trkpt>
      <trkpt lat="48.51425" lon="-4.49226">
        <ele>68.599998474121</ele>
        <time>2016-06-18T08:47:34.000Z</time>
      </trkpt>
      <trkpt lat="48.51397" lon="-4.49242">
        <ele>66.199996948242</ele>
        <time>2016-06-18T08:47:38.000Z</time>
      </trkpt>
      <trkpt lat="48.5138" lon="-4.49247">
        <ele>65</ele>
        <time>2016-06-18T08:47:40.000Z</time>
      </trkpt>
      <trkpt lat="48.51312" lon="-4.49284">
        <ele>61</ele>
        <time>2016-06-18T08:47:48.000Z</time>
      </trkpt>
      <trkpt lat="48.51247" lon="-4.49331">
        <ele>58.799999237061</ele>
        <time>2016-06-18T08:47:56.000Z</time>
      </trkpt>
      <trkpt lat="48.51232" lon="-4.49342">
        <ele>58.799999237061</ele>
        <time>2016-06-18T08:47:58.000Z</time>
      </trkpt>
      <trkpt lat="48.51215" lon="-4.49373">
        <ele>58.200000762939</ele>
        <time>2016-06-18T08:48:02.000Z</time>
      </trkpt>
      <trkpt lat="48.51211" lon="-4.49396">
        <ele>58.400001525879</ele>
        <time>2016-06-18T08:48:05.000Z</time>
      </trkpt>
      <trkpt lat="48.51207" lon="-4.49437">
        <ele>58.200000762939</ele>
        <time>2016-06-18T08:48:11.000Z</time>
      </trkpt>
      <trkpt lat="48.51204" lon="-4.49465">
        <ele>58.599998474121</ele>
        <time>2016-06-18T08:48:16.000Z</time>
      </trkpt>
      <trkpt lat="48.51213" lon="-4.49477">
        <ele>58.599998474121</ele>
        <time>2016-06-18T08:48:20.000Z</time>
      </trkpt>
      <trkpt lat="48.51231" lon="-4.4951">
        <ele>58.400001525879</ele>
        <time>2016-06-18T08:48:27.000Z</time>
      </trkpt>
      <trkpt lat="48.51247" lon="-4.49539">
        <ele>58</ele>
        <time>2016-06-18T08:48:32.000Z</time>
      </trkpt>
      <trkpt lat="48.51254" lon="-4.49551">
        <ele>57.599998474121</ele>
        <time>2016-06-18T08:48:34.000Z</time>
      </trkpt>
      <trkpt lat="48.51256" lon="-4.49573">
        <ele>57.200000762939</ele>
        <time>2016-06-18T08:48:38.000Z</time>
      </trkpt>
      <trkpt lat="48.51247" lon="-4.49593">
        <ele>57.599998474121</ele>
        <time>2016-06-18T08:48:42.000Z</time>
      </trkpt>
      <trkpt lat="48.51233" lon="-4.49618">
        <ele>58</ele>
        <time>2016-06-18T08:48:46.000Z</time>
      </trkpt>
      <trkpt lat="48.51218" lon="-4.49649">
        <ele>58.599998474121</ele>
        <time>2016-06-18T08:48:51.000Z</time>
      </trkpt>
      <trkpt lat="48.51206" lon="-4.49663">
        <ele>59</ele>
        <time>2016-06-18T08:48:54.000Z</time>
      </trkpt>
      <trkpt lat="48.51197" lon="-4.49673">
        <ele>59.599998474121</ele>
        <time>2016-06-18T08:48:57.000Z</time>
      </trkpt>
      <trkpt lat="48.51192" lon="-4.49683">
        <ele>59.799999237061</ele>
        <time>2016-06-18T08:48:59.000Z</time>
      </trkpt>
      <trkpt lat="48.51176" lon="-4.49701">
        <ele>59.799999237061</ele>
        <time>2016-06-18T08:49:04.000Z</time>
      </trkpt>
      <trkpt lat="48.51161" lon="-4.4969">
        <ele>59.799999237061</ele>
        <time>2016-06-18T08:49:09.000Z</time>
      </trkpt>
      <trkpt lat="48.51158" lon="-4.49687">
        <ele>59.799999237061</ele>
        <time>2016-06-18T08:49:10.000Z</time>
      </trkpt>
      <trkpt lat="48.51134" lon="-4.49663">
        <ele>59.799999237061</ele>
        <time>2016-06-18T08:49:18.000Z</time>
      </trkpt>
      <trkpt lat="48.5112" lon="-4.49651">
        <ele>60.200000762939</ele>
        <time>2016-06-18T08:49:23.000Z</time>
      </trkpt>
      <trkpt lat="48.51103" lon="-4.49659">
        <ele>60</ele>
        <time>2016-06-18T08:49:30.000Z</time>
      </trkpt>
      <trkpt lat="48.51093" lon="-4.49667">
        <ele>59.599998474121</ele>
        <time>2016-06-18T08:49:34.000Z</time>
      </trkpt>
      <trkpt lat="48.51072" lon="-4.49654">
        <ele>59.400001525879</ele>
        <time>2016-06-18T08:49:41.000Z</time>
      </trkpt>
      <trkpt lat="48.51051" lon="-4.49637">
        <ele>60</ele>
        <time>2016-06-18T08:49:47.000Z</time>
      </trkpt>
      <trkpt lat="48.51031" lon="-4.49624">
        <ele>60.599998474121</ele>
        <time>2016-06-18T08:49:52.000Z</time>
      </trkpt>
      <trkpt lat="48.50999" lon="-4.4961">
        <ele>61.599998474121</ele>
        <time>2016-06-18T08:50:01.000Z</time>
      </trkpt>
      <trkpt lat="48.50966" lon="-4.49599">
        <ele>62.599998474121</ele>
        <time>2016-06-18T08:50:11.000Z</time>
      </trkpt>
      <trkpt lat="48.50964" lon="-4.49598">
        <ele>62.799999237061</ele>
        <time>2016-06-18T08:50:14.000Z</time>
      </trkpt>
      <trkpt lat="48.50937" lon="-4.49588">
        <ele>63.799999237061</ele>
        <time>2016-06-18T08:51:04.000Z</time>
      </trkpt>
      <trkpt lat="48.50921" lon="-4.49582">
        <ele>64.599998474121</ele>
        <time>2016-06-18T08:51:11.000Z</time>
      </trkpt>
      <trkpt lat="48.50908" lon="-4.49578">
        <ele>65</ele>
        <time>2016-06-18T08:51:17.000Z</time>
      </trkpt>
      <trkpt lat="48.50887" lon="-4.49571">
        <ele>65.800003051758</ele>
        <time>2016-06-18T08:51:25.000Z</time>
      </trkpt>
      <trkpt lat="48.50863" lon="-4.49564">
        <ele>66.599998474121</ele>
        <time>2016-06-18T08:51:33.000Z</time>
      </trkpt>
      <trkpt lat="48.50835" lon="-4.4956">
        <ele>67.400001525879</ele>
        <time>2016-06-18T08:51:41.000Z</time>
      </trkpt>
      <trkpt lat="48.50799" lon="-4.49557">
        <ele>67.800003051758</ele>
        <time>2016-06-18T08:51:50.000Z</time>
      </trkpt>
      <trkpt lat="48.50776" lon="-4.4956">
        <ele>67.599998474121</ele>
        <time>2016-06-18T08:51:55.000Z</time>
      </trkpt>
      <trkpt lat="48.50754" lon="-4.49551">
        <ele>67.599998474121</ele>
        <time>2016-06-18T08:51:59.000Z</time>
      </trkpt>
      <trkpt lat="48.5074" lon="-4.49541">
        <ele>67.400001525879</ele>
        <time>2016-06-18T08:52:02.000Z</time>
      </trkpt>
      <trkpt lat="48.50721" lon="-4.49538">
        <ele>67</ele>
        <time>2016-06-18T08:52:06.000Z</time>
      </trkpt>
      <trkpt lat="48.50693" lon="-4.49523">
        <ele>66.400001525879</ele>
        <time>2016-06-18T08:52:13.000Z</time>
      </trkpt>
      <trkpt lat="48.50684" lon="-4.49518">
        <ele>66.199996948242</ele>
        <time>2016-06-18T08:52:15.000Z</time>
      </trkpt>
      <trkpt lat="48.50649" lon="-4.49498">
        <ele>66.800003051758</ele>
        <time>2016-06-18T08:52:23.000Z</time>
      </trkpt>
      <trkpt lat="48.50633" lon="-4.49473">
        <ele>67.599998474121</ele>
        <time>2016-06-18T08:52:28.000Z</time>
      </trkpt>
      <trkpt lat="48.50632" lon="-4.49466">
        <ele>67.800003051758</ele>
        <time>2016-06-18T08:52:29.000Z</time>
      </trkpt>
      <trkpt lat="48.50627" lon="-4.49411">
        <ele>69.199996948242</ele>
        <time>2016-06-18T08:52:37.000Z</time>
      </trkpt>
      <trkpt lat="48.50627" lon="-4.49405">
        <ele>69.400001525879</ele>
        <time>2016-06-18T08:52:38.000Z</time>
      </trkpt>
      <trkpt lat="48.50618" lon="-4.49359">
        <ele>70.800003051758</ele>
        <time>2016-06-18T08:52:46.000Z</time>
      </trkpt>
      <trkpt lat="48.50611" lon="-4.49335">
        <ele>71.400001525879</ele>
        <time>2016-06-18T08:52:52.000Z</time>
      </trkpt>
      <trkpt lat="48.50603" lon="-4.49321">
        <ele>71.599998474121</ele>
        <time>2016-06-18T08:52:57.000Z</time>
      </trkpt>
      <trkpt lat="48.50603" lon="-4.4932">
        <ele>71.599998474121</ele>
        <time>2016-06-18T08:53:00.000Z</time>
      </trkpt>
      <trkpt lat="48.50601" lon="-4.49312">
        <ele>71.599998474121</ele>
        <time>2016-06-18T08:53:11.000Z</time>
      </trkpt>
      <trkpt lat="48.50596" lon="-4.49294">
        <ele>71.800003051758</ele>
        <time>2016-06-18T08:53:17.000Z</time>
      </trkpt>
      <trkpt lat="48.50591" lon="-4.49271">
        <ele>72</ele>
        <time>2016-06-18T08:53:23.000Z</time>
      </trkpt>
      <trkpt lat="48.50584" lon="-4.49236">
        <ele>71.800003051758</ele>
        <time>2016-06-18T08:53:32.000Z</time>
      </trkpt>
      <trkpt lat="48.50576" lon="-4.49215">
        <ele>71.800003051758</ele>
        <time>2016-06-18T08:53:37.000Z</time>
      </trkpt>
      <trkpt lat="48.50569" lon="-4.49198">
        <ele>72.199996948242</ele>
        <time>2016-06-18T08:53:41.000Z</time>
      </trkpt>
      <trkpt lat="48.50558" lon="-4.4917">
        <ele>73.199996948242</ele>
        <time>2016-06-18T08:53:48.000Z</time>
      </trkpt>
      <trkpt lat="48.5055" lon="-4.49146">
        <ele>73.800003051758</ele>
        <time>2016-06-18T08:53:54.000Z</time>
      </trkpt>
      <trkpt lat="48.50538" lon="-4.49118">
        <ele>74.400001525879</ele>
        <time>2016-06-18T08:54:00.000Z</time>
      </trkpt>
      <trkpt lat="48.50527" lon="-4.49081">
        <ele>74.599998474121</ele>
        <time>2016-06-18T08:54:07.000Z</time>
      </trkpt>
      <trkpt lat="48.50513" lon="-4.49036">
        <ele>74</ele>
        <time>2016-06-18T08:54:15.000Z</time>
      </trkpt>
      <trkpt lat="48.50502" lon="-4.48998">
        <ele>73.599998474121</ele>
        <time>2016-06-18T08:54:22.000Z</time>
      </trkpt>
      <trkpt lat="48.50501" lon="-4.48992">
        <ele>73.599998474121</ele>
        <time>2016-06-18T08:54:23.000Z</time>
      </trkpt>
      <trkpt lat="48.50494" lon="-4.48967">
        <ele>73.199996948242</ele>
        <time>2016-06-18T08:54:27.000Z</time>
      </trkpt>
      <trkpt lat="48.50487" lon="-4.48923">
        <ele>72.400001525879</ele>
        <time>2016-06-18T08:54:35.000Z</time>
      </trkpt>
      <trkpt lat="48.50482" lon="-4.48893">
        <ele>71.800003051758</ele>
        <time>2016-06-18T08:54:40.000Z</time>
      </trkpt>
      <trkpt lat="48.50476" lon="-4.48836">
        <ele>70.199996948242</ele>
        <time>2016-06-18T08:54:48.000Z</time>
      </trkpt>
      <trkpt lat="48.50474" lon="-4.48786">
        <ele>70</ele>
        <time>2016-06-18T08:54:55.000Z</time>
      </trkpt>
      <trkpt lat="48.50473" lon="-4.48752">
        <ele>70</ele>
        <time>2016-06-18T08:55:00.000Z</time>
      </trkpt>
      <trkpt lat="48.50473" lon="-4.48745">
        <ele>70</ele>
        <time>2016-06-18T08:55:01.000Z</time>
      </trkpt>
      <trkpt lat="48.50463" lon="-4.48728">
        <ele>70</ele>
        <time>2016-06-18T08:55:05.000Z</time>
      </trkpt>
      <trkpt lat="48.50454" lon="-4.48728">
        <ele>70</ele>
        <time>2016-06-18T08:55:07.000Z</time>
      </trkpt>
      <trkpt lat="48.50422" lon="-4.48726">
        <ele>70.199996948242</ele>
        <time>2016-06-18T08:55:14.000Z</time>
      </trkpt>
      <trkpt lat="48.50386" lon="-4.48729">
        <ele>70.400001525879</ele>
        <time>2016-06-18T08:55:21.000Z</time>
      </trkpt>
      <trkpt lat="48.50348" lon="-4.48727">
        <ele>70.400001525879</ele>
        <time>2016-06-18T08:55:29.000Z</time>
      </trkpt>
      <trkpt lat="48.50339" lon="-4.48725">
        <ele>70.400001525879</ele>
        <time>2016-06-18T08:55:31.000Z</time>
      </trkpt>
      <trkpt lat="48.50304" lon="-4.48711">
        <ele>70.599998474121</ele>
        <time>2016-06-18T08:55:39.000Z</time>
      </trkpt>
      <trkpt lat="48.50256" lon="-4.48698">
        <ele>71.199996948242</ele>
        <time>2016-06-18T08:55:49.000Z</time>
      </trkpt>
      <trkpt lat="48.50212" lon="-4.48685">
        <ele>72</ele>
        <time>2016-06-18T08:55:58.000Z</time>
      </trkpt>
      <trkpt lat="48.50193" lon="-4.48682">
        <ele>72.199996948242</ele>
        <time>2016-06-18T08:56:02.000Z</time>
      </trkpt>
      <trkpt lat="48.50149" lon="-4.48699">
        <ele>72.199996948242</ele>
        <time>2016-06-18T08:56:11.000Z</time>
      </trkpt>
      <trkpt lat="48.50109" lon="-4.48725">
        <ele>71.800003051758</ele>
        <time>2016-06-18T08:56:20.000Z</time>
      </trkpt>
      <trkpt lat="48.50071" lon="-4.48746">
        <ele>71.800003051758</ele>
        <time>2016-06-18T08:56:28.000Z</time>
      </trkpt>
      <trkpt lat="48.50035" lon="-4.48742">
        <ele>71.199996948242</ele>
        <time>2016-06-18T08:56:35.000Z</time>
      </trkpt>
      <trkpt lat="48.50021" lon="-4.48757">
        <ele>71.400001525879</ele>
        <time>2016-06-18T08:56:39.000Z</time>
      </trkpt>
      <trkpt lat="48.50021" lon="-4.48764">
        <ele>71.599998474121</ele>
        <time>2016-06-18T08:56:40.000Z</time>
      </trkpt>
      <trkpt lat="48.50018" lon="-4.48844">
        <ele>75</ele>
        <time>2016-06-18T08:56:52.000Z</time>
      </trkpt>
      <trkpt lat="48.50009" lon="-4.48901">
        <ele>76.199996948242</ele>
        <time>2016-06-18T08:57:01.000Z</time>
      </trkpt>
      <trkpt lat="48.49993" lon="-4.48955">
        <ele>76.400001525879</ele>
        <time>2016-06-18T08:57:10.000Z</time>
      </trkpt>
      <trkpt lat="48.49971" lon="-4.49016">
        <ele>76.199996948242</ele>
        <time>2016-06-18T08:57:20.000Z</time>
      </trkpt>
      <trkpt lat="48.49965" lon="-4.49031">
        <ele>76.199996948242</ele>
        <time>2016-06-18T08:57:23.000Z</time>
      </trkpt>
      <trkpt lat="48.49948" lon="-4.4904">
        <ele>75.599998474121</ele>
        <time>2016-06-18T08:57:28.000Z</time>
      </trkpt>
      <trkpt lat="48.49915" lon="-4.4904">
        <ele>75.199996948242</ele>
        <time>2016-06-18T08:57:36.000Z</time>
      </trkpt>
      <trkpt lat="48.49873" lon="-4.49047">
        <ele>75.800003051758</ele>
        <time>2016-06-18T08:57:45.000Z</time>
      </trkpt>
      <trkpt lat="48.49857" lon="-4.49049">
        <ele>76</ele>
        <time>2016-06-18T08:57:49.000Z</time>
      </trkpt>
      <trkpt lat="48.49842" lon="-4.49049">
        <ele>76</ele>
        <time>2016-06-18T08:57:53.000Z</time>
      </trkpt>
      <trkpt lat="48.49818" lon="-4.49054">
        <ele>76.400001525879</ele>
        <time>2016-06-18T08:57:59.000Z</time>
      </trkpt>
      <trkpt lat="48.49795" lon="-4.49058">
        <ele>76.599998474121</ele>
        <time>2016-06-18T08:58:04.000Z</time>
      </trkpt>
      <trkpt lat="48.49749" lon="-4.49063">
        <ele>77</ele>
        <time>2016-06-18T08:58:13.000Z</time>
      </trkpt>
      <trkpt lat="48.49741" lon="-4.49064">
        <ele>77</ele>
        <time>2016-06-18T08:58:15.000Z</time>
      </trkpt>
      <trkpt lat="48.4971" lon="-4.49065">
        <ele>77.199996948242</ele>
        <time>2016-06-18T08:58:22.000Z</time>
      </trkpt>
      <trkpt lat="48.49675" lon="-4.49067">
        <ele>77.199996948242</ele>
        <time>2016-06-18T08:58:28.000Z</time>
      </trkpt>
      <trkpt lat="48.49629" lon="-4.49075">
        <ele>75.599998474121</ele>
        <time>2016-06-18T08:58:35.000Z</time>
      </trkpt>
      <trkpt lat="48.49586" lon="-4.4908">
        <ele>74.800003051758</ele>
        <time>2016-06-18T08:58:42.000Z</time>
      </trkpt>
      <trkpt lat="48.49565" lon="-4.49081">
        <ele>75.199996948242</ele>
        <time>2016-06-18T08:58:46.000Z</time>
      </trkpt>
      <trkpt lat="48.4956" lon="-4.4909">
        <ele>75.199996948242</ele>
        <time>2016-06-18T08:58:49.000Z</time>
      </trkpt>
      <trkpt lat="48.49565" lon="-4.49109">
        <ele>75</ele>
        <time>2016-06-18T08:58:52.000Z</time>
      </trkpt>
      <trkpt lat="48.49583" lon="-4.49157">
        <ele>74.400001525879</ele>
        <time>2016-06-18T08:59:00.000Z</time>
      </trkpt>
      <trkpt lat="48.49578" lon="-4.49173">
        <ele>74.400001525879</ele>
        <time>2016-06-18T08:59:04.000Z</time>
      </trkpt>
      <trkpt lat="48.49561" lon="-4.49183">
        <ele>75</ele>
        <time>2016-06-18T08:59:09.000Z</time>
      </trkpt>
      <trkpt lat="48.49557" lon="-4.49193">
        <ele>75.199996948242</ele>
        <time>2016-06-18T08:59:11.000Z</time>
      </trkpt>
      <trkpt lat="48.49548" lon="-4.49229">
        <ele>74.800003051758</ele>
        <time>2016-06-18T08:59:17.000Z</time>
      </trkpt>
      <trkpt lat="48.49545" lon="-4.49262">
        <ele>74.400001525879</ele>
        <time>2016-06-18T08:59:23.000Z</time>
      </trkpt>
      <trkpt lat="48.49541" lon="-4.49282">
        <ele>74.400001525879</ele>
        <time>2016-06-18T08:59:28.000Z</time>
      </trkpt>
      <trkpt lat="48.49529" lon="-4.49304">
        <ele>74.199996948242</ele>
        <time>2016-06-18T08:59:32.000Z</time>
      </trkpt>
      <trkpt lat="48.49524" lon="-4.4931">
        <ele>74.199996948242</ele>
        <time>2016-06-18T08:59:33.000Z</time>
      </trkpt>
      <trkpt lat="48.49498" lon="-4.49345">
        <ele>74.199996948242</ele>
        <time>2016-06-18T08:59:38.000Z</time>
      </trkpt>
      <trkpt lat="48.49492" lon="-4.49359">
        <ele>74</ele>
        <time>2016-06-18T08:59:40.000Z</time>
      </trkpt>
      <trkpt lat="48.49484" lon="-4.49411">
        <ele>73.400001525879</ele>
        <time>2016-06-18T08:59:47.000Z</time>
      </trkpt>
      <trkpt lat="48.49474" lon="-4.49452">
        <ele>73</ele>
        <time>2016-06-18T08:59:52.000Z</time>
      </trkpt>
      <trkpt lat="48.49464" lon="-4.4948">
        <ele>73.199996948242</ele>
        <time>2016-06-18T08:59:57.000Z</time>
      </trkpt>
      <trkpt lat="48.49451" lon="-4.4949">
        <ele>73.599998474121</ele>
        <time>2016-06-18T09:00:01.000Z</time>
      </trkpt>
      <trkpt lat="48.49441" lon="-4.495">
        <ele>74</ele>
        <time>2016-06-18T09:00:04.000Z</time>
      </trkpt>
      <trkpt lat="48.49423" lon="-4.4953">
        <ele>74.400001525879</ele>
        <time>2016-06-18T09:00:11.000Z</time>
      </trkpt>
      <trkpt lat="48.49406" lon="-4.49558">
        <ele>74.400001525879</ele>
        <time>2016-06-18T09:00:18.000Z</time>
      </trkpt>
      <trkpt lat="48.49387" lon="-4.4957">
        <ele>74.800003051758</ele>
        <time>2016-06-18T09:00:24.000Z</time>
      </trkpt>
      <trkpt lat="48.49367" lon="-4.49572">
        <ele>75.400001525879</ele>
        <time>2016-06-18T09:00:28.000Z</time>
      </trkpt>
      <trkpt lat="48.49344" lon="-4.49576">
        <ele>75.800003051758</ele>
        <time>2016-06-18T09:00:33.000Z</time>
      </trkpt>
      <trkpt lat="48.4934" lon="-4.49567">
        <ele>75.599998474121</ele>
        <time>2016-06-18T09:00:36.000Z</time>
      </trkpt>
      <trkpt lat="48.49326" lon="-4.49534">
        <ele>76.199996948242</ele>
        <time>2016-06-18T09:00:44.000Z</time>
      </trkpt>
      <trkpt lat="48.49312" lon="-4.49519">
        <ele>75.599998474121</ele>
        <time>2016-06-18T09:00:49.000Z</time>
      </trkpt>
      <trkpt lat="48.49297" lon="-4.49517">
        <ele>75</ele>
        <time>2016-06-18T09:00:53.000Z</time>
      </trkpt>
      <trkpt lat="48.49297" lon="-4.49514">
        <ele>75.199996948242</ele>
        <time>2016-06-18T09:00:57.000Z</time>
      </trkpt>
      <trkpt lat="48.49301" lon="-4.49514">
        <ele>75.199996948242</ele>
        <time>2016-06-18T09:00:58.000Z</time>
      </trkpt>
      <trkpt lat="48.49323" lon="-4.49528">
        <ele>76</ele>
        <time>2016-06-18T09:01:04.000Z</time>
      </trkpt>
      <trkpt lat="48.4934" lon="-4.49564">
        <ele>75.800003051758</ele>
        <time>2016-06-18T09:01:09.000Z</time>
      </trkpt>
      <trkpt lat="48.49345" lon="-4.4958">
        <ele>75.599998474121</ele>
        <time>2016-06-18T09:01:11.000Z</time>
      </trkpt>
      <trkpt lat="48.49345" lon="-4.49616">
        <ele>74.800003051758</ele>
        <time>2016-06-18T09:01:15.000Z</time>
      </trkpt>
      <trkpt lat="48.49333" lon="-4.49633">
        <ele>73.800003051758</ele>
        <time>2016-06-18T09:01:18.000Z</time>
      </trkpt>
      <trkpt lat="48.49327" lon="-4.49634">
        <ele>73.400001525879</ele>
        <time>2016-06-18T09:01:19.000Z</time>
      </trkpt>
      <trkpt lat="48.49272" lon="-4.49642">
        <ele>70.599998474121</ele>
        <time>2016-06-18T09:01:28.000Z</time>
      </trkpt>
      <trkpt lat="48.49261" lon="-4.49644">
        <ele>70.199996948242</ele>
        <time>2016-06-18T09:01:30.000Z</time>
      </trkpt>
      <trkpt lat="48.49242" lon="-4.49648">
        <ele>69.599998474121</ele>
        <time>2016-06-18T09:01:34.000Z</time>
      </trkpt>
      <trkpt lat="48.49238" lon="-4.49663">
        <ele>69.199996948242</ele>
        <time>2016-06-18T09:01:38.000Z</time>
      </trkpt>
      <trkpt lat="48.4924" lon="-4.49695">
        <ele>68.400001525879</ele>
        <time>2016-06-18T09:01:44.000Z</time>
      </trkpt>
      <trkpt lat="48.49244" lon="-4.49729">
        <ele>67.800003051758</ele>
        <time>2016-06-18T09:01:49.000Z</time>
      </trkpt>
      <trkpt lat="48.49235" lon="-4.49757">
        <ele>67.199996948242</ele>
        <time>2016-06-18T09:01:54.000Z</time>
      </trkpt>
      <trkpt lat="48.49228" lon="-4.49762">
        <ele>66.800003051758</ele>
        <time>2016-06-18T09:01:56.000Z</time>
      </trkpt>
      <trkpt lat="48.49209" lon="-4.49776">
        <ele>66</ele>
        <time>2016-06-18T09:02:00.000Z</time>
      </trkpt>
      <trkpt lat="48.49182" lon="-4.4979">
        <ele>64.800003051758</ele>
        <time>2016-06-18T09:02:06.000Z</time>
      </trkpt>
      <trkpt lat="48.49166" lon="-4.49791">
        <ele>64.599998474121</ele>
        <time>2016-06-18T09:02:10.000Z</time>
      </trkpt>
      <trkpt lat="48.49152" lon="-4.49783">
        <ele>64.199996948242</ele>
        <time>2016-06-18T09:02:14.000Z</time>
      </trkpt>
      <trkpt lat="48.49122" lon="-4.49768">
        <ele>63.799999237061</ele>
        <time>2016-06-18T09:02:21.000Z</time>
      </trkpt>
      <trkpt lat="48.491" lon="-4.49756">
        <ele>63.599998474121</ele>
        <time>2016-06-18T09:02:26.000Z</time>
      </trkpt>
      <trkpt lat="48.49062" lon="-4.49738">
        <ele>64</ele>
        <time>2016-06-18T09:02:34.000Z</time>
      </trkpt>
      <trkpt lat="48.49042" lon="-4.49712">
        <ele>63.599998474121</ele>
        <time>2016-06-18T09:02:39.000Z</time>
      </trkpt>
      <trkpt lat="48.49039" lon="-4.49706">
        <ele>63.599998474121</ele>
        <time>2016-06-18T09:02:40.000Z</time>
      </trkpt>
      <trkpt lat="48.4902" lon="-4.49704">
        <ele>63</ele>
        <time>2016-06-18T09:02:44.000Z</time>
      </trkpt>
      <trkpt lat="48.49001" lon="-4.49721">
        <ele>63.200000762939</ele>
        <time>2016-06-18T09:02:48.000Z</time>
      </trkpt>
      <trkpt lat="48.4898" lon="-4.49736">
        <ele>63.400001525879</ele>
        <time>2016-06-18T09:02:53.000Z</time>
      </trkpt>
      <trkpt lat="48.48965" lon="-4.49757">
        <ele>63.599998474121</ele>
        <time>2016-06-18T09:02:59.000Z</time>
      </trkpt>
      <trkpt lat="48.48963" lon="-4.4976">
        <ele>63.599998474121</ele>
        <time>2016-06-18T09:03:00.000Z</time>
      </trkpt>
      <trkpt lat="48.48954" lon="-4.49774">
        <ele>63.799999237061</ele>
        <time>2016-06-18T09:03:06.000Z</time>
      </trkpt>
      <trkpt lat="48.48953" lon="-4.49775">
        <ele>63.799999237061</ele>
        <time>2016-06-18T09:03:07.000Z</time>
      </trkpt>
      <trkpt lat="48.48954" lon="-4.49773">
        <ele>63.799999237061</ele>
        <time>2016-06-18T09:03:11.000Z</time>
      </trkpt>
      <trkpt lat="48.48946" lon="-4.49789">
        <ele>63.799999237061</ele>
        <time>2016-06-18T09:03:36.000Z</time>
      </trkpt>
      <trkpt lat="48.48945" lon="-4.4979">
        <ele>63.799999237061</ele>
        <time>2016-06-18T09:03:37.000Z</time>
      </trkpt>
      <trkpt lat="48.48944" lon="-4.49793">
        <ele>63.799999237061</ele>
        <time>2016-06-18T09:03:41.000Z</time>
      </trkpt>
      <trkpt lat="48.48923" lon="-4.49791">
        <ele>64</ele>
        <time>2016-06-18T09:04:00.000Z</time>
      </trkpt>
      <trkpt lat="48.48906" lon="-4.49791">
        <ele>63.799999237061</ele>
        <time>2016-06-18T09:04:05.000Z</time>
      </trkpt>
      <trkpt lat="48.48892" lon="-4.49788">
        <ele>63.599998474121</ele>
        <time>2016-06-18T09:04:09.000Z</time>
      </trkpt>
      <trkpt lat="48.48891" lon="-4.49772">
        <ele>63.400001525879</ele>
        <time>2016-06-18T09:04:13.000Z</time>
      </trkpt>
      <trkpt lat="48.48892" lon="-4.49766">
        <ele>63.599998474121</ele>
        <time>2016-06-18T09:04:14.000Z</time>
      </trkpt>
      <trkpt lat="48.48887" lon="-4.49746">
        <ele>63.400001525879</ele>
        <time>2016-06-18T09:04:18.000Z</time>
      </trkpt>
      <trkpt lat="48.48883" lon="-4.49742">
        <ele>63.400001525879</ele>
        <time>2016-06-18T09:04:19.000Z</time>
      </trkpt>
      <trkpt lat="48.48875" lon="-4.49733">
        <ele>63.599998474121</ele>
        <time>2016-06-18T09:04:21.000Z</time>
      </trkpt>
      <trkpt lat="48.48857" lon="-4.4971">
        <ele>63.799999237061</ele>
        <time>2016-06-18T09:04:26.000Z</time>
      </trkpt>
      <trkpt lat="48.48853" lon="-4.49688">
        <ele>64</ele>
        <time>2016-06-18T09:04:29.000Z</time>
      </trkpt>
      <trkpt lat="48.48848" lon="-4.49637">
        <ele>64.800003051758</ele>
        <time>2016-06-18T09:04:36.000Z</time>
      </trkpt>
      <trkpt lat="48.4884" lon="-4.4957">
        <ele>64.800003051758</ele>
        <time>2016-06-18T09:04:45.000Z</time>
      </trkpt>
      <trkpt lat="48.48834" lon="-4.49515">
        <ele>65.599998474121</ele>
        <time>2016-06-18T09:04:52.000Z</time>
      </trkpt>
      <trkpt lat="48.4883" lon="-4.49468">
        <ele>66.800003051758</ele>
        <time>2016-06-18T09:04:58.000Z</time>
      </trkpt>
      <trkpt lat="48.48821" lon="-4.4944">
        <ele>68.599998474121</ele>
        <time>2016-06-18T09:05:03.000Z</time>
      </trkpt>
      <trkpt lat="48.48799" lon="-4.49415">
        <ele>70</ele>
        <time>2016-06-18T09:05:09.000Z</time>
      </trkpt>
      <trkpt lat="48.48791" lon="-4.49402">
        <ele>71.199996948242</ele>
        <time>2016-06-18T09:05:12.000Z</time>
      </trkpt>
      <trkpt lat="48.4879" lon="-4.49388">
        <ele>72</ele>
        <time>2016-06-18T09:05:16.000Z</time>
      </trkpt>
      <trkpt lat="48.48796" lon="-4.49378">
        <ele>72</ele>
        <time>2016-06-18T09:05:18.000Z</time>
      </trkpt>
      <trkpt lat="48.48834" lon="-4.49335">
        <ele>70</ele>
        <time>2016-06-18T09:05:27.000Z</time>
      </trkpt>
      <trkpt lat="48.48866" lon="-4.49298">
        <ele>69.400001525879</ele>
        <time>2016-06-18T09:05:35.000Z</time>
      </trkpt>
      <trkpt lat="48.4887" lon="-4.49272">
        <ele>70.199996948242</ele>
        <time>2016-06-18T09:05:39.000Z</time>
      </trkpt>
      <trkpt lat="48.48872" lon="-4.49252">
        <ele>71</ele>
        <time>2016-06-18T09:05:42.000Z</time>
      </trkpt>
      <trkpt lat="48.48868" lon="-4.49238">
        <ele>71.800003051758</ele>
        <time>2016-06-18T09:05:45.000Z</time>
      </trkpt>
      <trkpt lat="48.4885" lon="-4.49234">
        <ele>72.400001525879</ele>
        <time>2016-06-18T09:05:49.000Z</time>
      </trkpt>
      <trkpt lat="48.48824" lon="-4.49231">
        <ele>74.599998474121</ele>
        <time>2016-06-18T09:05:55.000Z</time>
      </trkpt>
      <trkpt lat="48.48807" lon="-4.49225">
        <ele>75.800003051758</ele>
        <time>2016-06-18T09:05:59.000Z</time>
      </trkpt>
      <trkpt lat="48.48788" lon="-4.4921">
        <ele>76.800003051758</ele>
        <time>2016-06-18T09:06:04.000Z</time>
      </trkpt>
      <trkpt lat="48.48779" lon="-4.49201">
        <ele>77.400001525879</ele>
        <time>2016-06-18T09:06:07.000Z</time>
      </trkpt>
      <trkpt lat="48.48772" lon="-4.49195">
        <ele>78</ele>
        <time>2016-06-18T09:06:09.000Z</time>
      </trkpt>
      <trkpt lat="48.48751" lon="-4.49176">
        <ele>79.599998474121</ele>
        <time>2016-06-18T09:06:15.000Z</time>
      </trkpt>
      <trkpt lat="48.48735" lon="-4.49159">
        <ele>81</ele>
        <time>2016-06-18T09:06:21.000Z</time>
      </trkpt>
      <trkpt lat="48.4872" lon="-4.49149">
        <ele>81.599998474121</ele>
        <time>2016-06-18T09:06:26.000Z</time>
      </trkpt>
      <trkpt lat="48.487" lon="-4.49139">
        <ele>81.800003051758</ele>
        <time>2016-06-18T09:06:33.000Z</time>
      </trkpt>
      <trkpt lat="48.48683" lon="-4.4913">
        <ele>82</ele>
        <time>2016-06-18T09:06:39.000Z</time>
      </trkpt>
      <trkpt lat="48.48667" lon="-4.49117">
        <ele>82.199996948242</ele>
        <time>2016-06-18T09:06:45.000Z</time>
      </trkpt>
      <trkpt lat="48.4865" lon="-4.49104">
        <ele>82.599998474121</ele>
        <time>2016-06-18T09:06:51.000Z</time>
      </trkpt>
      <trkpt lat="48.48638" lon="-4.49102">
        <ele>82.800003051758</ele>
        <time>2016-06-18T09:06:56.000Z</time>
      </trkpt>
      <trkpt lat="48.48624" lon="-4.49111">
        <ele>82.800003051758</ele>
        <time>2016-06-18T09:07:01.000Z</time>
      </trkpt>
      <trkpt lat="48.4861" lon="-4.49108">
        <ele>83</ele>
        <time>2016-06-18T09:07:05.000Z</time>
      </trkpt>
      <trkpt lat="48.48602" lon="-4.49092">
        <ele>83</ele>
        <time>2016-06-18T09:07:09.000Z</time>
      </trkpt>
      <trkpt lat="48.48592" lon="-4.49057">
        <ele>83</ele>
        <time>2016-06-18T09:07:16.000Z</time>
      </trkpt>
      <trkpt lat="48.48585" lon="-4.49031">
        <ele>83</ele>
        <time>2016-06-18T09:07:21.000Z</time>
      </trkpt>
      <trkpt lat="48.48581" lon="-4.4901">
        <ele>83</ele>
        <time>2016-06-18T09:07:25.000Z</time>
      </trkpt>
      <trkpt lat="48.48572" lon="-4.48981">
        <ele>83</ele>
        <time>2016-06-18T09:07:30.000Z</time>
      </trkpt>
      <trkpt lat="48.4857" lon="-4.48975">
        <ele>83</ele>
        <time>2016-06-18T09:07:31.000Z</time>
      </trkpt>
      <trkpt lat="48.48551" lon="-4.48968">
        <ele>82.599998474121</ele>
        <time>2016-06-18T09:07:35.000Z</time>
      </trkpt>
      <trkpt lat="48.48537" lon="-4.48973">
        <ele>82.599998474121</ele>
        <time>2016-06-18T09:07:38.000Z</time>
      </trkpt>
      <trkpt lat="48.48511" lon="-4.48989">
        <ele>82.400001525879</ele>
        <time>2016-06-18T09:07:44.000Z</time>
      </trkpt>
      <trkpt lat="48.48484" lon="-4.48994">
        <ele>82.599998474121</ele>
        <time>2016-06-18T09:07:49.000Z</time>
      </trkpt>
      <trkpt lat="48.48434" lon="-4.48979">
        <ele>81.800003051758</ele>
        <time>2016-06-18T09:07:57.000Z</time>
      </trkpt>
      <trkpt lat="48.48399" lon="-4.48968">
        <ele>80</ele>
        <time>2016-06-18T09:08:02.000Z</time>
      </trkpt>
      <trkpt lat="48.48372" lon="-4.48966">
        <ele>79</ele>
        <time>2016-06-18T09:08:06.000Z</time>
      </trkpt>
      <trkpt lat="48.48324" lon="-4.48981">
        <ele>77.400001525879</ele>
        <time>2016-06-18T09:08:13.000Z</time>
      </trkpt>
      <trkpt lat="48.48282" lon="-4.48995">
        <ele>75.599998474121</ele>
        <time>2016-06-18T09:08:19.000Z</time>
      </trkpt>
      <trkpt lat="48.48267" lon="-4.48999">
        <ele>74.800003051758</ele>
        <time>2016-06-18T09:08:21.000Z</time>
      </trkpt>
      <trkpt lat="48.48245" lon="-4.48996">
        <ele>73.800003051758</ele>
        <time>2016-06-18T09:08:25.000Z</time>
      </trkpt>
      <trkpt lat="48.48242" lon="-4.48977">
        <ele>73</ele>
        <time>2016-06-18T09:08:28.000Z</time>
      </trkpt>
      <trkpt lat="48.48242" lon="-4.48968">
        <ele>72.800003051758</ele>
        <time>2016-06-18T09:08:29.000Z</time>
      </trkpt>
      <trkpt lat="48.48241" lon="-4.4895">
        <ele>72</ele>
        <time>2016-06-18T09:08:31.000Z</time>
      </trkpt>
      <trkpt lat="48.48249" lon="-4.48857">
        <ele>71</ele>
        <time>2016-06-18T09:08:40.000Z</time>
      </trkpt>
      <trkpt lat="48.4825" lon="-4.48846">
        <ele>71.199996948242</ele>
        <time>2016-06-18T09:08:41.000Z</time>
      </trkpt>
      <trkpt lat="48.4825" lon="-4.48795">
        <ele>72</ele>
        <time>2016-06-18T09:08:46.000Z</time>
      </trkpt>
      <trkpt lat="48.48237" lon="-4.48733">
        <ele>74</ele>
        <time>2016-06-18T09:08:53.000Z</time>
      </trkpt>
      <trkpt lat="48.48232" lon="-4.48714">
        <ele>75</ele>
        <time>2016-06-18T09:08:55.000Z</time>
      </trkpt>
      <trkpt lat="48.48228" lon="-4.48688">
        <ele>76.199996948242</ele>
        <time>2016-06-18T09:08:58.000Z</time>
      </trkpt>
      <trkpt lat="48.48222" lon="-4.4865">
        <ele>77.800003051758</ele>
        <time>2016-06-18T09:09:04.000Z</time>
      </trkpt>
      <trkpt lat="48.48219" lon="-4.48632">
        <ele>78.599998474121</ele>
        <time>2016-06-18T09:09:09.000Z</time>
      </trkpt>
      <trkpt lat="48.48214" lon="-4.48607">
        <ele>79.400001525879</ele>
        <time>2016-06-18T09:09:15.000Z</time>
      </trkpt>
      <trkpt lat="48.48206" lon="-4.48562">
        <ele>80.599998474121</ele>
        <time>2016-06-18T09:09:23.000Z</time>
      </trkpt>
      <trkpt lat="48.48196" lon="-4.48524">
        <ele>81.400001525879</ele>
        <time>2016-06-18T09:09:30.000Z</time>
      </trkpt>
      <trkpt lat="48.48182" lon="-4.48491">
        <ele>81.400001525879</ele>
        <time>2016-06-18T09:09:36.000Z</time>
      </trkpt>
      <trkpt lat="48.4818" lon="-4.48485">
        <ele>81.400001525879</ele>
        <time>2016-06-18T09:09:37.000Z</time>
      </trkpt>
      <trkpt lat="48.48176" lon="-4.48465">
        <ele>81.400001525879</ele>
        <time>2016-06-18T09:09:40.000Z</time>
      </trkpt>
      <trkpt lat="48.48174" lon="-4.48451">
        <ele>81.400001525879</ele>
        <time>2016-06-18T09:09:42.000Z</time>
      </trkpt>
      <trkpt lat="48.48172" lon="-4.48424">
        <ele>80.400001525879</ele>
        <time>2016-06-18T09:09:46.000Z</time>
      </trkpt>
      <trkpt lat="48.48163" lon="-4.48376">
        <ele>78.199996948242</ele>
        <time>2016-06-18T09:09:52.000Z</time>
      </trkpt>
      <trkpt lat="48.48162" lon="-4.48366">
        <ele>78</ele>
        <time>2016-06-18T09:09:53.000Z</time>
      </trkpt>
      <trkpt lat="48.48164" lon="-4.48305">
        <ele>75.800003051758</ele>
        <time>2016-06-18T09:09:59.000Z</time>
      </trkpt>
      <trkpt lat="48.48163" lon="-4.48282">
        <ele>75.800003051758</ele>
        <time>2016-06-18T09:10:01.000Z</time>
      </trkpt>
      <trkpt lat="48.48146" lon="-4.48237">
        <ele>75</ele>
        <time>2016-06-18T09:10:05.000Z</time>
      </trkpt>
      <trkpt lat="48.48137" lon="-4.48227">
        <ele>75.400001525879</ele>
        <time>2016-06-18T09:10:06.000Z</time>
      </trkpt>
      <trkpt lat="48.4812" lon="-4.48211">
        <ele>76.199996948242</ele>
        <time>2016-06-18T09:10:08.000Z</time>
      </trkpt>
      <trkpt lat="48.48086" lon="-4.48158">
        <ele>77.199996948242</ele>
        <time>2016-06-18T09:10:14.000Z</time>
      </trkpt>
      <trkpt lat="48.48078" lon="-4.48133">
        <ele>77.400001525879</ele>
        <time>2016-06-18T09:10:18.000Z</time>
      </trkpt>
      <trkpt lat="48.48066" lon="-4.48098">
        <ele>78.199996948242</ele>
        <time>2016-06-18T09:10:24.000Z</time>
      </trkpt>
      <trkpt lat="48.48063" lon="-4.48088">
        <ele>78.400001525879</ele>
        <time>2016-06-18T09:10:26.000Z</time>
      </trkpt>
      <trkpt lat="48.48054" lon="-4.4806">
        <ele>79</ele>
        <time>2016-06-18T09:10:32.000Z</time>
      </trkpt>
      <trkpt lat="48.48037" lon="-4.48005">
        <ele>80</ele>
        <time>2016-06-18T09:10:40.000Z</time>
      </trkpt>
      <trkpt lat="48.48026" lon="-4.4795">
        <ele>80</ele>
        <time>2016-06-18T09:10:47.000Z</time>
      </trkpt>
      <trkpt lat="48.48022" lon="-4.47933">
        <ele>80.199996948242</ele>
        <time>2016-06-18T09:10:49.000Z</time>
      </trkpt>
      <trkpt lat="48.48019" lon="-4.47911">
        <ele>80.599998474121</ele>
        <time>2016-06-18T09:10:52.000Z</time>
      </trkpt>
      <trkpt lat="48.48016" lon="-4.47897">
        <ele>80.599998474121</ele>
        <time>2016-06-18T09:10:54.000Z</time>
      </trkpt>
      <trkpt lat="48.47993" lon="-4.47845">
        <ele>81.199996948242</ele>
        <time>2016-06-18T09:11:02.000Z</time>
      </trkpt>
      <trkpt lat="48.47977" lon="-4.47812">
        <ele>81.800003051758</ele>
        <time>2016-06-18T09:11:07.000Z</time>
      </trkpt>
      <trkpt lat="48.47966" lon="-4.47783">
        <ele>82.599998474121</ele>
        <time>2016-06-18T09:11:11.000Z</time>
      </trkpt>
      <trkpt lat="48.47939" lon="-4.47724">
        <ele>83</ele>
        <time>2016-06-18T09:11:19.000Z</time>
      </trkpt>
      <trkpt lat="48.47914" lon="-4.47681">
        <ele>82.800003051758</ele>
        <time>2016-06-18T09:11:25.000Z</time>
      </trkpt>
      <trkpt lat="48.47889" lon="-4.47639">
        <ele>82.800003051758</ele>
        <time>2016-06-18T09:11:31.000Z</time>
      </trkpt>
      <trkpt lat="48.47876" lon="-4.476">
        <ele>82.599998474121</ele>
        <time>2016-06-18T09:11:36.000Z</time>
      </trkpt>
      <trkpt lat="48.47867" lon="-4.47567">
        <ele>81.800003051758</ele>
        <time>2016-06-18T09:11:41.000Z</time>
      </trkpt>
      <trkpt lat="48.47859" lon="-4.47569">
        <ele>81.800003051758</ele>
        <time>2016-06-18T09:11:44.000Z</time>
      </trkpt>
      <trkpt lat="48.47854" lon="-4.47573">
        <ele>82</ele>
        <time>2016-06-18T09:11:46.000Z</time>
      </trkpt>
      <trkpt lat="48.47839" lon="-4.47587">
        <ele>82</ele>
        <time>2016-06-18T09:11:51.000Z</time>
      </trkpt>
      <trkpt lat="48.47822" lon="-4.47619">
        <ele>82.400001525879</ele>
        <time>2016-06-18T09:11:57.000Z</time>
      </trkpt>
      <trkpt lat="48.47812" lon="-4.47641">
        <ele>82.400001525879</ele>
        <time>2016-06-18T09:12:01.000Z</time>
      </trkpt>
      <trkpt lat="48.47794" lon="-4.47661">
        <ele>82.199996948242</ele>
        <time>2016-06-18T09:12:06.000Z</time>
      </trkpt>
      <trkpt lat="48.47789" lon="-4.47662">
        <ele>82.199996948242</ele>
        <time>2016-06-18T09:12:07.000Z</time>
      </trkpt>
      <trkpt lat="48.47762" lon="-4.4767">
        <ele>81.400001525879</ele>
        <time>2016-06-18T09:12:12.000Z</time>
      </trkpt>
      <trkpt lat="48.4773" lon="-4.47676">
        <ele>79.599998474121</ele>
        <time>2016-06-18T09:12:18.000Z</time>
      </trkpt>
      <trkpt lat="48.4769" lon="-4.47677">
        <ele>77.800003051758</ele>
        <time>2016-06-18T09:12:26.000Z</time>
      </trkpt>
      <trkpt lat="48.47662" lon="-4.47673">
        <ele>76.199996948242</ele>
        <time>2016-06-18T09:12:32.000Z</time>
      </trkpt>
      <trkpt lat="48.4764" lon="-4.4767">
        <ele>74.599998474121</ele>
        <time>2016-06-18T09:12:36.000Z</time>
      </trkpt>
      <trkpt lat="48.47604" lon="-4.47673">
        <ele>72</ele>
        <time>2016-06-18T09:12:41.000Z</time>
      </trkpt>
      <trkpt lat="48.47586" lon="-4.47676">
        <ele>72</ele>
        <time>2016-06-18T09:12:45.000Z</time>
      </trkpt>
      <trkpt lat="48.47581" lon="-4.47673">
        <ele>72.199996948242</ele>
        <time>2016-06-18T09:12:47.000Z</time>
      </trkpt>
      <trkpt lat="48.47574" lon="-4.47671">
        <ele>72.599998474121</ele>
        <time>2016-06-18T09:12:50.000Z</time>
      </trkpt>
      <trkpt lat="48.47557" lon="-4.47666">
        <ele>73.400001525879</ele>
        <time>2016-06-18T09:12:57.000Z</time>
      </trkpt>
      <trkpt lat="48.47543" lon="-4.47662">
        <ele>73.599998474121</ele>
        <time>2016-06-18T09:13:01.000Z</time>
      </trkpt>
      <trkpt lat="48.47516" lon="-4.47648">
        <ele>73.400001525879</ele>
        <time>2016-06-18T09:13:06.000Z</time>
      </trkpt>
      <trkpt lat="48.47501" lon="-4.47644">
        <ele>74.199996948242</ele>
        <time>2016-06-18T09:13:09.000Z</time>
      </trkpt>
      <trkpt lat="48.47476" lon="-4.47635">
        <ele>75.199996948242</ele>
        <time>2016-06-18T09:13:16.000Z</time>
      </trkpt>
      <trkpt lat="48.47453" lon="-4.47627">
        <ele>75.599998474121</ele>
        <time>2016-06-18T09:13:22.000Z</time>
      </trkpt>
      <trkpt lat="48.47419" lon="-4.47616">
        <ele>76.599998474121</ele>
        <time>2016-06-18T09:13:31.000Z</time>
      </trkpt>
      <trkpt lat="48.4739" lon="-4.47611">
        <ele>77.400001525879</ele>
        <time>2016-06-18T09:13:39.000Z</time>
      </trkpt>
      <trkpt lat="48.47368" lon="-4.47603">
        <ele>77.800003051758</ele>
        <time>2016-06-18T09:13:45.000Z</time>
      </trkpt>
      <trkpt lat="48.47342" lon="-4.47595">
        <ele>78.199996948242</ele>
        <time>2016-06-18T09:13:52.000Z</time>
      </trkpt>
      <trkpt lat="48.47325" lon="-4.47594">
        <ele>77.800003051758</ele>
        <time>2016-06-18T09:13:56.000Z</time>
      </trkpt>
      <trkpt lat="48.47292" lon="-4.47586">
        <ele>77.400001525879</ele>
        <time>2016-06-18T09:14:03.000Z</time>
      </trkpt>
      <trkpt lat="48.47252" lon="-4.47575">
        <ele>77.599998474121</ele>
        <time>2016-06-18T09:14:10.000Z</time>
      </trkpt>
      <trkpt lat="48.47211" lon="-4.47566">
        <ele>77.400001525879</ele>
        <time>2016-06-18T09:14:17.000Z</time>
      </trkpt>
      <trkpt lat="48.47172" lon="-4.47557">
        <ele>77.400001525879</ele>
        <time>2016-06-18T09:14:24.000Z</time>
      </trkpt>
      <trkpt lat="48.47129" lon="-4.47546">
        <ele>78.199996948242</ele>
        <time>2016-06-18T09:14:32.000Z</time>
      </trkpt>
      <trkpt lat="48.47085" lon="-4.47535">
        <ele>79.400001525879</ele>
        <time>2016-06-18T09:14:40.000Z</time>
      </trkpt>
      <trkpt lat="48.47047" lon="-4.47525">
        <ele>80</ele>
        <time>2016-06-18T09:14:47.000Z</time>
      </trkpt>
      <trkpt lat="48.47014" lon="-4.47515">
        <ele>80.199996948242</ele>
        <time>2016-06-18T09:14:53.000Z</time>
      </trkpt>
      <trkpt lat="48.46988" lon="-4.47509">
        <ele>80.199996948242</ele>
        <time>2016-06-18T09:14:58.000Z</time>
      </trkpt>
      <trkpt lat="48.46953" lon="-4.47501">
        <ele>80.599998474121</ele>
        <time>2016-06-18T09:15:04.000Z</time>
      </trkpt>
      <trkpt lat="48.46926" lon="-4.47494">
        <ele>81.199996948242</ele>
        <time>2016-06-18T09:15:09.000Z</time>
      </trkpt>
      <trkpt lat="48.4691" lon="-4.47493">
        <ele>81.400001525879</ele>
        <time>2016-06-18T09:15:12.000Z</time>
      </trkpt>
      <trkpt lat="48.4686" lon="-4.47505">
        <ele>82</ele>
        <time>2016-06-18T09:15:21.000Z</time>
      </trkpt>
      <trkpt lat="48.46827" lon="-4.47503">
        <ele>82</ele>
        <time>2016-06-18T09:15:27.000Z</time>
      </trkpt>
      <trkpt lat="48.46821" lon="-4.47502">
        <ele>81.800003051758</ele>
        <time>2016-06-18T09:15:28.000Z</time>
      </trkpt>
      <trkpt lat="48.46776" lon="-4.47493">
        <ele>82.199996948242</ele>
        <time>2016-06-18T09:15:36.000Z</time>
      </trkpt>
      <trkpt lat="48.46736" lon="-4.47479">
        <ele>82.800003051758</ele>
        <time>2016-06-18T09:15:43.000Z</time>
      </trkpt>
      <trkpt lat="48.46708" lon="-4.47467">
        <ele>83.400001525879</ele>
        <time>2016-06-18T09:15:48.000Z</time>
      </trkpt>
      <trkpt lat="48.46691" lon="-4.47462">
        <ele>83.800003051758</ele>
        <time>2016-06-18T09:15:51.000Z</time>
      </trkpt>
      <trkpt lat="48.4668" lon="-4.47461">
        <ele>84</ele>
        <time>2016-06-18T09:15:53.000Z</time>
      </trkpt>
      <trkpt lat="48.46653" lon="-4.47469">
        <ele>83.800003051758</ele>
        <time>2016-06-18T09:15:58.000Z</time>
      </trkpt>
      <trkpt lat="48.46636" lon="-4.47476">
        <ele>83.800003051758</ele>
        <time>2016-06-18T09:16:01.000Z</time>
      </trkpt>
      <trkpt lat="48.46609" lon="-4.47473">
        <ele>83.400001525879</ele>
        <time>2016-06-18T09:16:06.000Z</time>
      </trkpt>
      <trkpt lat="48.4657" lon="-4.47464">
        <ele>84</ele>
        <time>2016-06-18T09:16:13.000Z</time>
      </trkpt>
      <trkpt lat="48.46526" lon="-4.47469">
        <ele>85.599998474121</ele>
        <time>2016-06-18T09:16:21.000Z</time>
      </trkpt>
      <trkpt lat="48.465" lon="-4.47471">
        <ele>86</ele>
        <time>2016-06-18T09:16:26.000Z</time>
      </trkpt>
      <trkpt lat="48.46466" lon="-4.47472">
        <ele>86.599998474121</ele>
        <time>2016-06-18T09:16:32.000Z</time>
      </trkpt>
      <trkpt lat="48.46445" lon="-4.4747">
        <ele>87.199996948242</ele>
        <time>2016-06-18T09:16:36.000Z</time>
      </trkpt>
      <trkpt lat="48.46398" lon="-4.47468">
        <ele>88</ele>
        <time>2016-06-18T09:16:45.000Z</time>
      </trkpt>
      <trkpt lat="48.46367" lon="-4.47468">
        <ele>88</ele>
        <time>2016-06-18T09:16:51.000Z</time>
      </trkpt>
      <trkpt lat="48.46333" lon="-4.47473">
        <ele>88.199996948242</ele>
        <time>2016-06-18T09:16:57.000Z</time>
      </trkpt>
      <trkpt lat="48.46308" lon="-4.47489">
        <ele>88.599998474121</ele>
        <time>2016-06-18T09:17:02.000Z</time>
      </trkpt>
      <trkpt lat="48.46302" lon="-4.47492">
        <ele>88.599998474121</ele>
        <time>2016-06-18T09:17:03.000Z</time>
      </trkpt>
      <trkpt lat="48.46262" lon="-4.47513">
        <ele>89.199996948242</ele>
        <time>2016-06-18T09:17:10.000Z</time>
      </trkpt>
      <trkpt lat="48.46227" lon="-4.47527">
        <ele>89.599998474121</ele>
        <time>2016-06-18T09:17:16.000Z</time>
      </trkpt>
      <trkpt lat="48.46182" lon="-4.47541">
        <ele>89.599998474121</ele>
        <time>2016-06-18T09:17:24.000Z</time>
      </trkpt>
      <trkpt lat="48.4616" lon="-4.47548">
        <ele>89.400001525879</ele>
        <time>2016-06-18T09:17:28.000Z</time>
      </trkpt>
      <trkpt lat="48.4614" lon="-4.47547">
        <ele>89.199996948242</ele>
        <time>2016-06-18T09:17:32.000Z</time>
      </trkpt>
      <trkpt lat="48.46109" lon="-4.47543">
        <ele>88.800003051758</ele>
        <time>2016-06-18T09:17:38.000Z</time>
      </trkpt>
      <trkpt lat="48.4607" lon="-4.47542">
        <ele>88.800003051758</ele>
        <time>2016-06-18T09:17:45.000Z</time>
      </trkpt>
      <trkpt lat="48.4607" lon="-4.47542">
        <ele>88.800003051758</ele>
        <time>2016-06-18T09:17:45.000Z</time>
      </trkpt>
      <trkpt lat="48.46052" lon="-4.47544">
        <ele>88.599998474121</ele>
        <time>2016-06-18T09:17:48.000Z</time>
      </trkpt>
      <trkpt lat="48.46002" lon="-4.47551">
        <ele>88.599998474121</ele>
        <time>2016-06-18T09:17:57.000Z</time>
      </trkpt>
      <trkpt lat="48.45958" lon="-4.47557">
        <ele>89.599998474121</ele>
        <time>2016-06-18T09:18:05.000Z</time>
      </trkpt>
      <trkpt lat="48.45919" lon="-4.47564">
        <ele>90.199996948242</ele>
        <time>2016-06-18T09:18:12.000Z</time>
      </trkpt>
      <trkpt lat="48.4587" lon="-4.47571">
        <ele>90</ele>
        <time>2016-06-18T09:18:21.000Z</time>
      </trkpt>
      <trkpt lat="48.45842" lon="-4.47572">
        <ele>90</ele>
        <time>2016-06-18T09:18:26.000Z</time>
      </trkpt>
      <trkpt lat="48.45809" lon="-4.47568">
        <ele>90.400001525879</ele>
        <time>2016-06-18T09:18:34.000Z</time>
      </trkpt>
      <trkpt lat="48.45783" lon="-4.47563">
        <ele>89.400001525879</ele>
        <time>2016-06-18T09:18:40.000Z</time>
      </trkpt>
      <trkpt lat="48.4574" lon="-4.47547">
        <ele>89</ele>
        <time>2016-06-18T09:18:47.000Z</time>
      </trkpt>
      <trkpt lat="48.45694" lon="-4.47515">
        <ele>89.199996948242</ele>
        <time>2016-06-18T09:18:55.000Z</time>
      </trkpt>
      <trkpt lat="48.45651" lon="-4.47473">
        <ele>87.800003051758</ele>
        <time>2016-06-18T09:19:03.000Z</time>
      </trkpt>
      <trkpt lat="48.45614" lon="-4.4743">
        <ele>88.599998474121</ele>
        <time>2016-06-18T09:19:11.000Z</time>
      </trkpt>
      <trkpt lat="48.4561" lon="-4.47425">
        <ele>88.800003051758</ele>
        <time>2016-06-18T09:19:12.000Z</time>
      </trkpt>
      <trkpt lat="48.45604" lon="-4.47415">
        <ele>88.800003051758</ele>
        <time>2016-06-18T09:19:14.000Z</time>
      </trkpt>
      <trkpt lat="48.45597" lon="-4.47406">
        <ele>89</ele>
        <time>2016-06-18T09:19:16.000Z</time>
      </trkpt>
      <trkpt lat="48.45588" lon="-4.47385">
        <ele>89.199996948242</ele>
        <time>2016-06-18T09:19:20.000Z</time>
      </trkpt>
      <trkpt lat="48.45583" lon="-4.47367">
        <ele>89.400001525879</ele>
        <time>2016-06-18T09:19:23.000Z</time>
      </trkpt>
      <trkpt lat="48.45574" lon="-4.47334">
        <ele>90</ele>
        <time>2016-06-18T09:19:28.000Z</time>
      </trkpt>
      <trkpt lat="48.45567" lon="-4.47301">
        <ele>90.400001525879</ele>
        <time>2016-06-18T09:19:33.000Z</time>
      </trkpt>
      <trkpt lat="48.45557" lon="-4.47254">
        <ele>90.199996948242</ele>
        <time>2016-06-18T09:19:41.000Z</time>
      </trkpt>
      <trkpt lat="48.45553" lon="-4.47237">
        <ele>90</ele>
        <time>2016-06-18T09:19:44.000Z</time>
      </trkpt>
      <trkpt lat="48.45556" lon="-4.47213">
        <ele>89.400001525879</ele>
        <time>2016-06-18T09:19:48.000Z</time>
      </trkpt>
      <trkpt lat="48.45571" lon="-4.47153">
        <ele>89.599998474121</ele>
        <time>2016-06-18T09:19:57.000Z</time>
      </trkpt>
      <trkpt lat="48.45589" lon="-4.47079">
        <ele>90.599998474121</ele>
        <time>2016-06-18T09:20:07.000Z</time>
      </trkpt>
      <trkpt lat="48.45607" lon="-4.47001">
        <ele>90.800003051758</ele>
        <time>2016-06-18T09:20:17.000Z</time>
      </trkpt>
      <trkpt lat="48.45623" lon="-4.46928">
        <ele>90.400001525879</ele>
        <time>2016-06-18T09:20:26.000Z</time>
      </trkpt>
      <trkpt lat="48.45637" lon="-4.46854">
        <ele>89.599998474121</ele>
        <time>2016-06-18T09:20:34.000Z</time>
      </trkpt>
      <trkpt lat="48.45658" lon="-4.46763">
        <ele>89</ele>
        <time>2016-06-18T09:20:43.000Z</time>
      </trkpt>
      <trkpt lat="48.45683" lon="-4.46687">
        <ele>89</ele>
        <time>2016-06-18T09:20:50.000Z</time>
      </trkpt>
      <trkpt lat="48.45704" lon="-4.46627">
        <ele>89</ele>
        <time>2016-06-18T09:20:56.000Z</time>
      </trkpt>
      <trkpt lat="48.45706" lon="-4.46617">
        <ele>89</ele>
        <time>2016-06-18T09:20:57.000Z</time>
      </trkpt>
      <trkpt lat="48.45712" lon="-4.46559">
        <ele>89</ele>
        <time>2016-06-18T09:21:03.000Z</time>
      </trkpt>
      <trkpt lat="48.45716" lon="-4.46526">
        <ele>89</ele>
        <time>2016-06-18T09:21:07.000Z</time>
      </trkpt>
      <trkpt lat="48.45722" lon="-4.46469">
        <ele>88.800003051758</ele>
        <time>2016-06-18T09:21:13.000Z</time>
      </trkpt>
      <trkpt lat="48.45722" lon="-4.46462">
        <ele>89</ele>
        <time>2016-06-18T09:21:14.000Z</time>
      </trkpt>
      <trkpt lat="48.45722" lon="-4.46423">
        <ele>88.800003051758</ele>
        <time>2016-06-18T09:21:19.000Z</time>
      </trkpt>
      <trkpt lat="48.45716" lon="-4.46362">
        <ele>88.199996948242</ele>
        <time>2016-06-18T09:21:27.000Z</time>
      </trkpt>
      <trkpt lat="48.4571" lon="-4.46295">
        <ele>88.199996948242</ele>
        <time>2016-06-18T09:21:35.000Z</time>
      </trkpt>
      <trkpt lat="48.45708" lon="-4.46269">
        <ele>88.199996948242</ele>
        <time>2016-06-18T09:21:38.000Z</time>
      </trkpt>
      <trkpt lat="48.45709" lon="-4.46213">
        <ele>87.800003051758</ele>
        <time>2016-06-18T09:21:45.000Z</time>
      </trkpt>
      <trkpt lat="48.45709" lon="-4.46197">
        <ele>87.599998474121</ele>
        <time>2016-06-18T09:21:47.000Z</time>
      </trkpt>
      <trkpt lat="48.45707" lon="-4.46157">
        <ele>86.800003051758</ele>
        <time>2016-06-18T09:21:52.000Z</time>
      </trkpt>
      <trkpt lat="48.45703" lon="-4.46118">
        <ele>86.199996948242</ele>
        <time>2016-06-18T09:21:57.000Z</time>
      </trkpt>
      <trkpt lat="48.457" lon="-4.46086">
        <ele>86</ele>
        <time>2016-06-18T09:22:01.000Z</time>
      </trkpt>
      <trkpt lat="48.45689" lon="-4.46068">
        <ele>86</ele>
        <time>2016-06-18T09:22:05.000Z</time>
      </trkpt>
      <trkpt lat="48.45676" lon="-4.4607">
        <ele>86</ele>
        <time>2016-06-18T09:22:08.000Z</time>
      </trkpt>
      <trkpt lat="48.45652" lon="-4.46092">
        <ele>85.599998474121</ele>
        <time>2016-06-18T09:22:14.000Z</time>
      </trkpt>
      <trkpt lat="48.45624" lon="-4.46117">
        <ele>85.400001525879</ele>
        <time>2016-06-18T09:22:22.000Z</time>
      </trkpt>
      <trkpt lat="48.45604" lon="-4.46135">
        <ele>85.199996948242</ele>
        <time>2016-06-18T09:22:29.000Z</time>
      </trkpt>
      <trkpt lat="48.45595" lon="-4.46143">
        <ele>85.199996948242</ele>
        <time>2016-06-18T09:22:33.000Z</time>
      </trkpt>
      <trkpt lat="48.45579" lon="-4.46138">
        <ele>85</ele>
        <time>2016-06-18T09:22:39.000Z</time>
      </trkpt>
      <trkpt lat="48.45569" lon="-4.46109">
        <ele>85.800003051758</ele>
        <time>2016-06-18T09:22:46.000Z</time>
      </trkpt>
      <trkpt lat="48.45561" lon="-4.46083">
        <ele>86.400001525879</ele>
        <time>2016-06-18T09:22:52.000Z</time>
      </trkpt>
      <trkpt lat="48.45559" lon="-4.46075">
        <ele>86.400001525879</ele>
        <time>2016-06-18T09:22:54.000Z</time>
      </trkpt>
      <trkpt lat="48.45551" lon="-4.46073">
        <ele>86.599998474121</ele>
        <time>2016-06-18T09:22:58.000Z</time>
      </trkpt>
      <trkpt lat="48.45546" lon="-4.46075">
        <ele>86.800003051758</ele>
        <time>2016-06-18T09:23:00.000Z</time>
      </trkpt>
      <trkpt lat="48.45527" lon="-4.46084">
        <ele>87.199996948242</ele>
        <time>2016-06-18T09:23:06.000Z</time>
      </trkpt>
      <trkpt lat="48.45505" lon="-4.46094">
        <ele>87.400001525879</ele>
        <time>2016-06-18T09:23:13.000Z</time>
      </trkpt>
      <trkpt lat="48.45502" lon="-4.46095">
        <ele>87.400001525879</ele>
        <time>2016-06-18T09:23:14.000Z</time>
      </trkpt>
      <trkpt lat="48.45492" lon="-4.46083">
        <ele>87.599998474121</ele>
        <time>2016-06-18T09:23:19.000Z</time>
      </trkpt>
      <trkpt lat="48.45485" lon="-4.46064">
        <ele>88</ele>
        <time>2016-06-18T09:23:26.000Z</time>
      </trkpt>
      <trkpt lat="48.45485" lon="-4.4606">
        <ele>88</ele>
        <time>2016-06-18T09:23:28.000Z</time>
      </trkpt>
      <trkpt lat="48.45483" lon="-4.46059">
        <ele>88</ele>
        <time>2016-06-18T09:23:32.000Z</time>
      </trkpt>
      <trkpt lat="48.45487" lon="-4.46068">
        <ele>88</ele>
        <time>2016-06-18T09:23:54.000Z</time>
      </trkpt>
    </trkseg>
  </trk>
</gpx>